<?xml version="1.0" encoding="UTF-8" standalone="no" ?>
<gpx xmlns="http://www.topografix.com/GPX/1/1" xmlns:xsi="http://www.w3.org/2001/XMLSchema-instance" xsi:schemaLocation="http://www.topografix.com/GPX/1/1 http://www.topografix.com/GPX/1/1/gpx.xsd" version="1.1" creator="VisuGPX - https://www.visugpx.com">
  <metadata>
    <name>RANDO BEAUX VAURES 24 KM</name>
    <desc><![CDATA[RANDO BEAUX 24 KM.DEPART ARRIVEE BEAUX;COURENC.LE FRAISSE.VAURES.PEYRE.LE MAZEL.LA NAVETTE.MERCURET.ARZILHAC]]></desc>
  </metadata>
  <trk>
    <name><![CDATA[14-JAN-23 16:35:28]]></name>
    <extensions>
      <line xmlns="http://www.topografix.com/GPX/gpx_style/0/2">
        <color>0000FF</color>
        <width>4</width>
      </line>
    </extensions>
    <trkseg>
      <trkpt lat="45.18703" lon="4.09441">
        <ele>745</ele>
      </trkpt>
      <trkpt lat="45.18725" lon="4.09522">
        <ele>745.9</ele>
      </trkpt>
      <trkpt lat="45.18819" lon="4.09564">
        <ele>740.9</ele>
      </trkpt>
      <trkpt lat="45.18842" lon="4.09543">
        <ele>739.87</ele>
        <time>2023-01-14T08:53:43Z</time>
        <extensions>
          <visugpx:TrkExtension xmlns:visugpx="https://www.visugpx.com/editgpx/">
            <visugpx:node>1</visugpx:node>
            </visugpx:TrkExtension>
        </extensions>
      </trkpt>
      <trkpt lat="45.18869" lon="4.0953">
        <ele>736.51</ele>
        <time>2023-01-14T08:54:04Z</time>
      </trkpt>
      <trkpt lat="45.18897" lon="4.09521">
        <ele>732.66</ele>
        <time>2023-01-14T08:54:23Z</time>
      </trkpt>
      <trkpt lat="45.1892" lon="4.09512">
        <ele>730.74</ele>
        <time>2023-01-14T08:54:40Z</time>
      </trkpt>
      <trkpt lat="45.18941" lon="4.09505">
        <ele>728.34</ele>
        <time>2023-01-14T08:54:56Z</time>
      </trkpt>
      <trkpt lat="45.18966" lon="4.09497">
        <ele>725.45</ele>
        <time>2023-01-14T08:55:14Z</time>
      </trkpt>
      <trkpt lat="45.18994" lon="4.0949">
        <ele>725.93</ele>
        <time>2023-01-14T08:55:33Z</time>
      </trkpt>
      <trkpt lat="45.19018" lon="4.09486">
        <ele>725.45</ele>
        <time>2023-01-14T08:55:50Z</time>
      </trkpt>
      <trkpt lat="45.19049" lon="4.09477">
        <ele>723.53</ele>
        <time>2023-01-14T08:56:10Z</time>
      </trkpt>
      <trkpt lat="45.1908" lon="4.09469">
        <ele>723.05</ele>
        <time>2023-01-14T08:56:31Z</time>
      </trkpt>
      <trkpt lat="45.19105" lon="4.09464">
        <ele>724.01</ele>
        <time>2023-01-14T08:56:48Z</time>
      </trkpt>
      <trkpt lat="45.19139" lon="4.09461">
        <ele>725.93</ele>
        <time>2023-01-14T08:57:11Z</time>
      </trkpt>
      <trkpt lat="45.1917" lon="4.09464">
        <ele>725.45</ele>
        <time>2023-01-14T08:57:35Z</time>
      </trkpt>
      <trkpt lat="45.19203" lon="4.09458">
        <ele>724.97</ele>
        <time>2023-01-14T08:57:56Z</time>
      </trkpt>
      <trkpt lat="45.19238" lon="4.0947">
        <ele>722.09</ele>
        <time>2023-01-14T08:58:18Z</time>
      </trkpt>
      <trkpt lat="45.19276" lon="4.09484">
        <ele>717.28</ele>
        <time>2023-01-14T08:58:40Z</time>
      </trkpt>
      <trkpt lat="45.19296" lon="4.09482">
        <ele>720.16</ele>
        <time>2023-01-14T08:58:59Z</time>
      </trkpt>
      <trkpt lat="45.19322" lon="4.09492">
        <ele>717.28</ele>
        <time>2023-01-14T08:59:17Z</time>
      </trkpt>
      <trkpt lat="45.19352" lon="4.09509">
        <ele>714.4</ele>
        <time>2023-01-14T08:59:39Z</time>
      </trkpt>
      <trkpt lat="45.19377" lon="4.09535">
        <ele>713.92</ele>
        <time>2023-01-14T09:00:00Z</time>
      </trkpt>
      <trkpt lat="45.19397" lon="4.09567">
        <ele>713.44</ele>
        <time>2023-01-14T09:00:20Z</time>
      </trkpt>
      <trkpt lat="45.19409" lon="4.09596">
        <ele>712.47</ele>
        <time>2023-01-14T09:00:36Z</time>
      </trkpt>
      <trkpt lat="45.1942" lon="4.0963">
        <ele>709.11</ele>
        <time>2023-01-14T09:00:54Z</time>
      </trkpt>
      <trkpt lat="45.19423" lon="4.09634">
        <ele>709.59</ele>
        <time>2023-01-14T09:01:07Z</time>
      </trkpt>
      <trkpt lat="45.19423" lon="4.09633">
        <ele>710.07</ele>
        <time>2023-01-14T09:01:18Z</time>
      </trkpt>
      <trkpt lat="45.19423" lon="4.09635">
        <ele>709.59</ele>
        <time>2023-01-14T09:01:20Z</time>
      </trkpt>
      <trkpt lat="45.19428" lon="4.0965">
        <ele>708.63</ele>
        <time>2023-01-14T09:01:29Z</time>
      </trkpt>
      <trkpt lat="45.19434" lon="4.09664">
        <ele>709.11</ele>
        <time>2023-01-14T09:01:38Z</time>
      </trkpt>
      <trkpt lat="45.19447" lon="4.09659">
        <ele>706.23</ele>
        <time>2023-01-14T09:01:49Z</time>
      </trkpt>
      <trkpt lat="45.19449" lon="4.09657">
        <ele>706.23</ele>
        <time>2023-01-14T09:01:51Z</time>
      </trkpt>
      <trkpt lat="45.19465" lon="4.09663">
        <ele>703.82</ele>
        <time>2023-01-14T09:02:06Z</time>
      </trkpt>
      <trkpt lat="45.19481" lon="4.09666">
        <ele>701.42</ele>
        <time>2023-01-14T09:02:23Z</time>
      </trkpt>
      <trkpt lat="45.19505" lon="4.09665">
        <ele>697.09</ele>
        <time>2023-01-14T09:02:40Z</time>
      </trkpt>
      <trkpt lat="45.19528" lon="4.09661">
        <ele>693.73</ele>
        <time>2023-01-14T09:02:58Z</time>
      </trkpt>
      <trkpt lat="45.19547" lon="4.09668">
        <ele>692.29</ele>
        <time>2023-01-14T09:03:12Z</time>
      </trkpt>
      <trkpt lat="45.19555" lon="4.0967">
        <ele>691.81</ele>
        <time>2023-01-14T09:03:27Z</time>
      </trkpt>
      <trkpt lat="45.19571" lon="4.09673">
        <ele>689.88</ele>
        <time>2023-01-14T09:03:44Z</time>
      </trkpt>
      <trkpt lat="45.19588" lon="4.09672">
        <ele>687</ele>
        <time>2023-01-14T09:04:03Z</time>
      </trkpt>
      <trkpt lat="45.19619" lon="4.09675">
        <ele>686.04</ele>
        <time>2023-01-14T09:04:21Z</time>
      </trkpt>
      <trkpt lat="45.19633" lon="4.09673">
        <ele>685.56</ele>
        <time>2023-01-14T09:04:36Z</time>
      </trkpt>
      <trkpt lat="45.19659" lon="4.09662">
        <ele>680.75</ele>
        <time>2023-01-14T09:04:54Z</time>
      </trkpt>
      <trkpt lat="45.19681" lon="4.09681">
        <ele>674.02</ele>
        <time>2023-01-14T09:05:13Z</time>
      </trkpt>
      <trkpt lat="45.19703" lon="4.09694">
        <ele>667.77</ele>
        <time>2023-01-14T09:05:33Z</time>
      </trkpt>
      <trkpt lat="45.19706" lon="4.09694">
        <ele>666.33</ele>
        <time>2023-01-14T09:05:50Z</time>
      </trkpt>
      <trkpt lat="45.19732" lon="4.09709">
        <ele>659.6</ele>
        <time>2023-01-14T09:06:10Z</time>
      </trkpt>
      <trkpt lat="45.19762" lon="4.09721">
        <ele>662.49</ele>
        <time>2023-01-14T09:06:25Z</time>
      </trkpt>
      <trkpt lat="45.19778" lon="4.09737">
        <ele>666.33</ele>
        <time>2023-01-14T09:06:43Z</time>
      </trkpt>
      <trkpt lat="45.19791" lon="4.09744">
        <ele>666.81</ele>
        <time>2023-01-14T09:07:03Z</time>
      </trkpt>
      <trkpt lat="45.19811" lon="4.09747">
        <ele>668.73</ele>
        <time>2023-01-14T09:07:21Z</time>
      </trkpt>
      <trkpt lat="45.19834" lon="4.09753">
        <ele>672.1</ele>
        <time>2023-01-14T09:07:39Z</time>
      </trkpt>
      <trkpt lat="45.19853" lon="4.09757">
        <ele>675.46</ele>
        <time>2023-01-14T09:07:57Z</time>
      </trkpt>
      <trkpt lat="45.1987" lon="4.09761">
        <ele>674.02</ele>
        <time>2023-01-14T09:08:17Z</time>
      </trkpt>
      <trkpt lat="45.19887" lon="4.09764">
        <ele>670.18</ele>
        <time>2023-01-14T09:08:39Z</time>
      </trkpt>
      <trkpt lat="45.19925" lon="4.09779">
        <ele>663.93</ele>
        <time>2023-01-14T09:08:58Z</time>
      </trkpt>
      <trkpt lat="45.19943" lon="4.09801">
        <ele>659.12</ele>
        <time>2023-01-14T09:09:15Z</time>
      </trkpt>
      <trkpt lat="45.19954" lon="4.09806">
        <ele>654.31</ele>
        <time>2023-01-14T09:09:30Z</time>
      </trkpt>
      <trkpt lat="45.1996" lon="4.0981">
        <ele>650.47</ele>
        <time>2023-01-14T09:09:44Z</time>
      </trkpt>
      <trkpt lat="45.19967" lon="4.09804">
        <ele>645.18</ele>
        <time>2023-01-14T09:10:01Z</time>
      </trkpt>
      <trkpt lat="45.19989" lon="4.09792">
        <ele>643.74</ele>
        <time>2023-01-14T09:10:20Z</time>
      </trkpt>
      <trkpt lat="45.20005" lon="4.09781">
        <ele>641.82</ele>
        <time>2023-01-14T09:10:37Z</time>
      </trkpt>
      <trkpt lat="45.20026" lon="4.09778">
        <ele>641.82</ele>
        <time>2023-01-14T09:10:55Z</time>
      </trkpt>
      <trkpt lat="45.20041" lon="4.09771">
        <ele>641.34</ele>
        <time>2023-01-14T09:11:08Z</time>
      </trkpt>
      <trkpt lat="45.20059" lon="4.09766">
        <ele>641.34</ele>
        <time>2023-01-14T09:11:29Z</time>
      </trkpt>
      <trkpt lat="45.20096" lon="4.09754">
        <ele>640.38</ele>
        <time>2023-01-14T09:11:51Z</time>
      </trkpt>
      <trkpt lat="45.20113" lon="4.09747">
        <ele>640.38</ele>
        <time>2023-01-14T09:12:14Z</time>
      </trkpt>
      <trkpt lat="45.20141" lon="4.09729">
        <ele>637.97</ele>
        <time>2023-01-14T09:12:36Z</time>
      </trkpt>
      <trkpt lat="45.20155" lon="4.09715">
        <ele>634.61</ele>
        <time>2023-01-14T09:12:55Z</time>
      </trkpt>
      <trkpt lat="45.20161" lon="4.09702">
        <ele>631.72</ele>
        <time>2023-01-14T09:13:08Z</time>
      </trkpt>
      <trkpt lat="45.20172" lon="4.09689">
        <ele>628.84</ele>
        <time>2023-01-14T09:13:28Z</time>
      </trkpt>
      <trkpt lat="45.20189" lon="4.09666">
        <ele>624.51</ele>
        <time>2023-01-14T09:13:50Z</time>
      </trkpt>
      <trkpt lat="45.20196" lon="4.09644">
        <ele>620.19</ele>
        <time>2023-01-14T09:14:06Z</time>
      </trkpt>
      <trkpt lat="45.20206" lon="4.09627">
        <ele>617.3</ele>
        <time>2023-01-14T09:14:23Z</time>
      </trkpt>
      <trkpt lat="45.20211" lon="4.09609">
        <ele>612.98</ele>
        <time>2023-01-14T09:14:43Z</time>
      </trkpt>
      <trkpt lat="45.20211" lon="4.096">
        <ele>612.98</ele>
        <time>2023-01-14T09:14:58Z</time>
      </trkpt>
      <trkpt lat="45.20212" lon="4.09599">
        <ele>612.98</ele>
        <time>2023-01-14T09:15:17Z</time>
      </trkpt>
      <trkpt lat="45.2021" lon="4.09598">
        <ele>612.98</ele>
        <time>2023-01-14T09:15:40Z</time>
      </trkpt>
      <trkpt lat="45.20209" lon="4.09597">
        <ele>613.46</ele>
        <time>2023-01-14T09:16:01Z</time>
      </trkpt>
      <trkpt lat="45.20216" lon="4.09598">
        <ele>613.46</ele>
        <time>2023-01-14T09:16:21Z</time>
      </trkpt>
      <trkpt lat="45.20223" lon="4.0959">
        <ele>615.38</ele>
        <time>2023-01-14T09:16:41Z</time>
      </trkpt>
      <trkpt lat="45.20225" lon="4.09573">
        <ele>615.38</ele>
        <time>2023-01-14T09:17:00Z</time>
      </trkpt>
      <trkpt lat="45.20235" lon="4.09549">
        <ele>616.34</ele>
        <time>2023-01-14T09:17:21Z</time>
      </trkpt>
      <trkpt lat="45.20237" lon="4.09538">
        <ele>615.86</ele>
        <time>2023-01-14T09:17:45Z</time>
      </trkpt>
      <trkpt lat="45.20251" lon="4.09514">
        <ele>618.26</ele>
        <time>2023-01-14T09:18:09Z</time>
      </trkpt>
      <trkpt lat="45.20262" lon="4.095">
        <ele>622.11</ele>
        <time>2023-01-14T09:18:29Z</time>
      </trkpt>
      <trkpt lat="45.20264" lon="4.09489">
        <ele>626.92</ele>
        <time>2023-01-14T09:18:50Z</time>
      </trkpt>
      <trkpt lat="45.20269" lon="4.09469">
        <ele>632.2</ele>
        <time>2023-01-14T09:19:13Z</time>
      </trkpt>
      <trkpt lat="45.20284" lon="4.09446">
        <ele>632.68</ele>
        <time>2023-01-14T09:19:40Z</time>
      </trkpt>
      <trkpt lat="45.20298" lon="4.09436">
        <ele>636.53</ele>
        <time>2023-01-14T09:20:03Z</time>
      </trkpt>
      <trkpt lat="45.20317" lon="4.09418">
        <ele>648.07</ele>
        <time>2023-01-14T09:20:20Z</time>
      </trkpt>
      <trkpt lat="45.20323" lon="4.09416">
        <ele>652.87</ele>
        <time>2023-01-14T09:20:28Z</time>
      </trkpt>
      <trkpt lat="45.20331" lon="4.09413">
        <ele>652.87</ele>
        <time>2023-01-14T09:20:43Z</time>
      </trkpt>
      <trkpt lat="45.20341" lon="4.09399">
        <ele>655.76</ele>
        <time>2023-01-14T09:21:01Z</time>
      </trkpt>
      <trkpt lat="45.20334" lon="4.09391">
        <ele>658.16</ele>
        <time>2023-01-14T09:21:20Z</time>
      </trkpt>
      <trkpt lat="45.20324" lon="4.09388">
        <ele>659.6</ele>
        <time>2023-01-14T09:21:31Z</time>
      </trkpt>
      <trkpt lat="45.20311" lon="4.0939">
        <ele>663.93</ele>
        <time>2023-01-14T09:21:49Z</time>
      </trkpt>
      <trkpt lat="45.20295" lon="4.09395">
        <ele>665.37</ele>
        <time>2023-01-14T09:22:06Z</time>
      </trkpt>
      <trkpt lat="45.20283" lon="4.09403">
        <ele>666.81</ele>
        <time>2023-01-14T09:22:23Z</time>
      </trkpt>
      <trkpt lat="45.20266" lon="4.09413">
        <ele>668.25</ele>
        <time>2023-01-14T09:22:39Z</time>
      </trkpt>
      <trkpt lat="45.20249" lon="4.0942">
        <ele>671.62</ele>
        <time>2023-01-14T09:22:52Z</time>
      </trkpt>
      <trkpt lat="45.2023" lon="4.09433">
        <ele>674.98</ele>
        <time>2023-01-14T09:23:11Z</time>
      </trkpt>
      <trkpt lat="45.20226" lon="4.09436">
        <ele>674.98</ele>
        <time>2023-01-14T09:23:14Z</time>
      </trkpt>
      <trkpt lat="45.20212" lon="4.0944">
        <ele>675.46</ele>
        <time>2023-01-14T09:23:28Z</time>
      </trkpt>
      <trkpt lat="45.20198" lon="4.09435">
        <ele>677.87</ele>
        <time>2023-01-14T09:23:45Z</time>
      </trkpt>
      <trkpt lat="45.20208" lon="4.09429">
        <ele>683.15</ele>
        <time>2023-01-14T09:24:00Z</time>
      </trkpt>
      <trkpt lat="45.20214" lon="4.09425">
        <ele>685.08</ele>
        <time>2023-01-14T09:24:11Z</time>
      </trkpt>
      <trkpt lat="45.20217" lon="4.0942">
        <ele>686.04</ele>
        <time>2023-01-14T09:24:27Z</time>
      </trkpt>
      <trkpt lat="45.20218" lon="4.09418">
        <ele>687</ele>
        <time>2023-01-14T09:24:38Z</time>
      </trkpt>
      <trkpt lat="45.20218" lon="4.09417">
        <ele>687</ele>
        <time>2023-01-14T09:24:49Z</time>
      </trkpt>
      <trkpt lat="45.20222" lon="4.09409">
        <ele>686.52</ele>
        <time>2023-01-14T09:25:09Z</time>
      </trkpt>
      <trkpt lat="45.20224" lon="4.09406">
        <ele>686.52</ele>
        <time>2023-01-14T09:25:28Z</time>
      </trkpt>
      <trkpt lat="45.20231" lon="4.09393">
        <ele>685.56</ele>
        <time>2023-01-14T09:25:54Z</time>
      </trkpt>
      <trkpt lat="45.20255" lon="4.09371">
        <ele>680.75</ele>
        <time>2023-01-14T09:26:12Z</time>
      </trkpt>
      <trkpt lat="45.20269" lon="4.09367">
        <ele>680.27</ele>
        <time>2023-01-14T09:26:31Z</time>
      </trkpt>
      <trkpt lat="45.20286" lon="4.09357">
        <ele>676.91</ele>
        <time>2023-01-14T09:26:52Z</time>
      </trkpt>
      <trkpt lat="45.20302" lon="4.09348">
        <ele>676.42</ele>
        <time>2023-01-14T09:27:12Z</time>
      </trkpt>
      <trkpt lat="45.20325" lon="4.09335">
        <ele>674.5</ele>
        <time>2023-01-14T09:27:32Z</time>
      </trkpt>
      <trkpt lat="45.20345" lon="4.09327">
        <ele>676.91</ele>
        <time>2023-01-14T09:27:46Z</time>
      </trkpt>
      <trkpt lat="45.20346" lon="4.09326">
        <ele>676.91</ele>
        <time>2023-01-14T09:27:47Z</time>
      </trkpt>
      <trkpt lat="45.20357" lon="4.09306">
        <ele>682.19</ele>
        <time>2023-01-14T09:28:02Z</time>
      </trkpt>
      <trkpt lat="45.20363" lon="4.09289">
        <ele>686.04</ele>
        <time>2023-01-14T09:28:12Z</time>
      </trkpt>
      <trkpt lat="45.20364" lon="4.09288">
        <ele>686.52</ele>
        <time>2023-01-14T09:28:13Z</time>
      </trkpt>
      <trkpt lat="45.20367" lon="4.09286">
        <ele>688.44</ele>
        <time>2023-01-14T09:28:19Z</time>
      </trkpt>
      <trkpt lat="45.20381" lon="4.09285">
        <ele>688.92</ele>
        <time>2023-01-14T09:28:31Z</time>
      </trkpt>
      <trkpt lat="45.20394" lon="4.09283">
        <ele>688.92</ele>
        <time>2023-01-14T09:28:44Z</time>
      </trkpt>
      <trkpt lat="45.20411" lon="4.09281">
        <ele>690.84</ele>
        <time>2023-01-14T09:28:59Z</time>
      </trkpt>
      <trkpt lat="45.20424" lon="4.09276">
        <ele>689.88</ele>
        <time>2023-01-14T09:29:12Z</time>
      </trkpt>
      <trkpt lat="45.20438" lon="4.09272">
        <ele>689.4</ele>
        <time>2023-01-14T09:29:25Z</time>
      </trkpt>
      <trkpt lat="45.20452" lon="4.09268">
        <ele>687.96</ele>
        <time>2023-01-14T09:29:36Z</time>
      </trkpt>
      <trkpt lat="45.20471" lon="4.09264">
        <ele>687</ele>
        <time>2023-01-14T09:29:51Z</time>
      </trkpt>
      <trkpt lat="45.20494" lon="4.09259">
        <ele>687.96</ele>
        <time>2023-01-14T09:30:08Z</time>
      </trkpt>
      <trkpt lat="45.20512" lon="4.09257">
        <ele>688.92</ele>
        <time>2023-01-14T09:30:22Z</time>
      </trkpt>
      <trkpt lat="45.20531" lon="4.09253">
        <ele>687.48</ele>
        <time>2023-01-14T09:30:36Z</time>
      </trkpt>
      <trkpt lat="45.20539" lon="4.09254">
        <ele>688.44</ele>
        <time>2023-01-14T09:30:49Z</time>
      </trkpt>
      <trkpt lat="45.20539" lon="4.09254">
        <ele>688.44</ele>
        <time>2023-01-14T09:30:53Z</time>
      </trkpt>
      <trkpt lat="45.20531" lon="4.09256">
        <ele>688.44</ele>
        <time>2023-01-14T09:31:02Z</time>
      </trkpt>
      <trkpt lat="45.20525" lon="4.09257">
        <ele>688.44</ele>
        <time>2023-01-14T09:31:06Z</time>
      </trkpt>
      <trkpt lat="45.20504" lon="4.09257">
        <ele>687</ele>
        <time>2023-01-14T09:31:22Z</time>
      </trkpt>
      <trkpt lat="45.20487" lon="4.09257">
        <ele>687.48</ele>
        <time>2023-01-14T09:31:35Z</time>
      </trkpt>
      <trkpt lat="45.20481" lon="4.09242">
        <ele>686.04</ele>
        <time>2023-01-14T09:31:44Z</time>
      </trkpt>
      <trkpt lat="45.20467" lon="4.09213">
        <ele>685.56</ele>
        <time>2023-01-14T09:31:59Z</time>
      </trkpt>
      <trkpt lat="45.20454" lon="4.09189">
        <ele>683.63</ele>
        <time>2023-01-14T09:32:16Z</time>
      </trkpt>
      <trkpt lat="45.20441" lon="4.09166">
        <ele>681.23</ele>
        <time>2023-01-14T09:32:33Z</time>
      </trkpt>
      <trkpt lat="45.2044" lon="4.09162">
        <ele>680.27</ele>
        <time>2023-01-14T09:32:36Z</time>
      </trkpt>
      <trkpt lat="45.2044" lon="4.09141">
        <ele>677.39</ele>
        <time>2023-01-14T09:32:46Z</time>
      </trkpt>
      <trkpt lat="45.20436" lon="4.09111">
        <ele>674.98</ele>
        <time>2023-01-14T09:33:03Z</time>
      </trkpt>
      <trkpt lat="45.20436" lon="4.09108">
        <ele>674.5</ele>
        <time>2023-01-14T09:33:20Z</time>
      </trkpt>
      <trkpt lat="45.20437" lon="4.09094">
        <ele>673.54</ele>
        <time>2023-01-14T09:33:30Z</time>
      </trkpt>
      <trkpt lat="45.20435" lon="4.09058">
        <ele>673.06</ele>
        <time>2023-01-14T09:33:49Z</time>
      </trkpt>
      <trkpt lat="45.20437" lon="4.09028">
        <ele>672.1</ele>
        <time>2023-01-14T09:34:05Z</time>
      </trkpt>
      <trkpt lat="45.20441" lon="4.08996">
        <ele>670.66</ele>
        <time>2023-01-14T09:34:21Z</time>
      </trkpt>
      <trkpt lat="45.20445" lon="4.08969">
        <ele>667.29</ele>
        <time>2023-01-14T09:34:38Z</time>
      </trkpt>
      <trkpt lat="45.20452" lon="4.08935">
        <ele>665.85</ele>
        <time>2023-01-14T09:34:55Z</time>
      </trkpt>
      <trkpt lat="45.20463" lon="4.089">
        <ele>665.85</ele>
        <time>2023-01-14T09:35:14Z</time>
      </trkpt>
      <trkpt lat="45.20465" lon="4.08899">
        <ele>664.89</ele>
        <time>2023-01-14T09:35:17Z</time>
      </trkpt>
      <trkpt lat="45.20473" lon="4.089">
        <ele>664.89</ele>
        <time>2023-01-14T09:35:22Z</time>
      </trkpt>
      <trkpt lat="45.20495" lon="4.08899">
        <ele>665.85</ele>
        <time>2023-01-14T09:35:39Z</time>
      </trkpt>
      <trkpt lat="45.20506" lon="4.08898">
        <ele>665.37</ele>
        <time>2023-01-14T09:35:48Z</time>
      </trkpt>
      <trkpt lat="45.20525" lon="4.08898">
        <ele>665.37</ele>
        <time>2023-01-14T09:36:01Z</time>
      </trkpt>
      <trkpt lat="45.20541" lon="4.08901">
        <ele>666.33</ele>
        <time>2023-01-14T09:36:12Z</time>
      </trkpt>
      <trkpt lat="45.20562" lon="4.08906">
        <ele>667.77</ele>
        <time>2023-01-14T09:36:27Z</time>
      </trkpt>
      <trkpt lat="45.20592" lon="4.08924">
        <ele>669.22</ele>
        <time>2023-01-14T09:36:52Z</time>
      </trkpt>
      <trkpt lat="45.20614" lon="4.08934">
        <ele>669.7</ele>
        <time>2023-01-14T09:37:12Z</time>
      </trkpt>
      <trkpt lat="45.20641" lon="4.08913">
        <ele>674.02</ele>
        <time>2023-01-14T09:37:33Z</time>
      </trkpt>
      <trkpt lat="45.20648" lon="4.08922">
        <ele>674.5</ele>
        <time>2023-01-14T09:37:38Z</time>
      </trkpt>
      <trkpt lat="45.20657" lon="4.08942">
        <ele>675.94</ele>
        <time>2023-01-14T09:37:50Z</time>
      </trkpt>
      <trkpt lat="45.20666" lon="4.08975">
        <ele>676.91</ele>
        <time>2023-01-14T09:38:13Z</time>
      </trkpt>
      <trkpt lat="45.20681" lon="4.09003">
        <ele>677.39</ele>
        <time>2023-01-14T09:38:31Z</time>
      </trkpt>
      <trkpt lat="45.20684" lon="4.09013">
        <ele>677.87</ele>
        <time>2023-01-14T09:38:38Z</time>
      </trkpt>
      <trkpt lat="45.20689" lon="4.09034">
        <ele>680.27</ele>
        <time>2023-01-14T09:38:51Z</time>
      </trkpt>
      <trkpt lat="45.2069" lon="4.09046">
        <ele>681.71</ele>
        <time>2023-01-14T09:38:58Z</time>
      </trkpt>
      <trkpt lat="45.20696" lon="4.09057">
        <ele>680.75</ele>
        <time>2023-01-14T09:39:16Z</time>
      </trkpt>
      <trkpt lat="45.20709" lon="4.09093">
        <ele>678.83</ele>
        <time>2023-01-14T09:39:37Z</time>
      </trkpt>
      <trkpt lat="45.20713" lon="4.09111">
        <ele>678.83</ele>
        <time>2023-01-14T09:39:47Z</time>
      </trkpt>
      <trkpt lat="45.20722" lon="4.09116">
        <ele>678.83</ele>
        <time>2023-01-14T09:39:54Z</time>
      </trkpt>
      <trkpt lat="45.20743" lon="4.09123">
        <ele>677.87</ele>
        <time>2023-01-14T09:40:16Z</time>
      </trkpt>
      <trkpt lat="45.20762" lon="4.09133">
        <ele>679.79</ele>
        <time>2023-01-14T09:40:40Z</time>
      </trkpt>
      <trkpt lat="45.20792" lon="4.09132">
        <ele>687.48</ele>
        <time>2023-01-14T09:41:02Z</time>
      </trkpt>
      <trkpt lat="45.20817" lon="4.09131">
        <ele>695.65</ele>
        <time>2023-01-14T09:41:23Z</time>
      </trkpt>
      <trkpt lat="45.20835" lon="4.09125">
        <ele>698.05</ele>
        <time>2023-01-14T09:41:38Z</time>
      </trkpt>
      <trkpt lat="45.20838" lon="4.09124">
        <ele>698.05</ele>
        <time>2023-01-14T09:41:41Z</time>
      </trkpt>
      <trkpt lat="45.20863" lon="4.09116">
        <ele>699.98</ele>
        <time>2023-01-14T09:42:03Z</time>
      </trkpt>
      <trkpt lat="45.20885" lon="4.09108">
        <ele>702.86</ele>
        <time>2023-01-14T09:42:22Z</time>
      </trkpt>
      <trkpt lat="45.20889" lon="4.09108">
        <ele>704.3</ele>
        <time>2023-01-14T09:42:44Z</time>
      </trkpt>
      <trkpt lat="45.20907" lon="4.09103">
        <ele>705.75</ele>
        <time>2023-01-14T09:43:04Z</time>
      </trkpt>
      <trkpt lat="45.20929" lon="4.09098">
        <ele>709.11</ele>
        <time>2023-01-14T09:43:25Z</time>
      </trkpt>
      <trkpt lat="45.20945" lon="4.09093">
        <ele>710.55</ele>
        <time>2023-01-14T09:43:44Z</time>
      </trkpt>
      <trkpt lat="45.20945" lon="4.09091">
        <ele>710.55</ele>
        <time>2023-01-14T09:44:06Z</time>
      </trkpt>
      <trkpt lat="45.20945" lon="4.09089">
        <ele>711.03</ele>
        <time>2023-01-14T09:44:29Z</time>
      </trkpt>
      <trkpt lat="45.20946" lon="4.09093">
        <ele>710.07</ele>
        <time>2023-01-14T09:44:51Z</time>
      </trkpt>
      <trkpt lat="45.20947" lon="4.09094">
        <ele>709.59</ele>
        <time>2023-01-14T09:45:09Z</time>
      </trkpt>
      <trkpt lat="45.20947" lon="4.09095">
        <ele>709.11</ele>
        <time>2023-01-14T09:45:31Z</time>
      </trkpt>
      <trkpt lat="45.20967" lon="4.09113">
        <ele>706.71</ele>
        <time>2023-01-14T09:45:51Z</time>
      </trkpt>
      <trkpt lat="45.20981" lon="4.09124">
        <ele>706.71</ele>
        <time>2023-01-14T09:46:05Z</time>
      </trkpt>
      <trkpt lat="45.21008" lon="4.09127">
        <ele>707.19</ele>
        <time>2023-01-14T09:46:26Z</time>
      </trkpt>
      <trkpt lat="45.21019" lon="4.09124">
        <ele>707.19</ele>
        <time>2023-01-14T09:46:39Z</time>
      </trkpt>
      <trkpt lat="45.21055" lon="4.0912">
        <ele>705.26</ele>
        <time>2023-01-14T09:47:02Z</time>
      </trkpt>
      <trkpt lat="45.2108" lon="4.09108">
        <ele>705.26</ele>
        <time>2023-01-14T09:47:22Z</time>
      </trkpt>
      <trkpt lat="45.21109" lon="4.09098">
        <ele>706.23</ele>
        <time>2023-01-14T09:47:43Z</time>
      </trkpt>
      <trkpt lat="45.21137" lon="4.09084">
        <ele>708.63</ele>
        <time>2023-01-14T09:48:06Z</time>
      </trkpt>
      <trkpt lat="45.21162" lon="4.09071">
        <ele>707.67</ele>
        <time>2023-01-14T09:48:25Z</time>
      </trkpt>
      <trkpt lat="45.21181" lon="4.09067">
        <ele>706.23</ele>
        <time>2023-01-14T09:48:41Z</time>
      </trkpt>
      <trkpt lat="45.21207" lon="4.0906">
        <ele>706.23</ele>
        <time>2023-01-14T09:49:02Z</time>
      </trkpt>
      <trkpt lat="45.2123" lon="4.09054">
        <ele>705.26</ele>
        <time>2023-01-14T09:49:21Z</time>
      </trkpt>
      <trkpt lat="45.21256" lon="4.09045">
        <ele>702.86</ele>
        <time>2023-01-14T09:49:42Z</time>
      </trkpt>
      <trkpt lat="45.21287" lon="4.09033">
        <ele>701.42</ele>
        <time>2023-01-14T09:50:06Z</time>
      </trkpt>
      <trkpt lat="45.21315" lon="4.0903">
        <ele>700.94</ele>
        <time>2023-01-14T09:50:26Z</time>
      </trkpt>
      <trkpt lat="45.21351" lon="4.09031">
        <ele>698.05</ele>
        <time>2023-01-14T09:50:50Z</time>
      </trkpt>
      <trkpt lat="45.21372" lon="4.09037">
        <ele>697.57</ele>
        <time>2023-01-14T09:51:11Z</time>
      </trkpt>
      <trkpt lat="45.21391" lon="4.09039">
        <ele>696.61</ele>
        <time>2023-01-14T09:51:26Z</time>
      </trkpt>
      <trkpt lat="45.21413" lon="4.09036">
        <ele>696.13</ele>
        <time>2023-01-14T09:51:43Z</time>
      </trkpt>
      <trkpt lat="45.21414" lon="4.09038">
        <ele>696.13</ele>
        <time>2023-01-14T09:51:46Z</time>
      </trkpt>
      <trkpt lat="45.21416" lon="4.09042">
        <ele>695.65</ele>
        <time>2023-01-14T09:51:49Z</time>
      </trkpt>
      <trkpt lat="45.21453" lon="4.09058">
        <ele>690.84</ele>
        <time>2023-01-14T09:52:11Z</time>
      </trkpt>
      <trkpt lat="45.21488" lon="4.09057">
        <ele>687.48</ele>
        <time>2023-01-14T09:52:31Z</time>
      </trkpt>
      <trkpt lat="45.21509" lon="4.09056">
        <ele>688.44</ele>
        <time>2023-01-14T09:52:46Z</time>
      </trkpt>
      <trkpt lat="45.21534" lon="4.09057">
        <ele>689.4</ele>
        <time>2023-01-14T09:53:04Z</time>
      </trkpt>
      <trkpt lat="45.21554" lon="4.09062">
        <ele>687</ele>
        <time>2023-01-14T09:53:16Z</time>
      </trkpt>
      <trkpt lat="45.21568" lon="4.09069">
        <ele>685.56</ele>
        <time>2023-01-14T09:53:27Z</time>
      </trkpt>
      <trkpt lat="45.21581" lon="4.09082">
        <ele>683.63</ele>
        <time>2023-01-14T09:53:39Z</time>
      </trkpt>
      <trkpt lat="45.21591" lon="4.09094">
        <ele>682.67</ele>
        <time>2023-01-14T09:53:50Z</time>
      </trkpt>
      <trkpt lat="45.21605" lon="4.09105">
        <ele>683.63</ele>
        <time>2023-01-14T09:54:01Z</time>
      </trkpt>
      <trkpt lat="45.21621" lon="4.09114">
        <ele>683.15</ele>
        <time>2023-01-14T09:54:10Z</time>
      </trkpt>
      <trkpt lat="45.21633" lon="4.0912">
        <ele>682.19</ele>
        <time>2023-01-14T09:54:20Z</time>
      </trkpt>
      <trkpt lat="45.21633" lon="4.09121">
        <ele>682.19</ele>
        <time>2023-01-14T09:54:22Z</time>
      </trkpt>
      <trkpt lat="45.21641" lon="4.09127">
        <ele>682.19</ele>
        <time>2023-01-14T09:54:27Z</time>
      </trkpt>
      <trkpt lat="45.21657" lon="4.0914">
        <ele>681.23</ele>
        <time>2023-01-14T09:54:39Z</time>
      </trkpt>
      <trkpt lat="45.21672" lon="4.09152">
        <ele>679.79</ele>
        <time>2023-01-14T09:54:51Z</time>
      </trkpt>
      <trkpt lat="45.21686" lon="4.09164">
        <ele>678.83</ele>
        <time>2023-01-14T09:55:03Z</time>
      </trkpt>
      <trkpt lat="45.21701" lon="4.09175">
        <ele>678.35</ele>
        <time>2023-01-14T09:55:16Z</time>
      </trkpt>
      <trkpt lat="45.21719" lon="4.09184">
        <ele>676.91</ele>
        <time>2023-01-14T09:55:29Z</time>
      </trkpt>
      <trkpt lat="45.21736" lon="4.09195">
        <ele>676.42</ele>
        <time>2023-01-14T09:55:40Z</time>
      </trkpt>
      <trkpt lat="45.21749" lon="4.0921">
        <ele>675.94</ele>
        <time>2023-01-14T09:55:51Z</time>
      </trkpt>
      <trkpt lat="45.21752" lon="4.09215">
        <ele>675.46</ele>
        <time>2023-01-14T09:55:56Z</time>
      </trkpt>
      <trkpt lat="45.21767" lon="4.09233">
        <ele>673.54</ele>
        <time>2023-01-14T09:56:08Z</time>
      </trkpt>
      <trkpt lat="45.21781" lon="4.09253">
        <ele>669.22</ele>
        <time>2023-01-14T09:56:20Z</time>
      </trkpt>
      <trkpt lat="45.21797" lon="4.09272">
        <ele>668.73</ele>
        <time>2023-01-14T09:56:34Z</time>
      </trkpt>
      <trkpt lat="45.2181" lon="4.09289">
        <ele>669.22</ele>
        <time>2023-01-14T09:56:46Z</time>
      </trkpt>
      <trkpt lat="45.21812" lon="4.09293">
        <ele>670.18</ele>
        <time>2023-01-14T09:56:51Z</time>
      </trkpt>
      <trkpt lat="45.21828" lon="4.09313">
        <ele>670.18</ele>
        <time>2023-01-14T09:57:04Z</time>
      </trkpt>
      <trkpt lat="45.21843" lon="4.0933">
        <ele>670.18</ele>
        <time>2023-01-14T09:57:17Z</time>
      </trkpt>
      <trkpt lat="45.2186" lon="4.09345">
        <ele>669.7</ele>
        <time>2023-01-14T09:57:30Z</time>
      </trkpt>
      <trkpt lat="45.21877" lon="4.09357">
        <ele>668.25</ele>
        <time>2023-01-14T09:57:43Z</time>
      </trkpt>
      <trkpt lat="45.21908" lon="4.09382">
        <ele>666.33</ele>
        <time>2023-01-14T09:58:08Z</time>
      </trkpt>
      <trkpt lat="45.2194" lon="4.09393">
        <ele>666.81</ele>
        <time>2023-01-14T09:58:31Z</time>
      </trkpt>
      <trkpt lat="45.21968" lon="4.09408">
        <ele>673.06</ele>
        <time>2023-01-14T09:58:52Z</time>
      </trkpt>
      <trkpt lat="45.21984" lon="4.09402">
        <ele>673.54</ele>
        <time>2023-01-14T09:59:06Z</time>
      </trkpt>
      <trkpt lat="45.2201" lon="4.09395">
        <ele>674.5</ele>
        <time>2023-01-14T09:59:23Z</time>
      </trkpt>
      <trkpt lat="45.22036" lon="4.09385">
        <ele>674.02</ele>
        <time>2023-01-14T09:59:42Z</time>
      </trkpt>
      <trkpt lat="45.22037" lon="4.09385">
        <ele>674.02</ele>
        <time>2023-01-14T09:59:43Z</time>
      </trkpt>
      <trkpt lat="45.22061" lon="4.09368">
        <ele>674.02</ele>
        <time>2023-01-14T10:00:03Z</time>
      </trkpt>
      <trkpt lat="45.22079" lon="4.09353">
        <ele>674.02</ele>
        <time>2023-01-14T10:00:18Z</time>
      </trkpt>
      <trkpt lat="45.22086" lon="4.09348">
        <ele>673.54</ele>
        <time>2023-01-14T10:00:24Z</time>
      </trkpt>
      <trkpt lat="45.22105" lon="4.09329">
        <ele>672.1</ele>
        <time>2023-01-14T10:00:41Z</time>
      </trkpt>
      <trkpt lat="45.22114" lon="4.09328">
        <ele>671.14</ele>
        <time>2023-01-14T10:00:51Z</time>
      </trkpt>
      <trkpt lat="45.22118" lon="4.09338">
        <ele>670.66</ele>
        <time>2023-01-14T10:01:00Z</time>
      </trkpt>
      <trkpt lat="45.22126" lon="4.09366">
        <ele>670.18</ele>
        <time>2023-01-14T10:01:18Z</time>
      </trkpt>
      <trkpt lat="45.22128" lon="4.09376">
        <ele>669.7</ele>
        <time>2023-01-14T10:01:29Z</time>
      </trkpt>
      <trkpt lat="45.22131" lon="4.09388">
        <ele>669.7</ele>
        <time>2023-01-14T10:01:37Z</time>
      </trkpt>
      <trkpt lat="45.22138" lon="4.0941">
        <ele>668.25</ele>
        <time>2023-01-14T10:01:51Z</time>
      </trkpt>
      <trkpt lat="45.22144" lon="4.09428">
        <ele>667.29</ele>
        <time>2023-01-14T10:02:04Z</time>
      </trkpt>
      <trkpt lat="45.2215" lon="4.09448">
        <ele>667.29</ele>
        <time>2023-01-14T10:02:16Z</time>
      </trkpt>
      <trkpt lat="45.22154" lon="4.09467">
        <ele>667.77</ele>
        <time>2023-01-14T10:02:26Z</time>
      </trkpt>
      <trkpt lat="45.22153" lon="4.09475">
        <ele>667.29</ele>
        <time>2023-01-14T10:02:32Z</time>
      </trkpt>
      <trkpt lat="45.22155" lon="4.09483">
        <ele>666.81</ele>
        <time>2023-01-14T10:02:36Z</time>
      </trkpt>
      <trkpt lat="45.22157" lon="4.09507">
        <ele>663.45</ele>
        <time>2023-01-14T10:02:50Z</time>
      </trkpt>
      <trkpt lat="45.22159" lon="4.09522">
        <ele>660.56</ele>
        <time>2023-01-14T10:03:08Z</time>
      </trkpt>
      <trkpt lat="45.22161" lon="4.09525">
        <ele>659.6</ele>
        <time>2023-01-14T10:03:24Z</time>
      </trkpt>
      <trkpt lat="45.22162" lon="4.0953">
        <ele>659.6</ele>
        <time>2023-01-14T10:03:41Z</time>
      </trkpt>
      <trkpt lat="45.22162" lon="4.09528">
        <ele>659.12</ele>
        <time>2023-01-14T10:04:03Z</time>
      </trkpt>
      <trkpt lat="45.22162" lon="4.09528">
        <ele>659.12</ele>
        <time>2023-01-14T10:04:21Z</time>
      </trkpt>
      <trkpt lat="45.22162" lon="4.09528">
        <ele>659.12</ele>
        <time>2023-01-14T10:04:44Z</time>
      </trkpt>
      <trkpt lat="45.22163" lon="4.09527">
        <ele>658.64</ele>
        <time>2023-01-14T10:05:03Z</time>
      </trkpt>
      <trkpt lat="45.22163" lon="4.09527">
        <ele>658.64</ele>
        <time>2023-01-14T10:05:24Z</time>
      </trkpt>
      <trkpt lat="45.22166" lon="4.09526">
        <ele>658.16</ele>
        <time>2023-01-14T10:05:48Z</time>
      </trkpt>
      <trkpt lat="45.22164" lon="4.09525">
        <ele>658.16</ele>
        <time>2023-01-14T10:06:08Z</time>
      </trkpt>
      <trkpt lat="45.22165" lon="4.09529">
        <ele>657.68</ele>
        <time>2023-01-14T10:06:14Z</time>
      </trkpt>
      <trkpt lat="45.22173" lon="4.09549">
        <ele>659.12</ele>
        <time>2023-01-14T10:06:24Z</time>
      </trkpt>
      <trkpt lat="45.22191" lon="4.09582">
        <ele>656.24</ele>
        <time>2023-01-14T10:06:46Z</time>
      </trkpt>
      <trkpt lat="45.222" lon="4.09593">
        <ele>652.87</ele>
        <time>2023-01-14T10:06:54Z</time>
      </trkpt>
      <trkpt lat="45.22226" lon="4.09609">
        <ele>651.91</ele>
        <time>2023-01-14T10:07:14Z</time>
      </trkpt>
      <trkpt lat="45.22258" lon="4.09615">
        <ele>649.99</ele>
        <time>2023-01-14T10:07:38Z</time>
      </trkpt>
      <trkpt lat="45.22294" lon="4.09622">
        <ele>649.03</ele>
        <time>2023-01-14T10:08:03Z</time>
      </trkpt>
      <trkpt lat="45.22318" lon="4.09639">
        <ele>656.24</ele>
        <time>2023-01-14T10:08:25Z</time>
      </trkpt>
      <trkpt lat="45.2232" lon="4.09645">
        <ele>655.76</ele>
        <time>2023-01-14T10:08:28Z</time>
      </trkpt>
      <trkpt lat="45.22333" lon="4.09669">
        <ele>649.51</ele>
        <time>2023-01-14T10:08:43Z</time>
      </trkpt>
      <trkpt lat="45.2234" lon="4.09681">
        <ele>642.3</ele>
        <time>2023-01-14T10:09:01Z</time>
      </trkpt>
      <trkpt lat="45.22341" lon="4.09682">
        <ele>641.82</ele>
        <time>2023-01-14T10:09:02Z</time>
      </trkpt>
      <trkpt lat="45.22343" lon="4.09697">
        <ele>640.86</ele>
        <time>2023-01-14T10:09:06Z</time>
      </trkpt>
      <trkpt lat="45.2234" lon="4.09709">
        <ele>640.38</ele>
        <time>2023-01-14T10:09:20Z</time>
      </trkpt>
      <trkpt lat="45.22331" lon="4.09703">
        <ele>642.78</ele>
        <time>2023-01-14T10:09:30Z</time>
      </trkpt>
      <trkpt lat="45.22318" lon="4.09702">
        <ele>640.38</ele>
        <time>2023-01-14T10:09:44Z</time>
      </trkpt>
      <trkpt lat="45.22305" lon="4.09702">
        <ele>637.01</ele>
        <time>2023-01-14T10:09:59Z</time>
      </trkpt>
      <trkpt lat="45.22299" lon="4.09708">
        <ele>635.57</ele>
        <time>2023-01-14T10:10:06Z</time>
      </trkpt>
      <trkpt lat="45.22295" lon="4.09715">
        <ele>634.61</ele>
        <time>2023-01-14T10:10:10Z</time>
      </trkpt>
      <trkpt lat="45.22286" lon="4.09738">
        <ele>631.72</ele>
        <time>2023-01-14T10:10:55Z</time>
      </trkpt>
      <trkpt lat="45.22295" lon="4.0975">
        <ele>629.8</ele>
        <time>2023-01-14T10:11:08Z</time>
      </trkpt>
      <trkpt lat="45.22296" lon="4.09768">
        <ele>627.4</ele>
        <time>2023-01-14T10:11:30Z</time>
      </trkpt>
      <trkpt lat="45.223" lon="4.09809">
        <ele>623.07</ele>
        <time>2023-01-14T10:11:54Z</time>
      </trkpt>
      <trkpt lat="45.22305" lon="4.09826">
        <ele>619.23</ele>
        <time>2023-01-14T10:12:13Z</time>
      </trkpt>
      <trkpt lat="45.22313" lon="4.09836">
        <ele>616.34</ele>
        <time>2023-01-14T10:12:34Z</time>
      </trkpt>
      <trkpt lat="45.22319" lon="4.09851">
        <ele>613.46</ele>
        <time>2023-01-14T10:12:41Z</time>
      </trkpt>
      <trkpt lat="45.22336" lon="4.09872">
        <ele>607.69</ele>
        <time>2023-01-14T10:12:53Z</time>
      </trkpt>
      <trkpt lat="45.22339" lon="4.09881">
        <ele>605.29</ele>
        <time>2023-01-14T10:13:11Z</time>
      </trkpt>
      <trkpt lat="45.22341" lon="4.09914">
        <ele>600.96</ele>
        <time>2023-01-14T10:13:34Z</time>
      </trkpt>
      <trkpt lat="45.22354" lon="4.09936">
        <ele>600.48</ele>
        <time>2023-01-14T10:13:59Z</time>
      </trkpt>
      <trkpt lat="45.22368" lon="4.09958">
        <ele>594.23</ele>
        <time>2023-01-14T10:14:24Z</time>
      </trkpt>
      <trkpt lat="45.22367" lon="4.09995">
        <ele>584.62</ele>
        <time>2023-01-14T10:14:45Z</time>
      </trkpt>
      <trkpt lat="45.22367" lon="4.10017">
        <ele>576.93</ele>
        <time>2023-01-14T10:15:08Z</time>
      </trkpt>
      <trkpt lat="45.22367" lon="4.1005">
        <ele>566.35</ele>
        <time>2023-01-14T10:15:31Z</time>
      </trkpt>
      <trkpt lat="45.22364" lon="4.10067">
        <ele>566.83</ele>
        <time>2023-01-14T10:15:43Z</time>
      </trkpt>
      <trkpt lat="45.22348" lon="4.10065">
        <ele>566.83</ele>
        <time>2023-01-14T10:16:00Z</time>
      </trkpt>
      <trkpt lat="45.22333" lon="4.10076">
        <ele>563.47</ele>
        <time>2023-01-14T10:16:18Z</time>
      </trkpt>
      <trkpt lat="45.2233" lon="4.10079">
        <ele>562.03</ele>
        <time>2023-01-14T10:16:38Z</time>
      </trkpt>
      <trkpt lat="45.22328" lon="4.10088">
        <ele>562.99</ele>
        <time>2023-01-14T10:17:02Z</time>
      </trkpt>
      <trkpt lat="45.22325" lon="4.1009">
        <ele>562.03</ele>
        <time>2023-01-14T10:17:22Z</time>
      </trkpt>
      <trkpt lat="45.22323" lon="4.10105">
        <ele>562.99</ele>
        <time>2023-01-14T10:18:13Z</time>
      </trkpt>
      <trkpt lat="45.22341" lon="4.10099">
        <ele>549.05</ele>
        <time>2023-01-14T10:18:27Z</time>
      </trkpt>
      <trkpt lat="45.22337" lon="4.10099">
        <ele>545.69</ele>
        <time>2023-01-14T10:18:45Z</time>
      </trkpt>
      <trkpt lat="45.22333" lon="4.10092">
        <ele>546.17</ele>
        <time>2023-01-14T10:18:54Z</time>
      </trkpt>
      <trkpt lat="45.22326" lon="4.10083">
        <ele>554.82</ele>
        <time>2023-01-14T10:19:07Z</time>
      </trkpt>
      <trkpt lat="45.22329" lon="4.10082">
        <ele>556.26</ele>
        <time>2023-01-14T10:19:30Z</time>
      </trkpt>
      <trkpt lat="45.22329" lon="4.10076">
        <ele>556.26</ele>
        <time>2023-01-14T10:19:49Z</time>
      </trkpt>
      <trkpt lat="45.22326" lon="4.10083">
        <ele>560.59</ele>
        <time>2023-01-14T10:20:06Z</time>
      </trkpt>
      <trkpt lat="45.22327" lon="4.10082">
        <ele>559.62</ele>
        <time>2023-01-14T10:20:18Z</time>
      </trkpt>
      <trkpt lat="45.22328" lon="4.10081">
        <ele>558.66</ele>
        <time>2023-01-14T10:20:37Z</time>
      </trkpt>
      <trkpt lat="45.22328" lon="4.10082">
        <ele>557.7</ele>
        <time>2023-01-14T10:20:57Z</time>
      </trkpt>
      <trkpt lat="45.22331" lon="4.1008">
        <ele>556.74</ele>
        <time>2023-01-14T10:21:22Z</time>
      </trkpt>
      <trkpt lat="45.22331" lon="4.10075">
        <ele>556.74</ele>
        <time>2023-01-14T10:21:46Z</time>
      </trkpt>
      <trkpt lat="45.22332" lon="4.10075">
        <ele>557.7</ele>
        <time>2023-01-14T10:22:10Z</time>
      </trkpt>
      <trkpt lat="45.22333" lon="4.10075">
        <ele>559.14</ele>
        <time>2023-01-14T10:22:42Z</time>
      </trkpt>
      <trkpt lat="45.22333" lon="4.10075">
        <ele>559.14</ele>
        <time>2023-01-14T10:23:08Z</time>
      </trkpt>
      <trkpt lat="45.22332" lon="4.10075">
        <ele>559.14</ele>
        <time>2023-01-14T10:23:38Z</time>
      </trkpt>
      <trkpt lat="45.22332" lon="4.10075">
        <ele>559.14</ele>
        <time>2023-01-14T10:24:01Z</time>
      </trkpt>
      <trkpt lat="45.22332" lon="4.10075">
        <ele>558.18</ele>
        <time>2023-01-14T10:24:25Z</time>
      </trkpt>
      <trkpt lat="45.22332" lon="4.10075">
        <ele>558.18</ele>
        <time>2023-01-14T10:24:51Z</time>
      </trkpt>
      <trkpt lat="45.22332" lon="4.10075">
        <ele>558.18</ele>
        <time>2023-01-14T10:25:15Z</time>
      </trkpt>
      <trkpt lat="45.22333" lon="4.10074">
        <ele>558.18</ele>
        <time>2023-01-14T10:25:40Z</time>
      </trkpt>
      <trkpt lat="45.22352" lon="4.10069">
        <ele>559.14</ele>
        <time>2023-01-14T10:26:04Z</time>
      </trkpt>
      <trkpt lat="45.22359" lon="4.10066">
        <ele>560.11</ele>
        <time>2023-01-14T10:26:07Z</time>
      </trkpt>
      <trkpt lat="45.2237" lon="4.10084">
        <ele>561.55</ele>
        <time>2023-01-14T10:26:23Z</time>
      </trkpt>
      <trkpt lat="45.22369" lon="4.10089">
        <ele>561.07</ele>
        <time>2023-01-14T10:26:25Z</time>
      </trkpt>
      <trkpt lat="45.22362" lon="4.1011">
        <ele>556.74</ele>
        <time>2023-01-14T10:26:43Z</time>
      </trkpt>
      <trkpt lat="45.22355" lon="4.1014">
        <ele>550.97</ele>
        <time>2023-01-14T10:27:06Z</time>
      </trkpt>
      <trkpt lat="45.22338" lon="4.1015">
        <ele>546.17</ele>
        <time>2023-01-14T10:27:20Z</time>
      </trkpt>
      <trkpt lat="45.22312" lon="4.10147">
        <ele>538.48</ele>
        <time>2023-01-14T10:27:40Z</time>
      </trkpt>
      <trkpt lat="45.2229" lon="4.10149">
        <ele>535.11</ele>
        <time>2023-01-14T10:28:01Z</time>
      </trkpt>
      <trkpt lat="45.22291" lon="4.10153">
        <ele>534.15</ele>
        <time>2023-01-14T10:28:04Z</time>
      </trkpt>
      <trkpt lat="45.22315" lon="4.10185">
        <ele>525.5</ele>
        <time>2023-01-14T10:28:29Z</time>
      </trkpt>
      <trkpt lat="45.2233" lon="4.10203">
        <ele>520.21</ele>
        <time>2023-01-14T10:28:49Z</time>
      </trkpt>
      <trkpt lat="45.22344" lon="4.10204">
        <ele>515.4</ele>
        <time>2023-01-14T10:29:02Z</time>
      </trkpt>
      <trkpt lat="45.22369" lon="4.10195">
        <ele>513</ele>
        <time>2023-01-14T10:29:21Z</time>
      </trkpt>
      <trkpt lat="45.22369" lon="4.10204">
        <ele>510.12</ele>
        <time>2023-01-14T10:29:44Z</time>
      </trkpt>
      <trkpt lat="45.22364" lon="4.10214">
        <ele>510.12</ele>
        <time>2023-01-14T10:29:56Z</time>
      </trkpt>
      <trkpt lat="45.22343" lon="4.1024">
        <ele>510.6</ele>
        <time>2023-01-14T10:30:09Z</time>
      </trkpt>
      <trkpt lat="45.22339" lon="4.10247">
        <ele>511.08</ele>
        <time>2023-01-14T10:30:13Z</time>
      </trkpt>
      <trkpt lat="45.22332" lon="4.10256">
        <ele>511.08</ele>
        <time>2023-01-14T10:30:18Z</time>
      </trkpt>
      <trkpt lat="45.22328" lon="4.10264">
        <ele>511.08</ele>
        <time>2023-01-14T10:30:30Z</time>
      </trkpt>
      <trkpt lat="45.22345" lon="4.10267">
        <ele>512.04</ele>
        <time>2023-01-14T10:30:46Z</time>
      </trkpt>
      <trkpt lat="45.22343" lon="4.10271">
        <ele>510.6</ele>
        <time>2023-01-14T10:31:07Z</time>
      </trkpt>
      <trkpt lat="45.22344" lon="4.10271">
        <ele>510.12</ele>
        <time>2023-01-14T10:31:31Z</time>
      </trkpt>
      <trkpt lat="45.22343" lon="4.1027">
        <ele>509.64</ele>
        <time>2023-01-14T10:31:54Z</time>
      </trkpt>
      <trkpt lat="45.22361" lon="4.10271">
        <ele>502.91</ele>
        <time>2023-01-14T10:32:13Z</time>
      </trkpt>
      <trkpt lat="45.22387" lon="4.1027">
        <ele>504.35</ele>
        <time>2023-01-14T10:32:32Z</time>
      </trkpt>
      <trkpt lat="45.22395" lon="4.10273">
        <ele>500.5</ele>
        <time>2023-01-14T10:32:45Z</time>
      </trkpt>
      <trkpt lat="45.2242" lon="4.10265">
        <ele>498.1</ele>
        <time>2023-01-14T10:33:05Z</time>
      </trkpt>
      <trkpt lat="45.22438" lon="4.10252">
        <ele>497.14</ele>
        <time>2023-01-14T10:33:23Z</time>
      </trkpt>
      <trkpt lat="45.2246" lon="4.10242">
        <ele>499.06</ele>
        <time>2023-01-14T10:33:40Z</time>
      </trkpt>
      <trkpt lat="45.2248" lon="4.10227">
        <ele>500.02</ele>
        <time>2023-01-14T10:33:57Z</time>
      </trkpt>
      <trkpt lat="45.22489" lon="4.10221">
        <ele>499.06</ele>
        <time>2023-01-14T10:34:11Z</time>
      </trkpt>
      <trkpt lat="45.22503" lon="4.10207">
        <ele>496.18</ele>
        <time>2023-01-14T10:34:23Z</time>
      </trkpt>
      <trkpt lat="45.22518" lon="4.10193">
        <ele>492.81</ele>
        <time>2023-01-14T10:34:38Z</time>
      </trkpt>
      <trkpt lat="45.22533" lon="4.10185">
        <ele>489.93</ele>
        <time>2023-01-14T10:34:49Z</time>
      </trkpt>
      <trkpt lat="45.22545" lon="4.10179">
        <ele>489.93</ele>
        <time>2023-01-14T10:34:57Z</time>
      </trkpt>
      <trkpt lat="45.22564" lon="4.10166">
        <ele>487.05</ele>
        <time>2023-01-14T10:35:14Z</time>
      </trkpt>
      <trkpt lat="45.22576" lon="4.1016">
        <ele>484.16</ele>
        <time>2023-01-14T10:35:24Z</time>
      </trkpt>
      <trkpt lat="45.22598" lon="4.10152">
        <ele>482.72</ele>
        <time>2023-01-14T10:35:39Z</time>
      </trkpt>
      <trkpt lat="45.22618" lon="4.10146">
        <ele>483.2</ele>
        <time>2023-01-14T10:35:54Z</time>
      </trkpt>
      <trkpt lat="45.22639" lon="4.10144">
        <ele>481.76</ele>
        <time>2023-01-14T10:36:10Z</time>
      </trkpt>
      <trkpt lat="45.22657" lon="4.10141">
        <ele>482.24</ele>
        <time>2023-01-14T10:36:26Z</time>
      </trkpt>
      <trkpt lat="45.22681" lon="4.10136">
        <ele>484.16</ele>
        <time>2023-01-14T10:36:45Z</time>
      </trkpt>
      <trkpt lat="45.22698" lon="4.10136">
        <ele>485.6</ele>
        <time>2023-01-14T10:37:00Z</time>
      </trkpt>
      <trkpt lat="45.22715" lon="4.10138">
        <ele>488.49</ele>
        <time>2023-01-14T10:37:15Z</time>
      </trkpt>
      <trkpt lat="45.22736" lon="4.10141">
        <ele>493.77</ele>
        <time>2023-01-14T10:37:31Z</time>
      </trkpt>
      <trkpt lat="45.22744" lon="4.10137">
        <ele>495.7</ele>
        <time>2023-01-14T10:37:56Z</time>
      </trkpt>
      <trkpt lat="45.22752" lon="4.10132">
        <ele>499.54</ele>
        <time>2023-01-14T10:38:21Z</time>
      </trkpt>
      <trkpt lat="45.22769" lon="4.10148">
        <ele>501.46</ele>
        <time>2023-01-14T10:38:39Z</time>
      </trkpt>
      <trkpt lat="45.22791" lon="4.10159">
        <ele>500.5</ele>
        <time>2023-01-14T10:38:55Z</time>
      </trkpt>
      <trkpt lat="45.22815" lon="4.10174">
        <ele>499.06</ele>
        <time>2023-01-14T10:39:13Z</time>
      </trkpt>
      <trkpt lat="45.22845" lon="4.1019">
        <ele>495.7</ele>
        <time>2023-01-14T10:39:32Z</time>
      </trkpt>
      <trkpt lat="45.22871" lon="4.10203">
        <ele>492.33</ele>
        <time>2023-01-14T10:39:51Z</time>
      </trkpt>
      <trkpt lat="45.22903" lon="4.10197">
        <ele>493.29</ele>
        <time>2023-01-14T10:40:11Z</time>
      </trkpt>
      <trkpt lat="45.22934" lon="4.10181">
        <ele>493.29</ele>
        <time>2023-01-14T10:40:33Z</time>
      </trkpt>
      <trkpt lat="45.22963" lon="4.10175">
        <ele>493.29</ele>
        <time>2023-01-14T10:40:56Z</time>
      </trkpt>
      <trkpt lat="45.22991" lon="4.10178">
        <ele>492.81</ele>
        <time>2023-01-14T10:41:17Z</time>
      </trkpt>
      <trkpt lat="45.2301" lon="4.10192">
        <ele>495.7</ele>
        <time>2023-01-14T10:41:33Z</time>
      </trkpt>
      <trkpt lat="45.23041" lon="4.1021">
        <ele>497.14</ele>
        <time>2023-01-14T10:41:56Z</time>
      </trkpt>
      <trkpt lat="45.23072" lon="4.10228">
        <ele>498.1</ele>
        <time>2023-01-14T10:42:20Z</time>
      </trkpt>
      <trkpt lat="45.23091" lon="4.10253">
        <ele>495.7</ele>
        <time>2023-01-14T10:42:41Z</time>
      </trkpt>
      <trkpt lat="45.23098" lon="4.10279">
        <ele>490.89</ele>
        <time>2023-01-14T10:42:55Z</time>
      </trkpt>
      <trkpt lat="45.23115" lon="4.10312">
        <ele>490.41</ele>
        <time>2023-01-14T10:43:16Z</time>
      </trkpt>
      <trkpt lat="45.23125" lon="4.10361">
        <ele>491.85</ele>
        <time>2023-01-14T10:43:40Z</time>
      </trkpt>
      <trkpt lat="45.23158" lon="4.10347">
        <ele>484.16</ele>
        <time>2023-01-14T10:43:55Z</time>
      </trkpt>
      <trkpt lat="45.23161" lon="4.10343">
        <ele>483.2</ele>
        <time>2023-01-14T10:43:58Z</time>
      </trkpt>
      <trkpt lat="45.23169" lon="4.10333">
        <ele>482.24</ele>
        <time>2023-01-14T10:44:03Z</time>
      </trkpt>
      <trkpt lat="45.232" lon="4.10301">
        <ele>477.91</ele>
        <time>2023-01-14T10:44:26Z</time>
      </trkpt>
      <trkpt lat="45.23222" lon="4.10271">
        <ele>477.91</ele>
        <time>2023-01-14T10:44:47Z</time>
      </trkpt>
      <trkpt lat="45.2324" lon="4.10239">
        <ele>479.84</ele>
        <time>2023-01-14T10:45:07Z</time>
      </trkpt>
      <trkpt lat="45.23265" lon="4.10209">
        <ele>480.8</ele>
        <time>2023-01-14T10:45:29Z</time>
      </trkpt>
      <trkpt lat="45.23278" lon="4.10185">
        <ele>480.8</ele>
        <time>2023-01-14T10:45:46Z</time>
      </trkpt>
      <trkpt lat="45.23286" lon="4.10162">
        <ele>480.8</ele>
        <time>2023-01-14T10:46:00Z</time>
      </trkpt>
      <trkpt lat="45.23294" lon="4.10128">
        <ele>478.87</ele>
        <time>2023-01-14T10:46:18Z</time>
      </trkpt>
      <trkpt lat="45.23301" lon="4.10101">
        <ele>474.07</ele>
        <time>2023-01-14T10:46:35Z</time>
      </trkpt>
      <trkpt lat="45.23314" lon="4.10088">
        <ele>472.63</ele>
        <time>2023-01-14T10:46:46Z</time>
      </trkpt>
      <trkpt lat="45.2334" lon="4.10073">
        <ele>473.59</ele>
        <time>2023-01-14T10:47:05Z</time>
      </trkpt>
      <trkpt lat="45.23364" lon="4.1005">
        <ele>473.11</ele>
        <time>2023-01-14T10:47:23Z</time>
      </trkpt>
      <trkpt lat="45.23385" lon="4.10034">
        <ele>466.86</ele>
        <time>2023-01-14T10:47:42Z</time>
      </trkpt>
      <trkpt lat="45.23402" lon="4.10023">
        <ele>460.61</ele>
        <time>2023-01-14T10:47:57Z</time>
      </trkpt>
      <trkpt lat="45.2342" lon="4.10022">
        <ele>453.4</ele>
        <time>2023-01-14T10:48:16Z</time>
      </trkpt>
      <trkpt lat="45.23435" lon="4.1002">
        <ele>450.03</ele>
        <time>2023-01-14T10:48:32Z</time>
      </trkpt>
      <trkpt lat="45.23458" lon="4.10038">
        <ele>456.28</ele>
        <time>2023-01-14T10:48:49Z</time>
      </trkpt>
      <trkpt lat="45.23461" lon="4.10044">
        <ele>458.69</ele>
        <time>2023-01-14T10:49:07Z</time>
      </trkpt>
      <trkpt lat="45.2346" lon="4.10047">
        <ele>463.49</ele>
        <time>2023-01-14T10:49:26Z</time>
      </trkpt>
      <trkpt lat="45.23461" lon="4.10048">
        <ele>463.97</ele>
        <time>2023-01-14T10:49:51Z</time>
      </trkpt>
      <trkpt lat="45.23461" lon="4.10049">
        <ele>468.3</ele>
        <time>2023-01-14T10:50:08Z</time>
      </trkpt>
      <trkpt lat="45.23461" lon="4.10052">
        <ele>467.82</ele>
        <time>2023-01-14T10:50:22Z</time>
      </trkpt>
      <trkpt lat="45.23462" lon="4.1005">
        <ele>467.34</ele>
        <time>2023-01-14T10:50:43Z</time>
      </trkpt>
      <trkpt lat="45.23476" lon="4.10038">
        <ele>469.26</ele>
        <time>2023-01-14T10:51:02Z</time>
      </trkpt>
      <trkpt lat="45.23486" lon="4.10031">
        <ele>470.7</ele>
        <time>2023-01-14T10:51:13Z</time>
      </trkpt>
      <trkpt lat="45.23506" lon="4.09994">
        <ele>471.18</ele>
        <time>2023-01-14T10:51:37Z</time>
      </trkpt>
      <trkpt lat="45.2352" lon="4.09966">
        <ele>473.59</ele>
        <time>2023-01-14T10:51:55Z</time>
      </trkpt>
      <trkpt lat="45.23527" lon="4.09948">
        <ele>472.63</ele>
        <time>2023-01-14T10:52:08Z</time>
      </trkpt>
      <trkpt lat="45.23531" lon="4.09927">
        <ele>473.59</ele>
        <time>2023-01-14T10:52:21Z</time>
      </trkpt>
      <trkpt lat="45.23528" lon="4.09909">
        <ele>474.55</ele>
        <time>2023-01-14T10:52:32Z</time>
      </trkpt>
      <trkpt lat="45.23525" lon="4.09894">
        <ele>475.51</ele>
        <time>2023-01-14T10:52:40Z</time>
      </trkpt>
      <trkpt lat="45.23524" lon="4.0989">
        <ele>475.51</ele>
        <time>2023-01-14T10:52:42Z</time>
      </trkpt>
      <trkpt lat="45.23512" lon="4.09861">
        <ele>478.87</ele>
        <time>2023-01-14T10:52:59Z</time>
      </trkpt>
      <trkpt lat="45.235" lon="4.09839">
        <ele>480.32</ele>
        <time>2023-01-14T10:53:15Z</time>
      </trkpt>
      <trkpt lat="45.23492" lon="4.09811">
        <ele>479.84</ele>
        <time>2023-01-14T10:53:31Z</time>
      </trkpt>
      <trkpt lat="45.23475" lon="4.09781">
        <ele>478.87</ele>
        <time>2023-01-14T10:53:50Z</time>
      </trkpt>
      <trkpt lat="45.23454" lon="4.09754">
        <ele>478.39</ele>
        <time>2023-01-14T10:54:10Z</time>
      </trkpt>
      <trkpt lat="45.23435" lon="4.09719">
        <ele>478.39</ele>
        <time>2023-01-14T10:54:32Z</time>
      </trkpt>
      <trkpt lat="45.23424" lon="4.09696">
        <ele>478.87</ele>
        <time>2023-01-14T10:54:47Z</time>
      </trkpt>
      <trkpt lat="45.23414" lon="4.09668">
        <ele>479.35</ele>
        <time>2023-01-14T10:55:04Z</time>
      </trkpt>
      <trkpt lat="45.23405" lon="4.09639">
        <ele>479.84</ele>
        <time>2023-01-14T10:55:21Z</time>
      </trkpt>
      <trkpt lat="45.234" lon="4.09621">
        <ele>479.84</ele>
        <time>2023-01-14T10:55:34Z</time>
      </trkpt>
      <trkpt lat="45.23392" lon="4.09601">
        <ele>480.32</ele>
        <time>2023-01-14T10:55:48Z</time>
      </trkpt>
      <trkpt lat="45.23388" lon="4.09593">
        <ele>480.8</ele>
        <time>2023-01-14T10:56:04Z</time>
      </trkpt>
      <trkpt lat="45.23387" lon="4.09592">
        <ele>480.32</ele>
        <time>2023-01-14T10:56:27Z</time>
      </trkpt>
      <trkpt lat="45.23385" lon="4.09586">
        <ele>480.8</ele>
        <time>2023-01-14T10:56:47Z</time>
      </trkpt>
      <trkpt lat="45.2338" lon="4.09563">
        <ele>480.32</ele>
        <time>2023-01-14T10:57:05Z</time>
      </trkpt>
      <trkpt lat="45.23378" lon="4.09531">
        <ele>486.56</ele>
        <time>2023-01-14T10:57:18Z</time>
      </trkpt>
      <trkpt lat="45.23378" lon="4.09512">
        <ele>489.45</ele>
        <time>2023-01-14T10:57:29Z</time>
      </trkpt>
      <trkpt lat="45.23377" lon="4.09502">
        <ele>488.01</ele>
        <time>2023-01-14T10:57:38Z</time>
      </trkpt>
      <trkpt lat="45.23374" lon="4.09484">
        <ele>489.45</ele>
        <time>2023-01-14T10:57:47Z</time>
      </trkpt>
      <trkpt lat="45.23375" lon="4.09483">
        <ele>489.45</ele>
        <time>2023-01-14T10:57:48Z</time>
      </trkpt>
      <trkpt lat="45.23376" lon="4.09476">
        <ele>489.93</ele>
        <time>2023-01-14T10:57:52Z</time>
      </trkpt>
      <trkpt lat="45.23374" lon="4.09449">
        <ele>486.56</ele>
        <time>2023-01-14T10:58:06Z</time>
      </trkpt>
      <trkpt lat="45.23375" lon="4.09428">
        <ele>487.05</ele>
        <time>2023-01-14T10:58:19Z</time>
      </trkpt>
      <trkpt lat="45.23376" lon="4.09429">
        <ele>488.01</ele>
        <time>2023-01-14T10:58:22Z</time>
      </trkpt>
      <trkpt lat="45.23381" lon="4.0944">
        <ele>488.49</ele>
        <time>2023-01-14T10:58:37Z</time>
      </trkpt>
      <trkpt lat="45.23381" lon="4.09438">
        <ele>488.49</ele>
        <time>2023-01-14T10:58:48Z</time>
      </trkpt>
      <trkpt lat="45.23379" lon="4.09428">
        <ele>488.97</ele>
        <time>2023-01-14T10:58:55Z</time>
      </trkpt>
      <trkpt lat="45.23369" lon="4.09413">
        <ele>488.49</ele>
        <time>2023-01-14T10:59:10Z</time>
      </trkpt>
      <trkpt lat="45.23368" lon="4.09411">
        <ele>488.49</ele>
        <time>2023-01-14T10:59:11Z</time>
      </trkpt>
      <trkpt lat="45.23363" lon="4.09408">
        <ele>487.05</ele>
        <time>2023-01-14T10:59:13Z</time>
      </trkpt>
      <trkpt lat="45.23349" lon="4.09393">
        <ele>483.68</ele>
        <time>2023-01-14T10:59:29Z</time>
      </trkpt>
      <trkpt lat="45.23336" lon="4.09373">
        <ele>485.6</ele>
        <time>2023-01-14T10:59:52Z</time>
      </trkpt>
      <trkpt lat="45.23336" lon="4.09372">
        <ele>486.08</ele>
        <time>2023-01-14T10:59:53Z</time>
      </trkpt>
      <trkpt lat="45.23323" lon="4.09348">
        <ele>489.45</ele>
        <time>2023-01-14T11:00:11Z</time>
      </trkpt>
      <trkpt lat="45.23305" lon="4.09328">
        <ele>493.77</ele>
        <time>2023-01-14T11:00:27Z</time>
      </trkpt>
      <trkpt lat="45.23302" lon="4.09324">
        <ele>493.77</ele>
        <time>2023-01-14T11:00:30Z</time>
      </trkpt>
      <trkpt lat="45.23298" lon="4.09317">
        <ele>494.74</ele>
        <time>2023-01-14T11:00:35Z</time>
      </trkpt>
      <trkpt lat="45.23283" lon="4.09295">
        <ele>497.14</ele>
        <time>2023-01-14T11:00:52Z</time>
      </trkpt>
      <trkpt lat="45.23275" lon="4.09279">
        <ele>496.66</ele>
        <time>2023-01-14T11:01:07Z</time>
      </trkpt>
      <trkpt lat="45.23254" lon="4.09254">
        <ele>496.66</ele>
        <time>2023-01-14T11:01:29Z</time>
      </trkpt>
      <trkpt lat="45.23228" lon="4.09236">
        <ele>496.18</ele>
        <time>2023-01-14T11:01:50Z</time>
      </trkpt>
      <trkpt lat="45.23213" lon="4.09229">
        <ele>495.22</ele>
        <time>2023-01-14T11:02:02Z</time>
      </trkpt>
      <trkpt lat="45.23185" lon="4.09232">
        <ele>498.58</ele>
        <time>2023-01-14T11:02:24Z</time>
      </trkpt>
      <trkpt lat="45.23174" lon="4.09226">
        <ele>500.5</ele>
        <time>2023-01-14T11:02:44Z</time>
      </trkpt>
      <trkpt lat="45.23153" lon="4.09207">
        <ele>500.98</ele>
        <time>2023-01-14T11:03:04Z</time>
      </trkpt>
      <trkpt lat="45.23136" lon="4.09187">
        <ele>501.46</ele>
        <time>2023-01-14T11:03:24Z</time>
      </trkpt>
      <trkpt lat="45.23119" lon="4.09161">
        <ele>498.58</ele>
        <time>2023-01-14T11:03:42Z</time>
      </trkpt>
      <trkpt lat="45.23107" lon="4.0913">
        <ele>500.98</ele>
        <time>2023-01-14T11:04:01Z</time>
      </trkpt>
      <trkpt lat="45.23086" lon="4.09096">
        <ele>502.43</ele>
        <time>2023-01-14T11:04:23Z</time>
      </trkpt>
      <trkpt lat="45.23074" lon="4.09074">
        <ele>506.27</ele>
        <time>2023-01-14T11:04:42Z</time>
      </trkpt>
      <trkpt lat="45.23062" lon="4.09046">
        <ele>512.52</ele>
        <time>2023-01-14T11:05:03Z</time>
      </trkpt>
      <trkpt lat="45.23042" lon="4.09008">
        <ele>510.12</ele>
        <time>2023-01-14T11:05:25Z</time>
      </trkpt>
      <trkpt lat="45.23031" lon="4.08977">
        <ele>506.75</ele>
        <time>2023-01-14T11:05:45Z</time>
      </trkpt>
      <trkpt lat="45.2302" lon="4.08943">
        <ele>502.91</ele>
        <time>2023-01-14T11:06:03Z</time>
      </trkpt>
      <trkpt lat="45.23011" lon="4.08907">
        <ele>502.91</ele>
        <time>2023-01-14T11:06:22Z</time>
      </trkpt>
      <trkpt lat="45.22998" lon="4.08865">
        <ele>502.91</ele>
        <time>2023-01-14T11:06:44Z</time>
      </trkpt>
      <trkpt lat="45.22986" lon="4.08836">
        <ele>504.83</ele>
        <time>2023-01-14T11:07:01Z</time>
      </trkpt>
      <trkpt lat="45.22969" lon="4.08798">
        <ele>504.83</ele>
        <time>2023-01-14T11:07:24Z</time>
      </trkpt>
      <trkpt lat="45.22949" lon="4.08755">
        <ele>503.39</ele>
        <time>2023-01-14T11:07:46Z</time>
      </trkpt>
      <trkpt lat="45.22927" lon="4.08723">
        <ele>500.98</ele>
        <time>2023-01-14T11:08:10Z</time>
      </trkpt>
      <trkpt lat="45.229" lon="4.08714">
        <ele>496.66</ele>
        <time>2023-01-14T11:08:31Z</time>
      </trkpt>
      <trkpt lat="45.22882" lon="4.08687">
        <ele>502.91</ele>
        <time>2023-01-14T11:08:44Z</time>
      </trkpt>
      <trkpt lat="45.22881" lon="4.08674">
        <ele>503.39</ele>
        <time>2023-01-14T11:08:52Z</time>
      </trkpt>
      <trkpt lat="45.22881" lon="4.08645">
        <ele>504.35</ele>
        <time>2023-01-14T11:09:06Z</time>
      </trkpt>
      <trkpt lat="45.22872" lon="4.08626">
        <ele>503.39</ele>
        <time>2023-01-14T11:09:18Z</time>
      </trkpt>
      <trkpt lat="45.22854" lon="4.08607">
        <ele>501.46</ele>
        <time>2023-01-14T11:09:34Z</time>
      </trkpt>
      <trkpt lat="45.22832" lon="4.08593">
        <ele>504.83</ele>
        <time>2023-01-14T11:09:53Z</time>
      </trkpt>
      <trkpt lat="45.22811" lon="4.08577">
        <ele>514.44</ele>
        <time>2023-01-14T11:10:11Z</time>
      </trkpt>
      <trkpt lat="45.22807" lon="4.08573">
        <ele>516.37</ele>
        <time>2023-01-14T11:10:15Z</time>
      </trkpt>
      <trkpt lat="45.22798" lon="4.08558">
        <ele>517.81</ele>
        <time>2023-01-14T11:10:27Z</time>
      </trkpt>
      <trkpt lat="45.22787" lon="4.08547">
        <ele>518.77</ele>
        <time>2023-01-14T11:10:38Z</time>
      </trkpt>
      <trkpt lat="45.22775" lon="4.08533">
        <ele>521.17</ele>
        <time>2023-01-14T11:10:50Z</time>
      </trkpt>
      <trkpt lat="45.22763" lon="4.08521">
        <ele>519.25</ele>
        <time>2023-01-14T11:11:00Z</time>
      </trkpt>
      <trkpt lat="45.22752" lon="4.08507">
        <ele>517.33</ele>
        <time>2023-01-14T11:11:12Z</time>
      </trkpt>
      <trkpt lat="45.22744" lon="4.08494">
        <ele>516.85</ele>
        <time>2023-01-14T11:11:22Z</time>
      </trkpt>
      <trkpt lat="45.22734" lon="4.08479">
        <ele>515.88</ele>
        <time>2023-01-14T11:11:32Z</time>
      </trkpt>
      <trkpt lat="45.22723" lon="4.08466">
        <ele>515.88</ele>
        <time>2023-01-14T11:11:43Z</time>
      </trkpt>
      <trkpt lat="45.2271" lon="4.08448">
        <ele>516.37</ele>
        <time>2023-01-14T11:11:57Z</time>
      </trkpt>
      <trkpt lat="45.2269" lon="4.08433">
        <ele>517.81</ele>
        <time>2023-01-14T11:12:13Z</time>
      </trkpt>
      <trkpt lat="45.22662" lon="4.08417">
        <ele>518.29</ele>
        <time>2023-01-14T11:12:35Z</time>
      </trkpt>
      <trkpt lat="45.22639" lon="4.08412">
        <ele>517.81</ele>
        <time>2023-01-14T11:12:53Z</time>
      </trkpt>
      <trkpt lat="45.22607" lon="4.08407">
        <ele>515.4</ele>
        <time>2023-01-14T11:13:14Z</time>
      </trkpt>
      <trkpt lat="45.22579" lon="4.08405">
        <ele>512.04</ele>
        <time>2023-01-14T11:13:35Z</time>
      </trkpt>
      <trkpt lat="45.2256" lon="4.08405">
        <ele>509.64</ele>
        <time>2023-01-14T11:13:55Z</time>
      </trkpt>
      <trkpt lat="45.22548" lon="4.08407">
        <ele>510.6</ele>
        <time>2023-01-14T11:14:09Z</time>
      </trkpt>
      <trkpt lat="45.22543" lon="4.08407">
        <ele>509.64</ele>
        <time>2023-01-14T11:14:32Z</time>
      </trkpt>
      <trkpt lat="45.22517" lon="4.08395">
        <ele>509.16</ele>
        <time>2023-01-14T11:14:54Z</time>
      </trkpt>
      <trkpt lat="45.22497" lon="4.08376">
        <ele>511.08</ele>
        <time>2023-01-14T11:15:16Z</time>
      </trkpt>
      <trkpt lat="45.22478" lon="4.08357">
        <ele>513</ele>
        <time>2023-01-14T11:15:34Z</time>
      </trkpt>
      <trkpt lat="45.22468" lon="4.08342">
        <ele>514.44</ele>
        <time>2023-01-14T11:15:46Z</time>
      </trkpt>
      <trkpt lat="45.2245" lon="4.08312">
        <ele>521.17</ele>
        <time>2023-01-14T11:16:09Z</time>
      </trkpt>
      <trkpt lat="45.22442" lon="4.083">
        <ele>523.58</ele>
        <time>2023-01-14T11:16:33Z</time>
      </trkpt>
      <trkpt lat="45.22418" lon="4.08275">
        <ele>531.27</ele>
        <time>2023-01-14T11:16:58Z</time>
      </trkpt>
      <trkpt lat="45.22389" lon="4.08276">
        <ele>534.63</ele>
        <time>2023-01-14T11:17:21Z</time>
      </trkpt>
      <trkpt lat="45.22365" lon="4.08264">
        <ele>541.36</ele>
        <time>2023-01-14T11:17:45Z</time>
      </trkpt>
      <trkpt lat="45.22341" lon="4.08281">
        <ele>544.72</ele>
        <time>2023-01-14T11:18:08Z</time>
      </trkpt>
      <trkpt lat="45.22322" lon="4.08271">
        <ele>550.49</ele>
        <time>2023-01-14T11:18:30Z</time>
      </trkpt>
      <trkpt lat="45.22308" lon="4.08263">
        <ele>553.86</ele>
        <time>2023-01-14T11:18:50Z</time>
      </trkpt>
      <trkpt lat="45.22282" lon="4.08266">
        <ele>556.26</ele>
        <time>2023-01-14T11:19:10Z</time>
      </trkpt>
      <trkpt lat="45.22257" lon="4.08273">
        <ele>557.7</ele>
        <time>2023-01-14T11:19:27Z</time>
      </trkpt>
      <trkpt lat="45.2223" lon="4.08271">
        <ele>563.95</ele>
        <time>2023-01-14T11:19:48Z</time>
      </trkpt>
      <trkpt lat="45.22221" lon="4.08273">
        <ele>566.35</ele>
        <time>2023-01-14T11:19:59Z</time>
      </trkpt>
      <trkpt lat="45.22195" lon="4.08275">
        <ele>573.56</ele>
        <time>2023-01-14T11:20:20Z</time>
      </trkpt>
      <trkpt lat="45.22194" lon="4.08291">
        <ele>574.53</ele>
        <time>2023-01-14T11:20:44Z</time>
      </trkpt>
      <trkpt lat="45.22196" lon="4.08296">
        <ele>575.97</ele>
        <time>2023-01-14T11:21:14Z</time>
      </trkpt>
      <trkpt lat="45.22197" lon="4.08296">
        <ele>578.37</ele>
        <time>2023-01-14T11:21:50Z</time>
      </trkpt>
      <trkpt lat="45.22201" lon="4.08285">
        <ele>578.37</ele>
        <time>2023-01-14T11:22:09Z</time>
      </trkpt>
      <trkpt lat="45.222" lon="4.08279">
        <ele>579.33</ele>
        <time>2023-01-14T11:22:15Z</time>
      </trkpt>
      <trkpt lat="45.22184" lon="4.08247">
        <ele>586.06</ele>
        <time>2023-01-14T11:22:23Z</time>
      </trkpt>
      <trkpt lat="45.22187" lon="4.0822">
        <ele>586.54</ele>
        <time>2023-01-14T11:22:36Z</time>
      </trkpt>
      <trkpt lat="45.22185" lon="4.08205">
        <ele>588.95</ele>
        <time>2023-01-14T11:22:46Z</time>
      </trkpt>
      <trkpt lat="45.22179" lon="4.08198">
        <ele>589.91</ele>
        <time>2023-01-14T11:22:52Z</time>
      </trkpt>
      <trkpt lat="45.22177" lon="4.08198">
        <ele>589.91</ele>
        <time>2023-01-14T11:22:54Z</time>
      </trkpt>
      <trkpt lat="45.22165" lon="4.08202">
        <ele>591.83</ele>
        <time>2023-01-14T11:23:05Z</time>
      </trkpt>
      <trkpt lat="45.22154" lon="4.08209">
        <ele>595.19</ele>
        <time>2023-01-14T11:23:18Z</time>
      </trkpt>
      <trkpt lat="45.2214" lon="4.08213">
        <ele>596.64</ele>
        <time>2023-01-14T11:23:32Z</time>
      </trkpt>
      <trkpt lat="45.22139" lon="4.08214">
        <ele>597.12</ele>
        <time>2023-01-14T11:23:33Z</time>
      </trkpt>
      <trkpt lat="45.22136" lon="4.08214">
        <ele>597.6</ele>
        <time>2023-01-14T11:23:36Z</time>
      </trkpt>
      <trkpt lat="45.22123" lon="4.0822">
        <ele>600.96</ele>
        <time>2023-01-14T11:23:49Z</time>
      </trkpt>
      <trkpt lat="45.22108" lon="4.08225">
        <ele>604.81</ele>
        <time>2023-01-14T11:24:01Z</time>
      </trkpt>
      <trkpt lat="45.22098" lon="4.08228">
        <ele>606.73</ele>
        <time>2023-01-14T11:24:11Z</time>
      </trkpt>
      <trkpt lat="45.22083" lon="4.08235">
        <ele>608.65</ele>
        <time>2023-01-14T11:24:23Z</time>
      </trkpt>
      <trkpt lat="45.22067" lon="4.08241">
        <ele>612.98</ele>
        <time>2023-01-14T11:24:37Z</time>
      </trkpt>
      <trkpt lat="45.22049" lon="4.08245">
        <ele>613.46</ele>
        <time>2023-01-14T11:24:49Z</time>
      </trkpt>
      <trkpt lat="45.22035" lon="4.08252">
        <ele>613.94</ele>
        <time>2023-01-14T11:25:00Z</time>
      </trkpt>
      <trkpt lat="45.22021" lon="4.08258">
        <ele>613.46</ele>
        <time>2023-01-14T11:25:11Z</time>
      </trkpt>
      <trkpt lat="45.22011" lon="4.08268">
        <ele>615.38</ele>
        <time>2023-01-14T11:25:21Z</time>
      </trkpt>
      <trkpt lat="45.21992" lon="4.08273">
        <ele>616.34</ele>
        <time>2023-01-14T11:25:36Z</time>
      </trkpt>
      <trkpt lat="45.21981" lon="4.08274">
        <ele>617.3</ele>
        <time>2023-01-14T11:25:45Z</time>
      </trkpt>
      <trkpt lat="45.21965" lon="4.08278">
        <ele>618.75</ele>
        <time>2023-01-14T11:25:59Z</time>
      </trkpt>
      <trkpt lat="45.2195" lon="4.08278">
        <ele>621.15</ele>
        <time>2023-01-14T11:26:09Z</time>
      </trkpt>
      <trkpt lat="45.21936" lon="4.08282">
        <ele>621.63</ele>
        <time>2023-01-14T11:26:22Z</time>
      </trkpt>
      <trkpt lat="45.2192" lon="4.08282">
        <ele>624.51</ele>
        <time>2023-01-14T11:26:33Z</time>
      </trkpt>
      <trkpt lat="45.21909" lon="4.08284">
        <ele>626.44</ele>
        <time>2023-01-14T11:26:44Z</time>
      </trkpt>
      <trkpt lat="45.21903" lon="4.08282">
        <ele>626.44</ele>
        <time>2023-01-14T11:26:49Z</time>
      </trkpt>
      <trkpt lat="45.21901" lon="4.08281">
        <ele>626.44</ele>
        <time>2023-01-14T11:26:51Z</time>
      </trkpt>
      <trkpt lat="45.21899" lon="4.08281">
        <ele>625.96</ele>
        <time>2023-01-14T11:27:03Z</time>
      </trkpt>
      <trkpt lat="45.21899" lon="4.08282">
        <ele>626.44</ele>
        <time>2023-01-14T11:27:16Z</time>
      </trkpt>
      <trkpt lat="45.219" lon="4.08282">
        <ele>626.44</ele>
        <time>2023-01-14T11:27:28Z</time>
      </trkpt>
      <trkpt lat="45.21884" lon="4.08273">
        <ele>626.92</ele>
        <time>2023-01-14T11:27:46Z</time>
      </trkpt>
      <trkpt lat="45.21874" lon="4.08275">
        <ele>626.92</ele>
        <time>2023-01-14T11:27:55Z</time>
      </trkpt>
      <trkpt lat="45.21866" lon="4.08278">
        <ele>626.92</ele>
        <time>2023-01-14T11:28:02Z</time>
      </trkpt>
      <trkpt lat="45.2185" lon="4.08283">
        <ele>624.99</ele>
        <time>2023-01-14T11:28:14Z</time>
      </trkpt>
      <trkpt lat="45.21833" lon="4.0829">
        <ele>624.03</ele>
        <time>2023-01-14T11:28:27Z</time>
      </trkpt>
      <trkpt lat="45.21818" lon="4.08297">
        <ele>623.07</ele>
        <time>2023-01-14T11:28:39Z</time>
      </trkpt>
      <trkpt lat="45.21802" lon="4.08302">
        <ele>623.55</ele>
        <time>2023-01-14T11:28:51Z</time>
      </trkpt>
      <trkpt lat="45.21791" lon="4.08307">
        <ele>624.03</ele>
        <time>2023-01-14T11:29:02Z</time>
      </trkpt>
      <trkpt lat="45.21777" lon="4.08314">
        <ele>624.03</ele>
        <time>2023-01-14T11:29:12Z</time>
      </trkpt>
      <trkpt lat="45.21762" lon="4.08322">
        <ele>621.15</ele>
        <time>2023-01-14T11:29:25Z</time>
      </trkpt>
      <trkpt lat="45.21755" lon="4.08328">
        <ele>619.23</ele>
        <time>2023-01-14T11:29:29Z</time>
      </trkpt>
      <trkpt lat="45.21738" lon="4.08337">
        <ele>614.9</ele>
        <time>2023-01-14T11:29:42Z</time>
      </trkpt>
      <trkpt lat="45.21727" lon="4.08348">
        <ele>612.98</ele>
        <time>2023-01-14T11:29:53Z</time>
      </trkpt>
      <trkpt lat="45.21726" lon="4.08349">
        <ele>612.5</ele>
        <time>2023-01-14T11:29:54Z</time>
      </trkpt>
      <trkpt lat="45.21717" lon="4.08359">
        <ele>612.5</ele>
        <time>2023-01-14T11:30:03Z</time>
      </trkpt>
      <trkpt lat="45.21707" lon="4.0837">
        <ele>613.46</ele>
        <time>2023-01-14T11:30:13Z</time>
      </trkpt>
      <trkpt lat="45.21689" lon="4.08379">
        <ele>613.94</ele>
        <time>2023-01-14T11:30:28Z</time>
      </trkpt>
      <trkpt lat="45.21679" lon="4.0838">
        <ele>615.86</ele>
        <time>2023-01-14T11:30:37Z</time>
      </trkpt>
      <trkpt lat="45.21673" lon="4.08384">
        <ele>619.71</ele>
        <time>2023-01-14T11:30:46Z</time>
      </trkpt>
      <trkpt lat="45.21671" lon="4.08385">
        <ele>620.67</ele>
        <time>2023-01-14T11:30:49Z</time>
      </trkpt>
      <trkpt lat="45.21668" lon="4.08385">
        <ele>620.67</ele>
        <time>2023-01-14T11:30:53Z</time>
      </trkpt>
      <trkpt lat="45.21665" lon="4.08387">
        <ele>620.67</ele>
        <time>2023-01-14T11:30:58Z</time>
      </trkpt>
      <trkpt lat="45.21662" lon="4.08389">
        <ele>620.19</ele>
        <time>2023-01-14T11:31:00Z</time>
      </trkpt>
      <trkpt lat="45.21657" lon="4.08395">
        <ele>619.71</ele>
        <time>2023-01-14T11:31:11Z</time>
      </trkpt>
      <trkpt lat="45.2166" lon="4.08396">
        <ele>621.15</ele>
        <time>2023-01-14T11:31:30Z</time>
      </trkpt>
      <trkpt lat="45.21657" lon="4.08391">
        <ele>622.11</ele>
        <time>2023-01-14T11:31:48Z</time>
      </trkpt>
      <trkpt lat="45.21658" lon="4.08391">
        <ele>622.11</ele>
        <time>2023-01-14T11:32:11Z</time>
      </trkpt>
      <trkpt lat="45.21658" lon="4.08391">
        <ele>621.63</ele>
        <time>2023-01-14T11:32:37Z</time>
      </trkpt>
      <trkpt lat="45.21658" lon="4.08392">
        <ele>621.63</ele>
        <time>2023-01-14T11:33:03Z</time>
      </trkpt>
      <trkpt lat="45.21658" lon="4.08391">
        <ele>621.63</ele>
        <time>2023-01-14T11:33:29Z</time>
      </trkpt>
      <trkpt lat="45.21657" lon="4.08391">
        <ele>620.67</ele>
        <time>2023-01-14T11:33:45Z</time>
      </trkpt>
      <trkpt lat="45.21658" lon="4.08391">
        <ele>621.15</ele>
        <time>2023-01-14T11:34:14Z</time>
      </trkpt>
      <trkpt lat="45.21656" lon="4.08393">
        <ele>619.71</ele>
        <time>2023-01-14T11:34:37Z</time>
      </trkpt>
      <trkpt lat="45.21655" lon="4.08393">
        <ele>618.26</ele>
        <time>2023-01-14T11:35:01Z</time>
      </trkpt>
      <trkpt lat="45.21655" lon="4.0839">
        <ele>618.26</ele>
        <time>2023-01-14T11:35:22Z</time>
      </trkpt>
      <trkpt lat="45.21652" lon="4.08374">
        <ele>619.71</ele>
        <time>2023-01-14T11:35:45Z</time>
      </trkpt>
      <trkpt lat="45.21645" lon="4.0838">
        <ele>622.11</ele>
        <time>2023-01-14T11:36:11Z</time>
      </trkpt>
      <trkpt lat="45.21645" lon="4.08383">
        <ele>621.15</ele>
        <time>2023-01-14T11:36:34Z</time>
      </trkpt>
      <trkpt lat="45.21648" lon="4.08383">
        <ele>620.67</ele>
        <time>2023-01-14T11:36:56Z</time>
      </trkpt>
      <trkpt lat="45.21651" lon="4.08382">
        <ele>620.67</ele>
        <time>2023-01-14T11:37:25Z</time>
      </trkpt>
      <trkpt lat="45.21654" lon="4.08388">
        <ele>620.19</ele>
        <time>2023-01-14T11:37:53Z</time>
      </trkpt>
      <trkpt lat="45.21656" lon="4.0839">
        <ele>620.19</ele>
        <time>2023-01-14T11:38:19Z</time>
      </trkpt>
      <trkpt lat="45.21657" lon="4.08387">
        <ele>619.71</ele>
        <time>2023-01-14T11:38:38Z</time>
      </trkpt>
      <trkpt lat="45.21662" lon="4.08382">
        <ele>618.26</ele>
        <time>2023-01-14T11:38:57Z</time>
      </trkpt>
      <trkpt lat="45.21661" lon="4.08393">
        <ele>617.78</ele>
        <time>2023-01-14T11:39:17Z</time>
      </trkpt>
      <trkpt lat="45.21661" lon="4.08393">
        <ele>618.26</ele>
        <time>2023-01-14T11:39:45Z</time>
      </trkpt>
      <trkpt lat="45.21661" lon="4.08393">
        <ele>619.23</ele>
        <time>2023-01-14T11:40:12Z</time>
      </trkpt>
      <trkpt lat="45.2166" lon="4.08384">
        <ele>616.34</ele>
        <time>2023-01-14T11:40:30Z</time>
      </trkpt>
      <trkpt lat="45.21656" lon="4.08395">
        <ele>614.42</ele>
        <time>2023-01-14T11:40:52Z</time>
      </trkpt>
      <trkpt lat="45.21659" lon="4.08394">
        <ele>616.82</ele>
        <time>2023-01-14T11:41:21Z</time>
      </trkpt>
      <trkpt lat="45.2166" lon="4.08393">
        <ele>618.75</ele>
        <time>2023-01-14T11:41:49Z</time>
      </trkpt>
      <trkpt lat="45.21658" lon="4.08393">
        <ele>618.26</ele>
        <time>2023-01-14T11:42:15Z</time>
      </trkpt>
      <trkpt lat="45.21659" lon="4.08393">
        <ele>618.26</ele>
        <time>2023-01-14T11:42:43Z</time>
      </trkpt>
      <trkpt lat="45.21659" lon="4.08393">
        <ele>618.75</ele>
        <time>2023-01-14T11:43:10Z</time>
      </trkpt>
      <trkpt lat="45.21661" lon="4.08393">
        <ele>619.23</ele>
        <time>2023-01-14T11:43:34Z</time>
      </trkpt>
      <trkpt lat="45.21662" lon="4.08389">
        <ele>621.15</ele>
        <time>2023-01-14T11:43:57Z</time>
      </trkpt>
      <trkpt lat="45.21661" lon="4.08389">
        <ele>620.67</ele>
        <time>2023-01-14T11:44:19Z</time>
      </trkpt>
      <trkpt lat="45.21658" lon="4.08387">
        <ele>621.15</ele>
        <time>2023-01-14T11:44:46Z</time>
      </trkpt>
      <trkpt lat="45.21658" lon="4.0839">
        <ele>621.15</ele>
        <time>2023-01-14T11:45:14Z</time>
      </trkpt>
      <trkpt lat="45.21658" lon="4.0839">
        <ele>621.15</ele>
        <time>2023-01-14T11:45:41Z</time>
      </trkpt>
      <trkpt lat="45.21658" lon="4.0839">
        <ele>621.15</ele>
        <time>2023-01-14T11:46:10Z</time>
      </trkpt>
      <trkpt lat="45.21658" lon="4.0839">
        <ele>621.15</ele>
        <time>2023-01-14T11:46:45Z</time>
      </trkpt>
      <trkpt lat="45.2166" lon="4.08388">
        <ele>620.67</ele>
        <time>2023-01-14T11:47:08Z</time>
      </trkpt>
      <trkpt lat="45.21658" lon="4.0839">
        <ele>620.19</ele>
        <time>2023-01-14T11:47:36Z</time>
      </trkpt>
      <trkpt lat="45.21657" lon="4.08391">
        <ele>620.19</ele>
        <time>2023-01-14T11:48:04Z</time>
      </trkpt>
      <trkpt lat="45.21658" lon="4.08391">
        <ele>620.19</ele>
        <time>2023-01-14T11:48:28Z</time>
      </trkpt>
      <trkpt lat="45.21658" lon="4.08391">
        <ele>619.71</ele>
        <time>2023-01-14T11:48:56Z</time>
      </trkpt>
      <trkpt lat="45.21656" lon="4.08392">
        <ele>619.23</ele>
        <time>2023-01-14T11:49:19Z</time>
      </trkpt>
      <trkpt lat="45.21658" lon="4.08392">
        <ele>618.75</ele>
        <time>2023-01-14T11:49:46Z</time>
      </trkpt>
      <trkpt lat="45.2166" lon="4.08392">
        <ele>614.9</ele>
        <time>2023-01-14T11:50:07Z</time>
      </trkpt>
      <trkpt lat="45.21661" lon="4.08392">
        <ele>609.13</ele>
        <time>2023-01-14T11:50:35Z</time>
      </trkpt>
      <trkpt lat="45.2166" lon="4.08393">
        <ele>609.61</ele>
        <time>2023-01-14T11:51:02Z</time>
      </trkpt>
      <trkpt lat="45.2166" lon="4.08393">
        <ele>609.13</ele>
        <time>2023-01-14T11:51:28Z</time>
      </trkpt>
      <trkpt lat="45.21658" lon="4.08394">
        <ele>609.61</ele>
        <time>2023-01-14T11:51:55Z</time>
      </trkpt>
      <trkpt lat="45.21663" lon="4.08391">
        <ele>607.69</ele>
        <time>2023-01-14T11:52:21Z</time>
      </trkpt>
      <trkpt lat="45.2166" lon="4.0839">
        <ele>606.73</ele>
        <time>2023-01-14T11:52:46Z</time>
      </trkpt>
      <trkpt lat="45.2166" lon="4.08392">
        <ele>605.29</ele>
        <time>2023-01-14T11:53:11Z</time>
      </trkpt>
      <trkpt lat="45.21656" lon="4.08388">
        <ele>607.21</ele>
        <time>2023-01-14T11:53:35Z</time>
      </trkpt>
      <trkpt lat="45.21656" lon="4.08388">
        <ele>607.21</ele>
        <time>2023-01-14T11:54:01Z</time>
      </trkpt>
      <trkpt lat="45.21656" lon="4.0839">
        <ele>606.73</ele>
        <time>2023-01-14T11:54:24Z</time>
      </trkpt>
      <trkpt lat="45.21656" lon="4.08392">
        <ele>605.77</ele>
        <time>2023-01-14T11:54:49Z</time>
      </trkpt>
      <trkpt lat="45.21662" lon="4.08393">
        <ele>610.09</ele>
        <time>2023-01-14T11:55:19Z</time>
      </trkpt>
      <trkpt lat="45.21661" lon="4.08388">
        <ele>610.09</ele>
        <time>2023-01-14T11:55:45Z</time>
      </trkpt>
      <trkpt lat="45.21661" lon="4.0839">
        <ele>615.38</ele>
        <time>2023-01-14T11:56:05Z</time>
      </trkpt>
      <trkpt lat="45.21659" lon="4.08391">
        <ele>615.86</ele>
        <time>2023-01-14T11:56:29Z</time>
      </trkpt>
      <trkpt lat="45.2166" lon="4.0839">
        <ele>616.82</ele>
        <time>2023-01-14T11:56:58Z</time>
      </trkpt>
      <trkpt lat="45.21659" lon="4.0839">
        <ele>617.3</ele>
        <time>2023-01-14T11:57:27Z</time>
      </trkpt>
      <trkpt lat="45.21659" lon="4.0839">
        <ele>617.3</ele>
        <time>2023-01-14T11:57:59Z</time>
      </trkpt>
      <trkpt lat="45.21659" lon="4.0839">
        <ele>617.3</ele>
        <time>2023-01-14T11:58:27Z</time>
      </trkpt>
      <trkpt lat="45.21658" lon="4.0839">
        <ele>617.3</ele>
        <time>2023-01-14T11:58:55Z</time>
      </trkpt>
      <trkpt lat="45.2166" lon="4.0839">
        <ele>617.3</ele>
        <time>2023-01-14T11:59:20Z</time>
      </trkpt>
      <trkpt lat="45.21659" lon="4.08389">
        <ele>617.78</ele>
        <time>2023-01-14T11:59:48Z</time>
      </trkpt>
      <trkpt lat="45.21658" lon="4.0839">
        <ele>618.26</ele>
        <time>2023-01-14T12:00:15Z</time>
      </trkpt>
      <trkpt lat="45.2166" lon="4.0839">
        <ele>621.15</ele>
        <time>2023-01-14T12:00:45Z</time>
      </trkpt>
      <trkpt lat="45.2166" lon="4.08389">
        <ele>621.63</ele>
        <time>2023-01-14T12:01:12Z</time>
      </trkpt>
      <trkpt lat="45.21661" lon="4.08388">
        <ele>626.44</ele>
        <time>2023-01-14T12:01:38Z</time>
      </trkpt>
      <trkpt lat="45.21659" lon="4.08389">
        <ele>627.4</ele>
        <time>2023-01-14T12:02:05Z</time>
      </trkpt>
      <trkpt lat="45.21659" lon="4.0839">
        <ele>626.92</ele>
        <time>2023-01-14T12:02:35Z</time>
      </trkpt>
      <trkpt lat="45.2166" lon="4.0839">
        <ele>629.32</ele>
        <time>2023-01-14T12:03:01Z</time>
      </trkpt>
      <trkpt lat="45.2166" lon="4.08393">
        <ele>629.8</ele>
        <time>2023-01-14T12:03:29Z</time>
      </trkpt>
      <trkpt lat="45.21659" lon="4.08388">
        <ele>631.24</ele>
        <time>2023-01-14T12:03:53Z</time>
      </trkpt>
      <trkpt lat="45.21658" lon="4.08386">
        <ele>630.76</ele>
        <time>2023-01-14T12:04:21Z</time>
      </trkpt>
      <trkpt lat="45.21655" lon="4.08382">
        <ele>634.13</ele>
        <time>2023-01-14T12:04:42Z</time>
      </trkpt>
      <trkpt lat="45.21658" lon="4.08387">
        <ele>641.82</ele>
        <time>2023-01-14T12:05:17Z</time>
      </trkpt>
      <trkpt lat="45.21658" lon="4.08388">
        <ele>639.41</ele>
        <time>2023-01-14T12:05:41Z</time>
      </trkpt>
      <trkpt lat="45.21659" lon="4.08391">
        <ele>637.01</ele>
        <time>2023-01-14T12:06:10Z</time>
      </trkpt>
      <trkpt lat="45.21661" lon="4.08391">
        <ele>637.01</ele>
        <time>2023-01-14T12:06:38Z</time>
      </trkpt>
      <trkpt lat="45.21661" lon="4.0839">
        <ele>637.01</ele>
        <time>2023-01-14T12:07:08Z</time>
      </trkpt>
      <trkpt lat="45.21661" lon="4.08389">
        <ele>636.05</ele>
        <time>2023-01-14T12:07:39Z</time>
      </trkpt>
      <trkpt lat="45.21659" lon="4.08392">
        <ele>632.68</ele>
        <time>2023-01-14T12:08:12Z</time>
      </trkpt>
      <trkpt lat="45.21659" lon="4.08391">
        <ele>631.24</ele>
        <time>2023-01-14T12:08:43Z</time>
      </trkpt>
      <trkpt lat="45.21659" lon="4.0839">
        <ele>630.28</ele>
        <time>2023-01-14T12:09:08Z</time>
      </trkpt>
      <trkpt lat="45.21659" lon="4.0839">
        <ele>628.84</ele>
        <time>2023-01-14T12:09:41Z</time>
      </trkpt>
      <trkpt lat="45.21659" lon="4.0839">
        <ele>627.88</ele>
        <time>2023-01-14T12:10:09Z</time>
      </trkpt>
      <trkpt lat="45.21656" lon="4.08388">
        <ele>628.36</ele>
        <time>2023-01-14T12:10:37Z</time>
      </trkpt>
      <trkpt lat="45.21653" lon="4.08389">
        <ele>626.44</ele>
        <time>2023-01-14T12:11:07Z</time>
      </trkpt>
      <trkpt lat="45.21656" lon="4.0839">
        <ele>625.47</ele>
        <time>2023-01-14T12:11:33Z</time>
      </trkpt>
      <trkpt lat="45.21657" lon="4.0839">
        <ele>626.44</ele>
        <time>2023-01-14T12:12:06Z</time>
      </trkpt>
      <trkpt lat="45.21658" lon="4.08392">
        <ele>624.99</ele>
        <time>2023-01-14T12:12:35Z</time>
      </trkpt>
      <trkpt lat="45.21658" lon="4.08392">
        <ele>624.51</ele>
        <time>2023-01-14T12:13:01Z</time>
      </trkpt>
      <trkpt lat="45.21658" lon="4.08391">
        <ele>621.63</ele>
        <time>2023-01-14T12:13:25Z</time>
      </trkpt>
      <trkpt lat="45.21657" lon="4.08391">
        <ele>620.67</ele>
        <time>2023-01-14T12:13:45Z</time>
      </trkpt>
      <trkpt lat="45.21658" lon="4.08391">
        <ele>620.67</ele>
        <time>2023-01-14T12:14:07Z</time>
      </trkpt>
      <trkpt lat="45.21658" lon="4.08392">
        <ele>620.19</ele>
        <time>2023-01-14T12:14:31Z</time>
      </trkpt>
      <trkpt lat="45.21658" lon="4.08391">
        <ele>620.19</ele>
        <time>2023-01-14T12:14:51Z</time>
      </trkpt>
      <trkpt lat="45.21657" lon="4.08393">
        <ele>619.71</ele>
        <time>2023-01-14T12:15:12Z</time>
      </trkpt>
      <trkpt lat="45.21659" lon="4.08401">
        <ele>619.23</ele>
        <time>2023-01-14T12:15:30Z</time>
      </trkpt>
      <trkpt lat="45.21656" lon="4.08418">
        <ele>618.75</ele>
        <time>2023-01-14T12:15:51Z</time>
      </trkpt>
      <trkpt lat="45.21652" lon="4.08417">
        <ele>617.78</ele>
        <time>2023-01-14T12:16:13Z</time>
      </trkpt>
      <trkpt lat="45.21648" lon="4.08416">
        <ele>618.26</ele>
        <time>2023-01-14T12:16:34Z</time>
      </trkpt>
      <trkpt lat="45.21654" lon="4.08409">
        <ele>617.3</ele>
        <time>2023-01-14T12:16:49Z</time>
      </trkpt>
      <trkpt lat="45.21654" lon="4.08399">
        <ele>617.3</ele>
        <time>2023-01-14T12:17:09Z</time>
      </trkpt>
      <trkpt lat="45.21656" lon="4.08401">
        <ele>615.86</ele>
        <time>2023-01-14T12:17:33Z</time>
      </trkpt>
      <trkpt lat="45.21655" lon="4.08396">
        <ele>615.38</ele>
        <time>2023-01-14T12:17:56Z</time>
      </trkpt>
      <trkpt lat="45.21653" lon="4.08403">
        <ele>613.94</ele>
        <time>2023-01-14T12:18:14Z</time>
      </trkpt>
      <trkpt lat="45.21654" lon="4.08396">
        <ele>615.38</ele>
        <time>2023-01-14T12:18:35Z</time>
      </trkpt>
      <trkpt lat="45.21651" lon="4.08396">
        <ele>615.38</ele>
        <time>2023-01-14T12:18:52Z</time>
      </trkpt>
      <trkpt lat="45.21651" lon="4.08396">
        <ele>615.38</ele>
        <time>2023-01-14T12:18:53Z</time>
      </trkpt>
      <trkpt lat="45.2164" lon="4.084">
        <ele>614.9</ele>
        <time>2023-01-14T12:19:01Z</time>
      </trkpt>
      <trkpt lat="45.21643" lon="4.08413">
        <ele>614.42</ele>
        <time>2023-01-14T12:19:26Z</time>
      </trkpt>
      <trkpt lat="45.21656" lon="4.08399">
        <ele>614.9</ele>
        <time>2023-01-14T12:19:44Z</time>
      </trkpt>
      <trkpt lat="45.21659" lon="4.084">
        <ele>616.34</ele>
        <time>2023-01-14T12:20:05Z</time>
      </trkpt>
      <trkpt lat="45.21659" lon="4.08403">
        <ele>616.34</ele>
        <time>2023-01-14T12:20:28Z</time>
      </trkpt>
      <trkpt lat="45.21649" lon="4.08419">
        <ele>621.15</ele>
        <time>2023-01-14T12:20:41Z</time>
      </trkpt>
      <trkpt lat="45.21649" lon="4.08419">
        <ele>621.15</ele>
        <time>2023-01-14T12:20:42Z</time>
      </trkpt>
      <trkpt lat="45.21643" lon="4.0843">
        <ele>621.63</ele>
        <time>2023-01-14T12:20:53Z</time>
      </trkpt>
      <trkpt lat="45.21627" lon="4.08443">
        <ele>621.15</ele>
        <time>2023-01-14T12:21:11Z</time>
      </trkpt>
      <trkpt lat="45.21601" lon="4.0846">
        <ele>620.67</ele>
        <time>2023-01-14T12:21:31Z</time>
      </trkpt>
      <trkpt lat="45.21576" lon="4.08474">
        <ele>618.26</ele>
        <time>2023-01-14T12:21:54Z</time>
      </trkpt>
      <trkpt lat="45.21553" lon="4.08473">
        <ele>619.23</ele>
        <time>2023-01-14T12:22:13Z</time>
      </trkpt>
      <trkpt lat="45.21532" lon="4.08474">
        <ele>621.15</ele>
        <time>2023-01-14T12:22:32Z</time>
      </trkpt>
      <trkpt lat="45.21515" lon="4.08457">
        <ele>618.75</ele>
        <time>2023-01-14T12:22:52Z</time>
      </trkpt>
      <trkpt lat="45.21511" lon="4.08448">
        <ele>618.26</ele>
        <time>2023-01-14T12:22:57Z</time>
      </trkpt>
      <trkpt lat="45.215" lon="4.08407">
        <ele>612.98</ele>
        <time>2023-01-14T12:23:20Z</time>
      </trkpt>
      <trkpt lat="45.21487" lon="4.08367">
        <ele>607.69</ele>
        <time>2023-01-14T12:23:41Z</time>
      </trkpt>
      <trkpt lat="45.21482" lon="4.08329">
        <ele>607.21</ele>
        <time>2023-01-14T12:23:59Z</time>
      </trkpt>
      <trkpt lat="45.21467" lon="4.08293">
        <ele>606.25</ele>
        <time>2023-01-14T12:24:20Z</time>
      </trkpt>
      <trkpt lat="45.21457" lon="4.08258">
        <ele>605.77</ele>
        <time>2023-01-14T12:24:40Z</time>
      </trkpt>
      <trkpt lat="45.2145" lon="4.08241">
        <ele>604.81</ele>
        <time>2023-01-14T12:24:49Z</time>
      </trkpt>
      <trkpt lat="45.21448" lon="4.08232">
        <ele>604.81</ele>
        <time>2023-01-14T12:24:53Z</time>
      </trkpt>
      <trkpt lat="45.21439" lon="4.08192">
        <ele>604.81</ele>
        <time>2023-01-14T12:25:15Z</time>
      </trkpt>
      <trkpt lat="45.21435" lon="4.0818">
        <ele>607.69</ele>
        <time>2023-01-14T12:25:22Z</time>
      </trkpt>
      <trkpt lat="45.2143" lon="4.0816">
        <ele>607.21</ele>
        <time>2023-01-14T12:25:33Z</time>
      </trkpt>
      <trkpt lat="45.2142" lon="4.08126">
        <ele>606.73</ele>
        <time>2023-01-14T12:25:52Z</time>
      </trkpt>
      <trkpt lat="45.21406" lon="4.08091">
        <ele>604.81</ele>
        <time>2023-01-14T12:26:12Z</time>
      </trkpt>
      <trkpt lat="45.21387" lon="4.08063">
        <ele>603.36</ele>
        <time>2023-01-14T12:26:30Z</time>
      </trkpt>
      <trkpt lat="45.21362" lon="4.08029">
        <ele>602.4</ele>
        <time>2023-01-14T12:26:51Z</time>
      </trkpt>
      <trkpt lat="45.21341" lon="4.08">
        <ele>600</ele>
        <time>2023-01-14T12:27:10Z</time>
      </trkpt>
      <trkpt lat="45.21321" lon="4.07971">
        <ele>599.04</ele>
        <time>2023-01-14T12:27:29Z</time>
      </trkpt>
      <trkpt lat="45.21311" lon="4.07935">
        <ele>599.52</ele>
        <time>2023-01-14T12:27:50Z</time>
      </trkpt>
      <trkpt lat="45.21307" lon="4.07898">
        <ele>598.56</ele>
        <time>2023-01-14T12:28:10Z</time>
      </trkpt>
      <trkpt lat="45.21307" lon="4.07896">
        <ele>599.04</ele>
        <time>2023-01-14T12:28:11Z</time>
      </trkpt>
      <trkpt lat="45.21304" lon="4.07887">
        <ele>599.52</ele>
        <time>2023-01-14T12:28:16Z</time>
      </trkpt>
      <trkpt lat="45.21287" lon="4.07863">
        <ele>598.08</ele>
        <time>2023-01-14T12:28:36Z</time>
      </trkpt>
      <trkpt lat="45.21276" lon="4.07846">
        <ele>595.19</ele>
        <time>2023-01-14T12:28:49Z</time>
      </trkpt>
      <trkpt lat="45.21265" lon="4.07829">
        <ele>592.31</ele>
        <time>2023-01-14T12:28:58Z</time>
      </trkpt>
      <trkpt lat="45.21256" lon="4.07812">
        <ele>592.79</ele>
        <time>2023-01-14T12:29:07Z</time>
      </trkpt>
      <trkpt lat="45.21248" lon="4.07805">
        <ele>592.79</ele>
        <time>2023-01-14T12:29:17Z</time>
      </trkpt>
      <trkpt lat="45.21243" lon="4.07795">
        <ele>589.91</ele>
        <time>2023-01-14T12:29:25Z</time>
      </trkpt>
      <trkpt lat="45.21242" lon="4.07794">
        <ele>588.95</ele>
        <time>2023-01-14T12:29:28Z</time>
      </trkpt>
      <trkpt lat="45.21228" lon="4.07774">
        <ele>587.5</ele>
        <time>2023-01-14T12:29:40Z</time>
      </trkpt>
      <trkpt lat="45.21224" lon="4.07762">
        <ele>587.5</ele>
        <time>2023-01-14T12:29:51Z</time>
      </trkpt>
      <trkpt lat="45.21217" lon="4.07749">
        <ele>586.54</ele>
        <time>2023-01-14T12:30:00Z</time>
      </trkpt>
      <trkpt lat="45.21211" lon="4.07738">
        <ele>583.66</ele>
        <time>2023-01-14T12:30:10Z</time>
      </trkpt>
      <trkpt lat="45.2121" lon="4.07727">
        <ele>583.18</ele>
        <time>2023-01-14T12:30:20Z</time>
      </trkpt>
      <trkpt lat="45.21213" lon="4.07701">
        <ele>580.77</ele>
        <time>2023-01-14T12:30:29Z</time>
      </trkpt>
      <trkpt lat="45.21214" lon="4.07697">
        <ele>579.33</ele>
        <time>2023-01-14T12:30:33Z</time>
      </trkpt>
      <trkpt lat="45.21218" lon="4.07676">
        <ele>575.49</ele>
        <time>2023-01-14T12:30:44Z</time>
      </trkpt>
      <trkpt lat="45.21222" lon="4.07658">
        <ele>572.6</ele>
        <time>2023-01-14T12:30:54Z</time>
      </trkpt>
      <trkpt lat="45.21227" lon="4.07643">
        <ele>569.72</ele>
        <time>2023-01-14T12:31:04Z</time>
      </trkpt>
      <trkpt lat="45.21232" lon="4.07608">
        <ele>567.32</ele>
        <time>2023-01-14T12:31:23Z</time>
      </trkpt>
      <trkpt lat="45.2123" lon="4.07585">
        <ele>562.99</ele>
        <time>2023-01-14T12:31:40Z</time>
      </trkpt>
      <trkpt lat="45.2124" lon="4.0755">
        <ele>557.22</ele>
        <time>2023-01-14T12:32:01Z</time>
      </trkpt>
      <trkpt lat="45.2124" lon="4.07544">
        <ele>556.26</ele>
        <time>2023-01-14T12:32:05Z</time>
      </trkpt>
      <trkpt lat="45.21252" lon="4.07511">
        <ele>546.17</ele>
        <time>2023-01-14T12:32:27Z</time>
      </trkpt>
      <trkpt lat="45.21263" lon="4.07478">
        <ele>538.48</ele>
        <time>2023-01-14T12:32:48Z</time>
      </trkpt>
      <trkpt lat="45.21258" lon="4.07449">
        <ele>534.63</ele>
        <time>2023-01-14T12:33:08Z</time>
      </trkpt>
      <trkpt lat="45.21282" lon="4.07448">
        <ele>531.27</ele>
        <time>2023-01-14T12:33:29Z</time>
      </trkpt>
      <trkpt lat="45.21295" lon="4.07426">
        <ele>527.42</ele>
        <time>2023-01-14T12:33:50Z</time>
      </trkpt>
      <trkpt lat="45.21315" lon="4.07391">
        <ele>525.98</ele>
        <time>2023-01-14T12:34:15Z</time>
      </trkpt>
      <trkpt lat="45.21329" lon="4.07366">
        <ele>525.5</ele>
        <time>2023-01-14T12:34:37Z</time>
      </trkpt>
      <trkpt lat="45.21353" lon="4.07348">
        <ele>513.48</ele>
        <time>2023-01-14T12:35:02Z</time>
      </trkpt>
      <trkpt lat="45.21372" lon="4.07325">
        <ele>506.27</ele>
        <time>2023-01-14T12:35:25Z</time>
      </trkpt>
      <trkpt lat="45.21361" lon="4.07305">
        <ele>504.83</ele>
        <time>2023-01-14T12:35:45Z</time>
      </trkpt>
      <trkpt lat="45.21355" lon="4.07294">
        <ele>505.31</ele>
        <time>2023-01-14T12:35:52Z</time>
      </trkpt>
      <trkpt lat="45.21347" lon="4.07269">
        <ele>504.35</ele>
        <time>2023-01-14T12:36:15Z</time>
      </trkpt>
      <trkpt lat="45.21333" lon="4.07242">
        <ele>503.39</ele>
        <time>2023-01-14T12:36:33Z</time>
      </trkpt>
      <trkpt lat="45.21336" lon="4.07211">
        <ele>505.79</ele>
        <time>2023-01-14T12:36:49Z</time>
      </trkpt>
      <trkpt lat="45.21335" lon="4.07208">
        <ele>502.91</ele>
        <time>2023-01-14T12:36:58Z</time>
      </trkpt>
      <trkpt lat="45.21341" lon="4.07205">
        <ele>501.46</ele>
        <time>2023-01-14T12:37:08Z</time>
      </trkpt>
      <trkpt lat="45.21348" lon="4.07202">
        <ele>500.02</ele>
        <time>2023-01-14T12:37:15Z</time>
      </trkpt>
      <trkpt lat="45.21363" lon="4.07207">
        <ele>497.62</ele>
        <time>2023-01-14T12:37:29Z</time>
      </trkpt>
      <trkpt lat="45.21376" lon="4.07214">
        <ele>497.62</ele>
        <time>2023-01-14T12:37:44Z</time>
      </trkpt>
      <trkpt lat="45.21396" lon="4.07223">
        <ele>499.06</ele>
        <time>2023-01-14T12:38:01Z</time>
      </trkpt>
      <trkpt lat="45.21414" lon="4.07252">
        <ele>499.06</ele>
        <time>2023-01-14T12:38:20Z</time>
      </trkpt>
      <trkpt lat="45.21429" lon="4.07264">
        <ele>500.98</ele>
        <time>2023-01-14T12:38:35Z</time>
      </trkpt>
      <trkpt lat="45.21434" lon="4.07262">
        <ele>502.43</ele>
        <time>2023-01-14T12:38:55Z</time>
      </trkpt>
      <trkpt lat="45.2144" lon="4.07247">
        <ele>503.87</ele>
        <time>2023-01-14T12:39:13Z</time>
      </trkpt>
      <trkpt lat="45.21439" lon="4.07245">
        <ele>504.83</ele>
        <time>2023-01-14T12:39:31Z</time>
      </trkpt>
      <trkpt lat="45.2144" lon="4.07247">
        <ele>503.87</ele>
        <time>2023-01-14T12:39:55Z</time>
      </trkpt>
      <trkpt lat="45.21439" lon="4.07249">
        <ele>503.39</ele>
        <time>2023-01-14T12:40:15Z</time>
      </trkpt>
      <trkpt lat="45.21439" lon="4.07248">
        <ele>503.87</ele>
        <time>2023-01-14T12:40:37Z</time>
      </trkpt>
      <trkpt lat="45.21439" lon="4.07248">
        <ele>503.87</ele>
        <time>2023-01-14T12:40:57Z</time>
      </trkpt>
      <trkpt lat="45.21441" lon="4.07239">
        <ele>505.31</ele>
        <time>2023-01-14T12:41:20Z</time>
      </trkpt>
      <trkpt lat="45.21447" lon="4.07226">
        <ele>507.23</ele>
        <time>2023-01-14T12:41:41Z</time>
      </trkpt>
      <trkpt lat="45.21452" lon="4.07219">
        <ele>506.27</ele>
        <time>2023-01-14T12:41:59Z</time>
      </trkpt>
      <trkpt lat="45.21462" lon="4.07201">
        <ele>508.19</ele>
        <time>2023-01-14T12:42:21Z</time>
      </trkpt>
      <trkpt lat="45.21467" lon="4.07163">
        <ele>511.56</ele>
        <time>2023-01-14T12:42:41Z</time>
      </trkpt>
      <trkpt lat="45.21468" lon="4.07149">
        <ele>512.52</ele>
        <time>2023-01-14T12:43:01Z</time>
      </trkpt>
      <trkpt lat="45.21472" lon="4.07131">
        <ele>514.92</ele>
        <time>2023-01-14T12:43:20Z</time>
      </trkpt>
      <trkpt lat="45.21473" lon="4.071">
        <ele>517.33</ele>
        <time>2023-01-14T12:43:40Z</time>
      </trkpt>
      <trkpt lat="45.21465" lon="4.07076">
        <ele>524.54</ele>
        <time>2023-01-14T12:44:00Z</time>
      </trkpt>
      <trkpt lat="45.21455" lon="4.0705">
        <ele>530.79</ele>
        <time>2023-01-14T12:44:24Z</time>
      </trkpt>
      <trkpt lat="45.21455" lon="4.07025">
        <ele>533.19</ele>
        <time>2023-01-14T12:44:37Z</time>
      </trkpt>
      <trkpt lat="45.21459" lon="4.07002">
        <ele>536.55</ele>
        <time>2023-01-14T12:45:00Z</time>
      </trkpt>
      <trkpt lat="45.21465" lon="4.06981">
        <ele>541.36</ele>
        <time>2023-01-14T12:45:20Z</time>
      </trkpt>
      <trkpt lat="45.21468" lon="4.06976">
        <ele>541.36</ele>
        <time>2023-01-14T12:45:25Z</time>
      </trkpt>
      <trkpt lat="45.21484" lon="4.06955">
        <ele>533.67</ele>
        <time>2023-01-14T12:45:46Z</time>
      </trkpt>
      <trkpt lat="45.21503" lon="4.06925">
        <ele>541.84</ele>
        <time>2023-01-14T12:46:10Z</time>
      </trkpt>
      <trkpt lat="45.21511" lon="4.06914">
        <ele>554.34</ele>
        <time>2023-01-14T12:46:31Z</time>
      </trkpt>
      <trkpt lat="45.21521" lon="4.06896">
        <ele>562.03</ele>
        <time>2023-01-14T12:46:50Z</time>
      </trkpt>
      <trkpt lat="45.21535" lon="4.06871">
        <ele>567.32</ele>
        <time>2023-01-14T12:47:10Z</time>
      </trkpt>
      <trkpt lat="45.2154" lon="4.06857">
        <ele>573.56</ele>
        <time>2023-01-14T12:47:30Z</time>
      </trkpt>
      <trkpt lat="45.21536" lon="4.06829">
        <ele>578.85</ele>
        <time>2023-01-14T12:47:51Z</time>
      </trkpt>
      <trkpt lat="45.21515" lon="4.06827">
        <ele>582.22</ele>
        <time>2023-01-14T12:48:08Z</time>
      </trkpt>
      <trkpt lat="45.21513" lon="4.06827">
        <ele>582.7</ele>
        <time>2023-01-14T12:48:10Z</time>
      </trkpt>
      <trkpt lat="45.21504" lon="4.06823">
        <ele>584.62</ele>
        <time>2023-01-14T12:48:19Z</time>
      </trkpt>
      <trkpt lat="45.21496" lon="4.06801">
        <ele>586.54</ele>
        <time>2023-01-14T12:48:35Z</time>
      </trkpt>
      <trkpt lat="45.21494" lon="4.06795">
        <ele>585.58</ele>
        <time>2023-01-14T12:48:51Z</time>
      </trkpt>
      <trkpt lat="45.21487" lon="4.06777">
        <ele>587.02</ele>
        <time>2023-01-14T12:49:09Z</time>
      </trkpt>
      <trkpt lat="45.21481" lon="4.06751">
        <ele>587.98</ele>
        <time>2023-01-14T12:49:23Z</time>
      </trkpt>
      <trkpt lat="45.21479" lon="4.06747">
        <ele>587.98</ele>
        <time>2023-01-14T12:49:25Z</time>
      </trkpt>
      <trkpt lat="45.21476" lon="4.06734">
        <ele>588.46</ele>
        <time>2023-01-14T12:49:32Z</time>
      </trkpt>
      <trkpt lat="45.21461" lon="4.06701">
        <ele>590.39</ele>
        <time>2023-01-14T12:49:50Z</time>
      </trkpt>
      <trkpt lat="45.21448" lon="4.06669">
        <ele>592.79</ele>
        <time>2023-01-14T12:50:07Z</time>
      </trkpt>
      <trkpt lat="45.21437" lon="4.0664">
        <ele>595.19</ele>
        <time>2023-01-14T12:50:22Z</time>
      </trkpt>
      <trkpt lat="45.21427" lon="4.06616">
        <ele>597.12</ele>
        <time>2023-01-14T12:50:37Z</time>
      </trkpt>
      <trkpt lat="45.21418" lon="4.06592">
        <ele>600</ele>
        <time>2023-01-14T12:50:53Z</time>
      </trkpt>
      <trkpt lat="45.21404" lon="4.06573">
        <ele>602.4</ele>
        <time>2023-01-14T12:51:11Z</time>
      </trkpt>
      <trkpt lat="45.214" lon="4.06583">
        <ele>602.88</ele>
        <time>2023-01-14T12:51:26Z</time>
      </trkpt>
      <trkpt lat="45.21401" lon="4.06584">
        <ele>604.33</ele>
        <time>2023-01-14T12:51:50Z</time>
      </trkpt>
      <trkpt lat="45.21402" lon="4.06584">
        <ele>604.81</ele>
        <time>2023-01-14T12:52:16Z</time>
      </trkpt>
      <trkpt lat="45.21401" lon="4.06584">
        <ele>604.81</ele>
        <time>2023-01-14T12:52:45Z</time>
      </trkpt>
      <trkpt lat="45.21398" lon="4.06584">
        <ele>605.77</ele>
        <time>2023-01-14T12:53:16Z</time>
      </trkpt>
      <trkpt lat="45.21402" lon="4.06581">
        <ele>605.77</ele>
        <time>2023-01-14T12:53:34Z</time>
      </trkpt>
      <trkpt lat="45.21409" lon="4.06579">
        <ele>605.29</ele>
        <time>2023-01-14T12:53:57Z</time>
      </trkpt>
      <trkpt lat="45.21408" lon="4.06583">
        <ele>603.36</ele>
        <time>2023-01-14T12:54:23Z</time>
      </trkpt>
      <trkpt lat="45.21413" lon="4.06582">
        <ele>603.85</ele>
        <time>2023-01-14T12:54:46Z</time>
      </trkpt>
      <trkpt lat="45.2141" lon="4.06582">
        <ele>604.81</ele>
        <time>2023-01-14T12:55:08Z</time>
      </trkpt>
      <trkpt lat="45.21409" lon="4.06581">
        <ele>604.33</ele>
        <time>2023-01-14T12:55:35Z</time>
      </trkpt>
      <trkpt lat="45.21405" lon="4.06582">
        <ele>605.77</ele>
        <time>2023-01-14T12:56:01Z</time>
      </trkpt>
      <trkpt lat="45.21402" lon="4.06583">
        <ele>605.77</ele>
        <time>2023-01-14T12:56:29Z</time>
      </trkpt>
      <trkpt lat="45.21398" lon="4.06586">
        <ele>606.25</ele>
        <time>2023-01-14T12:56:56Z</time>
      </trkpt>
      <trkpt lat="45.21399" lon="4.06583">
        <ele>606.25</ele>
        <time>2023-01-14T12:57:23Z</time>
      </trkpt>
      <trkpt lat="45.21399" lon="4.06584">
        <ele>606.25</ele>
        <time>2023-01-14T12:57:51Z</time>
      </trkpt>
      <trkpt lat="45.21402" lon="4.06584">
        <ele>605.29</ele>
        <time>2023-01-14T12:58:21Z</time>
      </trkpt>
      <trkpt lat="45.21404" lon="4.06582">
        <ele>604.33</ele>
        <time>2023-01-14T12:58:49Z</time>
      </trkpt>
      <trkpt lat="45.21398" lon="4.06588">
        <ele>603.36</ele>
        <time>2023-01-14T12:59:15Z</time>
      </trkpt>
      <trkpt lat="45.21397" lon="4.06589">
        <ele>604.33</ele>
        <time>2023-01-14T12:59:41Z</time>
      </trkpt>
      <trkpt lat="45.214" lon="4.06583">
        <ele>605.29</ele>
        <time>2023-01-14T13:00:06Z</time>
      </trkpt>
      <trkpt lat="45.21402" lon="4.06579">
        <ele>604.81</ele>
        <time>2023-01-14T13:00:26Z</time>
      </trkpt>
      <trkpt lat="45.21407" lon="4.06571">
        <ele>604.81</ele>
        <time>2023-01-14T13:00:44Z</time>
      </trkpt>
      <trkpt lat="45.21403" lon="4.06559">
        <ele>603.85</ele>
        <time>2023-01-14T13:00:57Z</time>
      </trkpt>
      <trkpt lat="45.21395" lon="4.06545">
        <ele>603.36</ele>
        <time>2023-01-14T13:01:10Z</time>
      </trkpt>
      <trkpt lat="45.21384" lon="4.06547">
        <ele>606.25</ele>
        <time>2023-01-14T13:01:14Z</time>
      </trkpt>
      <trkpt lat="45.21374" lon="4.06542">
        <ele>608.17</ele>
        <time>2023-01-14T13:01:26Z</time>
      </trkpt>
      <trkpt lat="45.21369" lon="4.0654">
        <ele>609.13</ele>
        <time>2023-01-14T13:01:45Z</time>
      </trkpt>
      <trkpt lat="45.2138" lon="4.06547">
        <ele>609.13</ele>
        <time>2023-01-14T13:02:02Z</time>
      </trkpt>
      <trkpt lat="45.21392" lon="4.06544">
        <ele>607.21</ele>
        <time>2023-01-14T13:02:19Z</time>
      </trkpt>
      <trkpt lat="45.21401" lon="4.06535">
        <ele>605.29</ele>
        <time>2023-01-14T13:02:35Z</time>
      </trkpt>
      <trkpt lat="45.21403" lon="4.06532">
        <ele>604.81</ele>
        <time>2023-01-14T13:02:54Z</time>
      </trkpt>
      <trkpt lat="45.21408" lon="4.06518">
        <ele>603.85</ele>
        <time>2023-01-14T13:03:16Z</time>
      </trkpt>
      <trkpt lat="45.21406" lon="4.06516">
        <ele>602.4</ele>
        <time>2023-01-14T13:03:37Z</time>
      </trkpt>
      <trkpt lat="45.21388" lon="4.06501">
        <ele>598.08</ele>
        <time>2023-01-14T13:03:56Z</time>
      </trkpt>
      <trkpt lat="45.21369" lon="4.06494">
        <ele>588.95</ele>
        <time>2023-01-14T13:04:14Z</time>
      </trkpt>
      <trkpt lat="45.21356" lon="4.06488">
        <ele>585.1</ele>
        <time>2023-01-14T13:04:31Z</time>
      </trkpt>
      <trkpt lat="45.21342" lon="4.06483">
        <ele>582.22</ele>
        <time>2023-01-14T13:04:50Z</time>
      </trkpt>
      <trkpt lat="45.21325" lon="4.06475">
        <ele>578.85</ele>
        <time>2023-01-14T13:05:08Z</time>
      </trkpt>
      <trkpt lat="45.21308" lon="4.06463">
        <ele>574.53</ele>
        <time>2023-01-14T13:05:27Z</time>
      </trkpt>
      <trkpt lat="45.21299" lon="4.06446">
        <ele>571.16</ele>
        <time>2023-01-14T13:05:46Z</time>
      </trkpt>
      <trkpt lat="45.21289" lon="4.06419">
        <ele>569.24</ele>
        <time>2023-01-14T13:06:03Z</time>
      </trkpt>
      <trkpt lat="45.21272" lon="4.06394">
        <ele>564.91</ele>
        <time>2023-01-14T13:06:20Z</time>
      </trkpt>
      <trkpt lat="45.21249" lon="4.06376">
        <ele>559.14</ele>
        <time>2023-01-14T13:06:40Z</time>
      </trkpt>
      <trkpt lat="45.21229" lon="4.06356">
        <ele>555.78</ele>
        <time>2023-01-14T13:07:00Z</time>
      </trkpt>
      <trkpt lat="45.21225" lon="4.06353">
        <ele>554.82</ele>
        <time>2023-01-14T13:07:03Z</time>
      </trkpt>
      <trkpt lat="45.2121" lon="4.06333">
        <ele>550.49</ele>
        <time>2023-01-14T13:07:19Z</time>
      </trkpt>
      <trkpt lat="45.21196" lon="4.0632">
        <ele>545.69</ele>
        <time>2023-01-14T13:07:38Z</time>
      </trkpt>
      <trkpt lat="45.21174" lon="4.06302">
        <ele>542.8</ele>
        <time>2023-01-14T13:08:01Z</time>
      </trkpt>
      <trkpt lat="45.21165" lon="4.06291">
        <ele>540.88</ele>
        <time>2023-01-14T13:08:22Z</time>
      </trkpt>
      <trkpt lat="45.21143" lon="4.06285">
        <ele>534.63</ele>
        <time>2023-01-14T13:08:41Z</time>
      </trkpt>
      <trkpt lat="45.21125" lon="4.06262">
        <ele>530.3</ele>
        <time>2023-01-14T13:09:03Z</time>
      </trkpt>
      <trkpt lat="45.21134" lon="4.06229">
        <ele>530.79</ele>
        <time>2023-01-14T13:09:24Z</time>
      </trkpt>
      <trkpt lat="45.21144" lon="4.06211">
        <ele>531.75</ele>
        <time>2023-01-14T13:09:31Z</time>
      </trkpt>
      <trkpt lat="45.21141" lon="4.06175">
        <ele>533.67</ele>
        <time>2023-01-14T13:09:52Z</time>
      </trkpt>
      <trkpt lat="45.21144" lon="4.06164">
        <ele>535.59</ele>
        <time>2023-01-14T13:10:09Z</time>
      </trkpt>
      <trkpt lat="45.21146" lon="4.06159">
        <ele>536.55</ele>
        <time>2023-01-14T13:10:32Z</time>
      </trkpt>
      <trkpt lat="45.21147" lon="4.06156">
        <ele>537.03</ele>
        <time>2023-01-14T13:10:57Z</time>
      </trkpt>
      <trkpt lat="45.21145" lon="4.06155">
        <ele>537.03</ele>
        <time>2023-01-14T13:11:18Z</time>
      </trkpt>
      <trkpt lat="45.21145" lon="4.06152">
        <ele>537.51</ele>
        <time>2023-01-14T13:11:39Z</time>
      </trkpt>
      <trkpt lat="45.21143" lon="4.06154">
        <ele>536.55</ele>
        <time>2023-01-14T13:12:02Z</time>
      </trkpt>
      <trkpt lat="45.21139" lon="4.06156">
        <ele>534.63</ele>
        <time>2023-01-14T13:12:24Z</time>
      </trkpt>
      <trkpt lat="45.21138" lon="4.06153">
        <ele>534.63</ele>
        <time>2023-01-14T13:12:45Z</time>
      </trkpt>
      <trkpt lat="45.21137" lon="4.06157">
        <ele>534.15</ele>
        <time>2023-01-14T13:13:06Z</time>
      </trkpt>
      <trkpt lat="45.21138" lon="4.06157">
        <ele>534.15</ele>
        <time>2023-01-14T13:13:33Z</time>
      </trkpt>
      <trkpt lat="45.21142" lon="4.06159">
        <ele>534.63</ele>
        <time>2023-01-14T13:14:00Z</time>
      </trkpt>
      <trkpt lat="45.21141" lon="4.06156">
        <ele>535.59</ele>
        <time>2023-01-14T13:14:22Z</time>
      </trkpt>
      <trkpt lat="45.21138" lon="4.06144">
        <ele>533.67</ele>
        <time>2023-01-14T13:14:39Z</time>
      </trkpt>
      <trkpt lat="45.21135" lon="4.06125">
        <ele>531.27</ele>
        <time>2023-01-14T13:14:53Z</time>
      </trkpt>
      <trkpt lat="45.21135" lon="4.06122">
        <ele>530.3</ele>
        <time>2023-01-14T13:14:55Z</time>
      </trkpt>
      <trkpt lat="45.21132" lon="4.06104">
        <ele>528.38</ele>
        <time>2023-01-14T13:15:10Z</time>
      </trkpt>
      <trkpt lat="45.21132" lon="4.06103">
        <ele>528.38</ele>
        <time>2023-01-14T13:15:11Z</time>
      </trkpt>
      <trkpt lat="45.21125" lon="4.06073">
        <ele>526.94</ele>
        <time>2023-01-14T13:15:28Z</time>
      </trkpt>
      <trkpt lat="45.21117" lon="4.06047">
        <ele>526.46</ele>
        <time>2023-01-14T13:15:44Z</time>
      </trkpt>
      <trkpt lat="45.21115" lon="4.06009">
        <ele>526.94</ele>
        <time>2023-01-14T13:16:03Z</time>
      </trkpt>
      <trkpt lat="45.21111" lon="4.05973">
        <ele>525.98</ele>
        <time>2023-01-14T13:16:22Z</time>
      </trkpt>
      <trkpt lat="45.21109" lon="4.05943">
        <ele>526.94</ele>
        <time>2023-01-14T13:16:39Z</time>
      </trkpt>
      <trkpt lat="45.21108" lon="4.05909">
        <ele>525.5</ele>
        <time>2023-01-14T13:16:58Z</time>
      </trkpt>
      <trkpt lat="45.21107" lon="4.05879">
        <ele>524.06</ele>
        <time>2023-01-14T13:17:18Z</time>
      </trkpt>
      <trkpt lat="45.21111" lon="4.05855">
        <ele>523.58</ele>
        <time>2023-01-14T13:17:35Z</time>
      </trkpt>
      <trkpt lat="45.21117" lon="4.05823">
        <ele>520.21</ele>
        <time>2023-01-14T13:17:52Z</time>
      </trkpt>
      <trkpt lat="45.21119" lon="4.05792">
        <ele>520.21</ele>
        <time>2023-01-14T13:18:10Z</time>
      </trkpt>
      <trkpt lat="45.21118" lon="4.05762">
        <ele>520.69</ele>
        <time>2023-01-14T13:18:29Z</time>
      </trkpt>
      <trkpt lat="45.21114" lon="4.0573">
        <ele>520.21</ele>
        <time>2023-01-14T13:18:47Z</time>
      </trkpt>
      <trkpt lat="45.2111" lon="4.05712">
        <ele>518.29</ele>
        <time>2023-01-14T13:18:57Z</time>
      </trkpt>
      <trkpt lat="45.21107" lon="4.05681">
        <ele>518.77</ele>
        <time>2023-01-14T13:19:14Z</time>
      </trkpt>
      <trkpt lat="45.21105" lon="4.05686">
        <ele>518.29</ele>
        <time>2023-01-14T13:19:35Z</time>
      </trkpt>
      <trkpt lat="45.21101" lon="4.05669">
        <ele>516.37</ele>
        <time>2023-01-14T13:19:57Z</time>
      </trkpt>
      <trkpt lat="45.21108" lon="4.05663">
        <ele>515.4</ele>
        <time>2023-01-14T13:20:09Z</time>
      </trkpt>
      <trkpt lat="45.21133" lon="4.05637">
        <ele>519.73</ele>
        <time>2023-01-14T13:20:35Z</time>
      </trkpt>
      <trkpt lat="45.21142" lon="4.0562">
        <ele>526.46</ele>
        <time>2023-01-14T13:20:56Z</time>
      </trkpt>
      <trkpt lat="45.2115" lon="4.05599">
        <ele>527.42</ele>
        <time>2023-01-14T13:21:14Z</time>
      </trkpt>
      <trkpt lat="45.21156" lon="4.05588">
        <ele>528.38</ele>
        <time>2023-01-14T13:21:23Z</time>
      </trkpt>
      <trkpt lat="45.21167" lon="4.05565">
        <ele>532.23</ele>
        <time>2023-01-14T13:21:43Z</time>
      </trkpt>
      <trkpt lat="45.21169" lon="4.05561">
        <ele>532.71</ele>
        <time>2023-01-14T13:21:50Z</time>
      </trkpt>
      <trkpt lat="45.21173" lon="4.0555">
        <ele>534.15</ele>
        <time>2023-01-14T13:21:57Z</time>
      </trkpt>
      <trkpt lat="45.21182" lon="4.05519">
        <ele>538.48</ele>
        <time>2023-01-14T13:22:16Z</time>
      </trkpt>
      <trkpt lat="45.21186" lon="4.05495">
        <ele>541.84</ele>
        <time>2023-01-14T13:22:32Z</time>
      </trkpt>
      <trkpt lat="45.21189" lon="4.05463">
        <ele>541.84</ele>
        <time>2023-01-14T13:22:50Z</time>
      </trkpt>
      <trkpt lat="45.21193" lon="4.05439">
        <ele>542.8</ele>
        <time>2023-01-14T13:23:05Z</time>
      </trkpt>
      <trkpt lat="45.21196" lon="4.05411">
        <ele>541.84</ele>
        <time>2023-01-14T13:23:24Z</time>
      </trkpt>
      <trkpt lat="45.21196" lon="4.05378">
        <ele>541.36</ele>
        <time>2023-01-14T13:23:42Z</time>
      </trkpt>
      <trkpt lat="45.21193" lon="4.05347">
        <ele>539.92</ele>
        <time>2023-01-14T13:23:59Z</time>
      </trkpt>
      <trkpt lat="45.2119" lon="4.05321">
        <ele>541.36</ele>
        <time>2023-01-14T13:24:15Z</time>
      </trkpt>
      <trkpt lat="45.21193" lon="4.05318">
        <ele>541.36</ele>
        <time>2023-01-14T13:24:33Z</time>
      </trkpt>
      <trkpt lat="45.21194" lon="4.05312">
        <ele>542.32</ele>
        <time>2023-01-14T13:24:47Z</time>
      </trkpt>
      <trkpt lat="45.21193" lon="4.05306">
        <ele>543.28</ele>
        <time>2023-01-14T13:25:11Z</time>
      </trkpt>
      <trkpt lat="45.21191" lon="4.05285">
        <ele>543.76</ele>
        <time>2023-01-14T13:25:26Z</time>
      </trkpt>
      <trkpt lat="45.2119" lon="4.05274">
        <ele>543.28</ele>
        <time>2023-01-14T13:25:34Z</time>
      </trkpt>
      <trkpt lat="45.21188" lon="4.05251">
        <ele>543.28</ele>
        <time>2023-01-14T13:25:51Z</time>
      </trkpt>
      <trkpt lat="45.21186" lon="4.05233">
        <ele>541.36</ele>
        <time>2023-01-14T13:26:03Z</time>
      </trkpt>
      <trkpt lat="45.21188" lon="4.0521">
        <ele>541.36</ele>
        <time>2023-01-14T13:26:20Z</time>
      </trkpt>
      <trkpt lat="45.21189" lon="4.05177">
        <ele>541.84</ele>
        <time>2023-01-14T13:26:38Z</time>
      </trkpt>
      <trkpt lat="45.21189" lon="4.05149">
        <ele>540.88</ele>
        <time>2023-01-14T13:26:56Z</time>
      </trkpt>
      <trkpt lat="45.21186" lon="4.05119">
        <ele>541.36</ele>
        <time>2023-01-14T13:27:15Z</time>
      </trkpt>
      <trkpt lat="45.21168" lon="4.05086">
        <ele>539.44</ele>
        <time>2023-01-14T13:27:36Z</time>
      </trkpt>
      <trkpt lat="45.21157" lon="4.05061">
        <ele>535.59</ele>
        <time>2023-01-14T13:27:53Z</time>
      </trkpt>
      <trkpt lat="45.21156" lon="4.05049">
        <ele>534.63</ele>
        <time>2023-01-14T13:28:01Z</time>
      </trkpt>
      <trkpt lat="45.21151" lon="4.05016">
        <ele>533.67</ele>
        <time>2023-01-14T13:28:19Z</time>
      </trkpt>
      <trkpt lat="45.21143" lon="4.04976">
        <ele>530.79</ele>
        <time>2023-01-14T13:28:41Z</time>
      </trkpt>
      <trkpt lat="45.21138" lon="4.04944">
        <ele>529.82</ele>
        <time>2023-01-14T13:28:59Z</time>
      </trkpt>
      <trkpt lat="45.2113" lon="4.04905">
        <ele>530.3</ele>
        <time>2023-01-14T13:29:20Z</time>
      </trkpt>
      <trkpt lat="45.21123" lon="4.04865">
        <ele>529.34</ele>
        <time>2023-01-14T13:29:42Z</time>
      </trkpt>
      <trkpt lat="45.21122" lon="4.04852">
        <ele>528.86</ele>
        <time>2023-01-14T13:29:50Z</time>
      </trkpt>
      <trkpt lat="45.2112" lon="4.04843">
        <ele>527.9</ele>
        <time>2023-01-14T13:29:55Z</time>
      </trkpt>
      <trkpt lat="45.21115" lon="4.04818">
        <ele>526.94</ele>
        <time>2023-01-14T13:30:10Z</time>
      </trkpt>
      <trkpt lat="45.21105" lon="4.0479">
        <ele>526.94</ele>
        <time>2023-01-14T13:30:26Z</time>
      </trkpt>
      <trkpt lat="45.21098" lon="4.04768">
        <ele>525.5</ele>
        <time>2023-01-14T13:30:40Z</time>
      </trkpt>
      <trkpt lat="45.21098" lon="4.04765">
        <ele>525.5</ele>
        <time>2023-01-14T13:30:42Z</time>
      </trkpt>
      <trkpt lat="45.21094" lon="4.04748">
        <ele>524.06</ele>
        <time>2023-01-14T13:30:52Z</time>
      </trkpt>
      <trkpt lat="45.21094" lon="4.04745">
        <ele>524.06</ele>
        <time>2023-01-14T13:30:54Z</time>
      </trkpt>
      <trkpt lat="45.2109" lon="4.04722">
        <ele>522.61</ele>
        <time>2023-01-14T13:31:07Z</time>
      </trkpt>
      <trkpt lat="45.21088" lon="4.04697">
        <ele>520.21</ele>
        <time>2023-01-14T13:31:21Z</time>
      </trkpt>
      <trkpt lat="45.21083" lon="4.04677">
        <ele>520.21</ele>
        <time>2023-01-14T13:31:33Z</time>
      </trkpt>
      <trkpt lat="45.21079" lon="4.04668">
        <ele>519.25</ele>
        <time>2023-01-14T13:31:39Z</time>
      </trkpt>
      <trkpt lat="45.2107" lon="4.04649">
        <ele>518.29</ele>
        <time>2023-01-14T13:31:53Z</time>
      </trkpt>
      <trkpt lat="45.21072" lon="4.04647">
        <ele>518.29</ele>
        <time>2023-01-14T13:32:11Z</time>
      </trkpt>
      <trkpt lat="45.2107" lon="4.04646">
        <ele>518.77</ele>
        <time>2023-01-14T13:32:14Z</time>
      </trkpt>
      <trkpt lat="45.21055" lon="4.04637">
        <ele>518.29</ele>
        <time>2023-01-14T13:32:30Z</time>
      </trkpt>
      <trkpt lat="45.21034" lon="4.04628">
        <ele>517.81</ele>
        <time>2023-01-14T13:32:47Z</time>
      </trkpt>
      <trkpt lat="45.2102" lon="4.04611">
        <ele>517.81</ele>
        <time>2023-01-14T13:33:02Z</time>
      </trkpt>
      <trkpt lat="45.21014" lon="4.04605">
        <ele>517.81</ele>
        <time>2023-01-14T13:33:08Z</time>
      </trkpt>
      <trkpt lat="45.20998" lon="4.04596">
        <ele>517.33</ele>
        <time>2023-01-14T13:33:21Z</time>
      </trkpt>
      <trkpt lat="45.20985" lon="4.04595">
        <ele>515.88</ele>
        <time>2023-01-14T13:33:31Z</time>
      </trkpt>
      <trkpt lat="45.20958" lon="4.0459">
        <ele>515.88</ele>
        <time>2023-01-14T13:33:52Z</time>
      </trkpt>
      <trkpt lat="45.20937" lon="4.04581">
        <ele>517.33</ele>
        <time>2023-01-14T13:34:06Z</time>
      </trkpt>
      <trkpt lat="45.20915" lon="4.04585">
        <ele>518.77</ele>
        <time>2023-01-14T13:34:22Z</time>
      </trkpt>
      <trkpt lat="45.20899" lon="4.04591">
        <ele>519.73</ele>
        <time>2023-01-14T13:34:35Z</time>
      </trkpt>
      <trkpt lat="45.20891" lon="4.0459">
        <ele>519.73</ele>
        <time>2023-01-14T13:34:43Z</time>
      </trkpt>
      <trkpt lat="45.20872" lon="4.04572">
        <ele>520.69</ele>
        <time>2023-01-14T13:35:01Z</time>
      </trkpt>
      <trkpt lat="45.20846" lon="4.04574">
        <ele>515.4</ele>
        <time>2023-01-14T13:35:19Z</time>
      </trkpt>
      <trkpt lat="45.20822" lon="4.04581">
        <ele>512.04</ele>
        <time>2023-01-14T13:35:38Z</time>
      </trkpt>
      <trkpt lat="45.20813" lon="4.04588">
        <ele>510.6</ele>
        <time>2023-01-14T13:35:48Z</time>
      </trkpt>
      <trkpt lat="45.20787" lon="4.04602">
        <ele>508.19</ele>
        <time>2023-01-14T13:36:06Z</time>
      </trkpt>
      <trkpt lat="45.20765" lon="4.04611">
        <ele>505.79</ele>
        <time>2023-01-14T13:36:22Z</time>
      </trkpt>
      <trkpt lat="45.20742" lon="4.0462">
        <ele>503.87</ele>
        <time>2023-01-14T13:36:39Z</time>
      </trkpt>
      <trkpt lat="45.20722" lon="4.04627">
        <ele>503.39</ele>
        <time>2023-01-14T13:36:54Z</time>
      </trkpt>
      <trkpt lat="45.20697" lon="4.04637">
        <ele>501.95</ele>
        <time>2023-01-14T13:37:13Z</time>
      </trkpt>
      <trkpt lat="45.20676" lon="4.04646">
        <ele>500.98</ele>
        <time>2023-01-14T13:37:30Z</time>
      </trkpt>
      <trkpt lat="45.20656" lon="4.04658">
        <ele>499.06</ele>
        <time>2023-01-14T13:37:48Z</time>
      </trkpt>
      <trkpt lat="45.20646" lon="4.0466">
        <ele>498.58</ele>
        <time>2023-01-14T13:37:54Z</time>
      </trkpt>
      <trkpt lat="45.20618" lon="4.04668">
        <ele>500.5</ele>
        <time>2023-01-14T13:38:12Z</time>
      </trkpt>
      <trkpt lat="45.20596" lon="4.04676">
        <ele>500.02</ele>
        <time>2023-01-14T13:38:30Z</time>
      </trkpt>
      <trkpt lat="45.20593" lon="4.04678">
        <ele>499.54</ele>
        <time>2023-01-14T13:38:34Z</time>
      </trkpt>
      <trkpt lat="45.20569" lon="4.04682">
        <ele>502.43</ele>
        <time>2023-01-14T13:38:50Z</time>
      </trkpt>
      <trkpt lat="45.2055" lon="4.0469">
        <ele>504.83</ele>
        <time>2023-01-14T13:39:05Z</time>
      </trkpt>
      <trkpt lat="45.2052" lon="4.04699">
        <ele>506.75</ele>
        <time>2023-01-14T13:39:25Z</time>
      </trkpt>
      <trkpt lat="45.20504" lon="4.04704">
        <ele>509.16</ele>
        <time>2023-01-14T13:39:37Z</time>
      </trkpt>
      <trkpt lat="45.20475" lon="4.04706">
        <ele>511.08</ele>
        <time>2023-01-14T13:39:57Z</time>
      </trkpt>
      <trkpt lat="45.20455" lon="4.04708">
        <ele>510.6</ele>
        <time>2023-01-14T13:40:14Z</time>
      </trkpt>
      <trkpt lat="45.20435" lon="4.04709">
        <ele>513.96</ele>
        <time>2023-01-14T13:40:34Z</time>
      </trkpt>
      <trkpt lat="45.20425" lon="4.04711">
        <ele>515.4</ele>
        <time>2023-01-14T13:40:47Z</time>
      </trkpt>
      <trkpt lat="45.20418" lon="4.0472">
        <ele>513</ele>
        <time>2023-01-14T13:41:02Z</time>
      </trkpt>
      <trkpt lat="45.20406" lon="4.04732">
        <ele>512.52</ele>
        <time>2023-01-14T13:41:20Z</time>
      </trkpt>
      <trkpt lat="45.20383" lon="4.0473">
        <ele>512.52</ele>
        <time>2023-01-14T13:41:39Z</time>
      </trkpt>
      <trkpt lat="45.20378" lon="4.04732">
        <ele>511.56</ele>
        <time>2023-01-14T13:41:59Z</time>
      </trkpt>
      <trkpt lat="45.20376" lon="4.04738">
        <ele>511.08</ele>
        <time>2023-01-14T13:42:15Z</time>
      </trkpt>
      <trkpt lat="45.20364" lon="4.04743">
        <ele>509.16</ele>
        <time>2023-01-14T13:42:33Z</time>
      </trkpt>
      <trkpt lat="45.20326" lon="4.04743">
        <ele>506.27</ele>
        <time>2023-01-14T13:42:50Z</time>
      </trkpt>
      <trkpt lat="45.20321" lon="4.04742">
        <ele>505.79</ele>
        <time>2023-01-14T13:42:53Z</time>
      </trkpt>
      <trkpt lat="45.20297" lon="4.04737">
        <ele>505.31</ele>
        <time>2023-01-14T13:43:09Z</time>
      </trkpt>
      <trkpt lat="45.20269" lon="4.04731">
        <ele>505.31</ele>
        <time>2023-01-14T13:43:26Z</time>
      </trkpt>
      <trkpt lat="45.20241" lon="4.0472">
        <ele>504.83</ele>
        <time>2023-01-14T13:43:45Z</time>
      </trkpt>
      <trkpt lat="45.20215" lon="4.04704">
        <ele>505.31</ele>
        <time>2023-01-14T13:44:01Z</time>
      </trkpt>
      <trkpt lat="45.20201" lon="4.0471">
        <ele>505.31</ele>
        <time>2023-01-14T13:44:16Z</time>
      </trkpt>
      <trkpt lat="45.20188" lon="4.04705">
        <ele>503.87</ele>
        <time>2023-01-14T13:44:30Z</time>
      </trkpt>
      <trkpt lat="45.20179" lon="4.04689">
        <ele>502.91</ele>
        <time>2023-01-14T13:44:44Z</time>
      </trkpt>
      <trkpt lat="45.2015" lon="4.04679">
        <ele>504.35</ele>
        <time>2023-01-14T13:45:02Z</time>
      </trkpt>
      <trkpt lat="45.20133" lon="4.04674">
        <ele>504.35</ele>
        <time>2023-01-14T13:45:18Z</time>
      </trkpt>
      <trkpt lat="45.20118" lon="4.04658">
        <ele>505.79</ele>
        <time>2023-01-14T13:45:33Z</time>
      </trkpt>
      <trkpt lat="45.20115" lon="4.04654">
        <ele>505.79</ele>
        <time>2023-01-14T13:45:36Z</time>
      </trkpt>
      <trkpt lat="45.20107" lon="4.04648">
        <ele>505.79</ele>
        <time>2023-01-14T13:45:43Z</time>
      </trkpt>
      <trkpt lat="45.20095" lon="4.04633">
        <ele>506.75</ele>
        <time>2023-01-14T13:45:55Z</time>
      </trkpt>
      <trkpt lat="45.2008" lon="4.04614">
        <ele>509.64</ele>
        <time>2023-01-14T13:46:13Z</time>
      </trkpt>
      <trkpt lat="45.2007" lon="4.04594">
        <ele>510.6</ele>
        <time>2023-01-14T13:46:27Z</time>
      </trkpt>
      <trkpt lat="45.20068" lon="4.04589">
        <ele>511.08</ele>
        <time>2023-01-14T13:46:30Z</time>
      </trkpt>
      <trkpt lat="45.20042" lon="4.04572">
        <ele>511.08</ele>
        <time>2023-01-14T13:46:48Z</time>
      </trkpt>
      <trkpt lat="45.20025" lon="4.04554">
        <ele>506.27</ele>
        <time>2023-01-14T13:47:03Z</time>
      </trkpt>
      <trkpt lat="45.20023" lon="4.04555">
        <ele>505.79</ele>
        <time>2023-01-14T13:47:10Z</time>
      </trkpt>
      <trkpt lat="45.20001" lon="4.04567">
        <ele>505.79</ele>
        <time>2023-01-14T13:47:27Z</time>
      </trkpt>
      <trkpt lat="45.19985" lon="4.04578">
        <ele>504.83</ele>
        <time>2023-01-14T13:47:43Z</time>
      </trkpt>
      <trkpt lat="45.19963" lon="4.046">
        <ele>502.91</ele>
        <time>2023-01-14T13:48:03Z</time>
      </trkpt>
      <trkpt lat="45.19959" lon="4.04603">
        <ele>502.91</ele>
        <time>2023-01-14T13:48:07Z</time>
      </trkpt>
      <trkpt lat="45.19953" lon="4.04609">
        <ele>502.91</ele>
        <time>2023-01-14T13:48:12Z</time>
      </trkpt>
      <trkpt lat="45.19935" lon="4.04627">
        <ele>501.95</ele>
        <time>2023-01-14T13:48:28Z</time>
      </trkpt>
      <trkpt lat="45.19931" lon="4.04628">
        <ele>501.46</ele>
        <time>2023-01-14T13:48:32Z</time>
      </trkpt>
      <trkpt lat="45.19928" lon="4.04629">
        <ele>501.46</ele>
        <time>2023-01-14T13:48:34Z</time>
      </trkpt>
      <trkpt lat="45.19904" lon="4.04617">
        <ele>501.95</ele>
        <time>2023-01-14T13:48:53Z</time>
      </trkpt>
      <trkpt lat="45.19897" lon="4.04603">
        <ele>503.39</ele>
        <time>2023-01-14T13:48:59Z</time>
      </trkpt>
      <trkpt lat="45.19892" lon="4.0458">
        <ele>503.39</ele>
        <time>2023-01-14T13:49:14Z</time>
      </trkpt>
      <trkpt lat="45.19888" lon="4.04551">
        <ele>500.98</ele>
        <time>2023-01-14T13:49:30Z</time>
      </trkpt>
      <trkpt lat="45.19878" lon="4.04537">
        <ele>499.54</ele>
        <time>2023-01-14T13:49:40Z</time>
      </trkpt>
      <trkpt lat="45.19857" lon="4.04509">
        <ele>497.14</ele>
        <time>2023-01-14T13:49:58Z</time>
      </trkpt>
      <trkpt lat="45.1984" lon="4.04491">
        <ele>494.74</ele>
        <time>2023-01-14T13:50:13Z</time>
      </trkpt>
      <trkpt lat="45.1983" lon="4.04478">
        <ele>492.81</ele>
        <time>2023-01-14T13:50:24Z</time>
      </trkpt>
      <trkpt lat="45.19822" lon="4.0447">
        <ele>491.37</ele>
        <time>2023-01-14T13:50:39Z</time>
      </trkpt>
      <trkpt lat="45.19824" lon="4.04469">
        <ele>492.33</ele>
        <time>2023-01-14T13:50:58Z</time>
      </trkpt>
      <trkpt lat="45.19822" lon="4.04469">
        <ele>491.85</ele>
        <time>2023-01-14T13:51:20Z</time>
      </trkpt>
      <trkpt lat="45.19829" lon="4.04482">
        <ele>492.33</ele>
        <time>2023-01-14T13:51:34Z</time>
      </trkpt>
      <trkpt lat="45.19837" lon="4.04512">
        <ele>493.29</ele>
        <time>2023-01-14T13:51:56Z</time>
      </trkpt>
      <trkpt lat="45.19844" lon="4.04543">
        <ele>495.7</ele>
        <time>2023-01-14T13:52:19Z</time>
      </trkpt>
      <trkpt lat="45.19843" lon="4.04548">
        <ele>497.14</ele>
        <time>2023-01-14T13:52:21Z</time>
      </trkpt>
      <trkpt lat="45.19839" lon="4.04557">
        <ele>507.23</ele>
        <time>2023-01-14T13:52:32Z</time>
      </trkpt>
      <trkpt lat="45.19828" lon="4.04561">
        <ele>510.6</ele>
        <time>2023-01-14T13:52:45Z</time>
      </trkpt>
      <trkpt lat="45.19816" lon="4.04564">
        <ele>509.64</ele>
        <time>2023-01-14T13:52:56Z</time>
      </trkpt>
      <trkpt lat="45.19813" lon="4.04564">
        <ele>509.16</ele>
        <time>2023-01-14T13:53:00Z</time>
      </trkpt>
      <trkpt lat="45.198" lon="4.04569">
        <ele>509.64</ele>
        <time>2023-01-14T13:53:12Z</time>
      </trkpt>
      <trkpt lat="45.19782" lon="4.04577">
        <ele>513.48</ele>
        <time>2023-01-14T13:53:26Z</time>
      </trkpt>
      <trkpt lat="45.19765" lon="4.04588">
        <ele>516.37</ele>
        <time>2023-01-14T13:53:39Z</time>
      </trkpt>
      <trkpt lat="45.19741" lon="4.046">
        <ele>519.73</ele>
        <time>2023-01-14T13:53:58Z</time>
      </trkpt>
      <trkpt lat="45.19719" lon="4.04607">
        <ele>520.69</ele>
        <time>2023-01-14T13:54:16Z</time>
      </trkpt>
      <trkpt lat="45.19692" lon="4.04615">
        <ele>519.25</ele>
        <time>2023-01-14T13:54:36Z</time>
      </trkpt>
      <trkpt lat="45.19666" lon="4.04624">
        <ele>519.73</ele>
        <time>2023-01-14T13:54:58Z</time>
      </trkpt>
      <trkpt lat="45.19632" lon="4.04638">
        <ele>522.13</ele>
        <time>2023-01-14T13:55:23Z</time>
      </trkpt>
      <trkpt lat="45.19609" lon="4.04653">
        <ele>524.06</ele>
        <time>2023-01-14T13:55:43Z</time>
      </trkpt>
      <trkpt lat="45.19585" lon="4.04679">
        <ele>525.5</ele>
        <time>2023-01-14T13:56:05Z</time>
      </trkpt>
      <trkpt lat="45.19573" lon="4.04689">
        <ele>524.06</ele>
        <time>2023-01-14T13:56:14Z</time>
      </trkpt>
      <trkpt lat="45.19558" lon="4.04705">
        <ele>525.98</ele>
        <time>2023-01-14T13:56:31Z</time>
      </trkpt>
      <trkpt lat="45.19537" lon="4.0472">
        <ele>525.5</ele>
        <time>2023-01-14T13:56:47Z</time>
      </trkpt>
      <trkpt lat="45.1951" lon="4.04737">
        <ele>521.65</ele>
        <time>2023-01-14T13:57:07Z</time>
      </trkpt>
      <trkpt lat="45.19482" lon="4.04742">
        <ele>521.17</ele>
        <time>2023-01-14T13:57:26Z</time>
      </trkpt>
      <trkpt lat="45.1946" lon="4.04755">
        <ele>528.86</ele>
        <time>2023-01-14T13:57:45Z</time>
      </trkpt>
      <trkpt lat="45.19434" lon="4.04757">
        <ele>529.34</ele>
        <time>2023-01-14T13:58:03Z</time>
      </trkpt>
      <trkpt lat="45.19408" lon="4.04755">
        <ele>530.79</ele>
        <time>2023-01-14T13:58:21Z</time>
      </trkpt>
      <trkpt lat="45.19383" lon="4.04759">
        <ele>533.67</ele>
        <time>2023-01-14T13:58:38Z</time>
      </trkpt>
      <trkpt lat="45.1936" lon="4.04753">
        <ele>534.63</ele>
        <time>2023-01-14T13:58:56Z</time>
      </trkpt>
      <trkpt lat="45.19338" lon="4.04746">
        <ele>534.15</ele>
        <time>2023-01-14T13:59:13Z</time>
      </trkpt>
      <trkpt lat="45.19311" lon="4.04738">
        <ele>536.55</ele>
        <time>2023-01-14T13:59:33Z</time>
      </trkpt>
      <trkpt lat="45.19295" lon="4.04729">
        <ele>537.99</ele>
        <time>2023-01-14T13:59:47Z</time>
      </trkpt>
      <trkpt lat="45.19275" lon="4.04718">
        <ele>541.84</ele>
        <time>2023-01-14T14:00:04Z</time>
      </trkpt>
      <trkpt lat="45.19251" lon="4.04714">
        <ele>544.72</ele>
        <time>2023-01-14T14:00:20Z</time>
      </trkpt>
      <trkpt lat="45.19226" lon="4.04712">
        <ele>550.49</ele>
        <time>2023-01-14T14:00:41Z</time>
      </trkpt>
      <trkpt lat="45.19198" lon="4.04719">
        <ele>554.34</ele>
        <time>2023-01-14T14:01:01Z</time>
      </trkpt>
      <trkpt lat="45.19175" lon="4.04727">
        <ele>556.26</ele>
        <time>2023-01-14T14:01:17Z</time>
      </trkpt>
      <trkpt lat="45.19152" lon="4.04734">
        <ele>558.18</ele>
        <time>2023-01-14T14:01:35Z</time>
      </trkpt>
      <trkpt lat="45.19131" lon="4.04741">
        <ele>558.66</ele>
        <time>2023-01-14T14:01:50Z</time>
      </trkpt>
      <trkpt lat="45.19108" lon="4.04743">
        <ele>559.14</ele>
        <time>2023-01-14T14:02:10Z</time>
      </trkpt>
      <trkpt lat="45.19082" lon="4.0474">
        <ele>560.11</ele>
        <time>2023-01-14T14:02:26Z</time>
      </trkpt>
      <trkpt lat="45.19049" lon="4.04745">
        <ele>559.62</ele>
        <time>2023-01-14T14:02:45Z</time>
      </trkpt>
      <trkpt lat="45.19039" lon="4.04754">
        <ele>560.11</ele>
        <time>2023-01-14T14:02:54Z</time>
      </trkpt>
      <trkpt lat="45.19026" lon="4.04773">
        <ele>555.3</ele>
        <time>2023-01-14T14:03:09Z</time>
      </trkpt>
      <trkpt lat="45.1901" lon="4.04785">
        <ele>550.49</ele>
        <time>2023-01-14T14:03:25Z</time>
      </trkpt>
      <trkpt lat="45.18987" lon="4.04797">
        <ele>550.97</ele>
        <time>2023-01-14T14:03:42Z</time>
      </trkpt>
      <trkpt lat="45.18983" lon="4.04799">
        <ele>551.93</ele>
        <time>2023-01-14T14:03:45Z</time>
      </trkpt>
      <trkpt lat="45.18959" lon="4.04813">
        <ele>551.93</ele>
        <time>2023-01-14T14:04:03Z</time>
      </trkpt>
      <trkpt lat="45.18928" lon="4.04806">
        <ele>555.78</ele>
        <time>2023-01-14T14:04:22Z</time>
      </trkpt>
      <trkpt lat="45.18906" lon="4.04791">
        <ele>558.66</ele>
        <time>2023-01-14T14:04:42Z</time>
      </trkpt>
      <trkpt lat="45.18902" lon="4.04788">
        <ele>557.22</ele>
        <time>2023-01-14T14:04:46Z</time>
      </trkpt>
      <trkpt lat="45.18881" lon="4.04775">
        <ele>554.34</ele>
        <time>2023-01-14T14:05:04Z</time>
      </trkpt>
      <trkpt lat="45.18854" lon="4.04762">
        <ele>556.74</ele>
        <time>2023-01-14T14:05:24Z</time>
      </trkpt>
      <trkpt lat="45.18837" lon="4.04766">
        <ele>559.14</ele>
        <time>2023-01-14T14:05:42Z</time>
      </trkpt>
      <trkpt lat="45.18815" lon="4.04772">
        <ele>564.91</ele>
        <time>2023-01-14T14:06:00Z</time>
      </trkpt>
      <trkpt lat="45.188" lon="4.04768">
        <ele>571.16</ele>
        <time>2023-01-14T14:06:17Z</time>
      </trkpt>
      <trkpt lat="45.18774" lon="4.04765">
        <ele>574.04</ele>
        <time>2023-01-14T14:06:34Z</time>
      </trkpt>
      <trkpt lat="45.18764" lon="4.04764">
        <ele>574.53</ele>
        <time>2023-01-14T14:06:59Z</time>
      </trkpt>
      <trkpt lat="45.18782" lon="4.04791">
        <ele>576.93</ele>
        <time>2023-01-14T14:07:18Z</time>
      </trkpt>
      <trkpt lat="45.18786" lon="4.04795">
        <ele>577.41</ele>
        <time>2023-01-14T14:07:21Z</time>
      </trkpt>
      <trkpt lat="45.18798" lon="4.04823">
        <ele>582.7</ele>
        <time>2023-01-14T14:07:41Z</time>
      </trkpt>
      <trkpt lat="45.18801" lon="4.04851">
        <ele>589.43</ele>
        <time>2023-01-14T14:08:00Z</time>
      </trkpt>
      <trkpt lat="45.1879" lon="4.04871">
        <ele>593.75</ele>
        <time>2023-01-14T14:08:16Z</time>
      </trkpt>
      <trkpt lat="45.18773" lon="4.04895">
        <ele>595.19</ele>
        <time>2023-01-14T14:08:34Z</time>
      </trkpt>
      <trkpt lat="45.18771" lon="4.04917">
        <ele>595.19</ele>
        <time>2023-01-14T14:08:49Z</time>
      </trkpt>
      <trkpt lat="45.18776" lon="4.04932">
        <ele>596.64</ele>
        <time>2023-01-14T14:08:58Z</time>
      </trkpt>
      <trkpt lat="45.18796" lon="4.04947">
        <ele>598.08</ele>
        <time>2023-01-14T14:09:16Z</time>
      </trkpt>
      <trkpt lat="45.18815" lon="4.04961">
        <ele>600.48</ele>
        <time>2023-01-14T14:09:33Z</time>
      </trkpt>
      <trkpt lat="45.18816" lon="4.04965">
        <ele>600.96</ele>
        <time>2023-01-14T14:09:36Z</time>
      </trkpt>
      <trkpt lat="45.18806" lon="4.0498">
        <ele>604.33</ele>
        <time>2023-01-14T14:09:51Z</time>
      </trkpt>
      <trkpt lat="45.18785" lon="4.04984">
        <ele>607.21</ele>
        <time>2023-01-14T14:10:09Z</time>
      </trkpt>
      <trkpt lat="45.18782" lon="4.04984">
        <ele>607.69</ele>
        <time>2023-01-14T14:10:11Z</time>
      </trkpt>
      <trkpt lat="45.18763" lon="4.04995">
        <ele>610.09</ele>
        <time>2023-01-14T14:10:30Z</time>
      </trkpt>
      <trkpt lat="45.18743" lon="4.05002">
        <ele>612.02</ele>
        <time>2023-01-14T14:10:48Z</time>
      </trkpt>
      <trkpt lat="45.18721" lon="4.05008">
        <ele>613.46</ele>
        <time>2023-01-14T14:11:06Z</time>
      </trkpt>
      <trkpt lat="45.1871" lon="4.05014">
        <ele>614.42</ele>
        <time>2023-01-14T14:11:21Z</time>
      </trkpt>
      <trkpt lat="45.18691" lon="4.05018">
        <ele>616.82</ele>
        <time>2023-01-14T14:11:37Z</time>
      </trkpt>
      <trkpt lat="45.18673" lon="4.05032">
        <ele>621.63</ele>
        <time>2023-01-14T14:11:57Z</time>
      </trkpt>
      <trkpt lat="45.18673" lon="4.05033">
        <ele>621.63</ele>
        <time>2023-01-14T14:11:58Z</time>
      </trkpt>
      <trkpt lat="45.18686" lon="4.05053">
        <ele>623.07</ele>
        <time>2023-01-14T14:12:16Z</time>
      </trkpt>
      <trkpt lat="45.18698" lon="4.05079">
        <ele>624.03</ele>
        <time>2023-01-14T14:12:34Z</time>
      </trkpt>
      <trkpt lat="45.18706" lon="4.05101">
        <ele>624.99</ele>
        <time>2023-01-14T14:12:50Z</time>
      </trkpt>
      <trkpt lat="45.18708" lon="4.05107">
        <ele>625.47</ele>
        <time>2023-01-14T14:13:10Z</time>
      </trkpt>
      <trkpt lat="45.18708" lon="4.0511">
        <ele>629.8</ele>
        <time>2023-01-14T14:13:21Z</time>
      </trkpt>
      <trkpt lat="45.18709" lon="4.0511">
        <ele>630.28</ele>
        <time>2023-01-14T14:13:34Z</time>
      </trkpt>
      <trkpt lat="45.18713" lon="4.05115">
        <ele>629.32</ele>
        <time>2023-01-14T14:13:49Z</time>
      </trkpt>
      <trkpt lat="45.18715" lon="4.05116">
        <ele>630.28</ele>
        <time>2023-01-14T14:14:06Z</time>
      </trkpt>
      <trkpt lat="45.18716" lon="4.05114">
        <ele>630.28</ele>
        <time>2023-01-14T14:14:23Z</time>
      </trkpt>
      <trkpt lat="45.18716" lon="4.05112">
        <ele>629.8</ele>
        <time>2023-01-14T14:14:40Z</time>
      </trkpt>
      <trkpt lat="45.18719" lon="4.05118">
        <ele>629.32</ele>
        <time>2023-01-14T14:15:00Z</time>
      </trkpt>
      <trkpt lat="45.18723" lon="4.0512">
        <ele>630.28</ele>
        <time>2023-01-14T14:15:24Z</time>
      </trkpt>
      <trkpt lat="45.18723" lon="4.0512">
        <ele>629.8</ele>
        <time>2023-01-14T14:15:44Z</time>
      </trkpt>
      <trkpt lat="45.18723" lon="4.05112">
        <ele>628.84</ele>
        <time>2023-01-14T14:16:03Z</time>
      </trkpt>
      <trkpt lat="45.18722" lon="4.05112">
        <ele>628.84</ele>
        <time>2023-01-14T14:16:25Z</time>
      </trkpt>
      <trkpt lat="45.18721" lon="4.05113">
        <ele>628.84</ele>
        <time>2023-01-14T14:16:47Z</time>
      </trkpt>
      <trkpt lat="45.18721" lon="4.05114">
        <ele>628.36</ele>
        <time>2023-01-14T14:17:05Z</time>
      </trkpt>
      <trkpt lat="45.18722" lon="4.05116">
        <ele>627.88</ele>
        <time>2023-01-14T14:17:29Z</time>
      </trkpt>
      <trkpt lat="45.1873" lon="4.0512">
        <ele>628.36</ele>
        <time>2023-01-14T14:17:48Z</time>
      </trkpt>
      <trkpt lat="45.18736" lon="4.05128">
        <ele>627.88</ele>
        <time>2023-01-14T14:18:09Z</time>
      </trkpt>
      <trkpt lat="45.18752" lon="4.05136">
        <ele>627.4</ele>
        <time>2023-01-14T14:18:28Z</time>
      </trkpt>
      <trkpt lat="45.18766" lon="4.05148">
        <ele>625.96</ele>
        <time>2023-01-14T14:18:46Z</time>
      </trkpt>
      <trkpt lat="45.18773" lon="4.05159">
        <ele>623.07</ele>
        <time>2023-01-14T14:18:54Z</time>
      </trkpt>
      <trkpt lat="45.18779" lon="4.05182">
        <ele>619.23</ele>
        <time>2023-01-14T14:19:08Z</time>
      </trkpt>
      <trkpt lat="45.18787" lon="4.05208">
        <ele>614.42</ele>
        <time>2023-01-14T14:19:26Z</time>
      </trkpt>
      <trkpt lat="45.18798" lon="4.05235">
        <ele>613.46</ele>
        <time>2023-01-14T14:19:41Z</time>
      </trkpt>
      <trkpt lat="45.18812" lon="4.05256">
        <ele>613.46</ele>
        <time>2023-01-14T14:19:57Z</time>
      </trkpt>
      <trkpt lat="45.18831" lon="4.05281">
        <ele>613.94</ele>
        <time>2023-01-14T14:20:16Z</time>
      </trkpt>
      <trkpt lat="45.18845" lon="4.05295">
        <ele>612.5</ele>
        <time>2023-01-14T14:20:30Z</time>
      </trkpt>
      <trkpt lat="45.18863" lon="4.05317">
        <ele>612.5</ele>
        <time>2023-01-14T14:20:47Z</time>
      </trkpt>
      <trkpt lat="45.1888" lon="4.05335">
        <ele>613.46</ele>
        <time>2023-01-14T14:21:02Z</time>
      </trkpt>
      <trkpt lat="45.18897" lon="4.05354">
        <ele>612.5</ele>
        <time>2023-01-14T14:21:18Z</time>
      </trkpt>
      <trkpt lat="45.18916" lon="4.05363">
        <ele>613.94</ele>
        <time>2023-01-14T14:21:36Z</time>
      </trkpt>
      <trkpt lat="45.18938" lon="4.05366">
        <ele>614.42</ele>
        <time>2023-01-14T14:21:53Z</time>
      </trkpt>
      <trkpt lat="45.18957" lon="4.05369">
        <ele>618.26</ele>
        <time>2023-01-14T14:22:08Z</time>
      </trkpt>
      <trkpt lat="45.18971" lon="4.05372">
        <ele>623.07</ele>
        <time>2023-01-14T14:22:19Z</time>
      </trkpt>
      <trkpt lat="45.18975" lon="4.05374">
        <ele>623.07</ele>
        <time>2023-01-14T14:22:23Z</time>
      </trkpt>
      <trkpt lat="45.18983" lon="4.05375">
        <ele>622.59</ele>
        <time>2023-01-14T14:22:38Z</time>
      </trkpt>
      <trkpt lat="45.18982" lon="4.05374">
        <ele>622.11</ele>
        <time>2023-01-14T14:22:56Z</time>
      </trkpt>
      <trkpt lat="45.18981" lon="4.05373">
        <ele>622.11</ele>
        <time>2023-01-14T14:23:17Z</time>
      </trkpt>
      <trkpt lat="45.18981" lon="4.05373">
        <ele>621.63</ele>
        <time>2023-01-14T14:23:36Z</time>
      </trkpt>
      <trkpt lat="45.1898" lon="4.05371">
        <ele>621.15</ele>
        <time>2023-01-14T14:23:52Z</time>
      </trkpt>
      <trkpt lat="45.18986" lon="4.05374">
        <ele>619.71</ele>
        <time>2023-01-14T14:24:09Z</time>
      </trkpt>
      <trkpt lat="45.19002" lon="4.05394">
        <ele>619.23</ele>
        <time>2023-01-14T14:24:27Z</time>
      </trkpt>
      <trkpt lat="45.19016" lon="4.05424">
        <ele>619.71</ele>
        <time>2023-01-14T14:24:48Z</time>
      </trkpt>
      <trkpt lat="45.19026" lon="4.05447">
        <ele>623.55</ele>
        <time>2023-01-14T14:25:04Z</time>
      </trkpt>
      <trkpt lat="45.19035" lon="4.05459">
        <ele>626.44</ele>
        <time>2023-01-14T14:25:13Z</time>
      </trkpt>
      <trkpt lat="45.19047" lon="4.05475">
        <ele>626.92</ele>
        <time>2023-01-14T14:25:26Z</time>
      </trkpt>
      <trkpt lat="45.19057" lon="4.05491">
        <ele>630.28</ele>
        <time>2023-01-14T14:25:40Z</time>
      </trkpt>
      <trkpt lat="45.19078" lon="4.05517">
        <ele>630.28</ele>
        <time>2023-01-14T14:26:00Z</time>
      </trkpt>
      <trkpt lat="45.19096" lon="4.05545">
        <ele>627.88</ele>
        <time>2023-01-14T14:26:20Z</time>
      </trkpt>
      <trkpt lat="45.19114" lon="4.05569">
        <ele>624.51</ele>
        <time>2023-01-14T14:26:40Z</time>
      </trkpt>
      <trkpt lat="45.19126" lon="4.05583">
        <ele>623.07</ele>
        <time>2023-01-14T14:26:51Z</time>
      </trkpt>
      <trkpt lat="45.19126" lon="4.05584">
        <ele>623.07</ele>
        <time>2023-01-14T14:26:52Z</time>
      </trkpt>
      <trkpt lat="45.19136" lon="4.05604">
        <ele>623.07</ele>
        <time>2023-01-14T14:27:07Z</time>
      </trkpt>
      <trkpt lat="45.19152" lon="4.0561">
        <ele>623.55</ele>
        <time>2023-01-14T14:27:20Z</time>
      </trkpt>
      <trkpt lat="45.1916" lon="4.05609">
        <ele>624.03</ele>
        <time>2023-01-14T14:27:27Z</time>
      </trkpt>
      <trkpt lat="45.19166" lon="4.05611">
        <ele>624.99</ele>
        <time>2023-01-14T14:27:38Z</time>
      </trkpt>
      <trkpt lat="45.19165" lon="4.05614">
        <ele>624.51</ele>
        <time>2023-01-14T14:27:42Z</time>
      </trkpt>
      <trkpt lat="45.19158" lon="4.05623">
        <ele>622.11</ele>
        <time>2023-01-14T14:27:54Z</time>
      </trkpt>
      <trkpt lat="45.1915" lon="4.0563">
        <ele>617.78</ele>
        <time>2023-01-14T14:28:03Z</time>
      </trkpt>
      <trkpt lat="45.1914" lon="4.0564">
        <ele>614.9</ele>
        <time>2023-01-14T14:28:14Z</time>
      </trkpt>
      <trkpt lat="45.19132" lon="4.05643">
        <ele>615.86</ele>
        <time>2023-01-14T14:28:27Z</time>
      </trkpt>
      <trkpt lat="45.19123" lon="4.05646">
        <ele>617.78</ele>
        <time>2023-01-14T14:28:36Z</time>
      </trkpt>
      <trkpt lat="45.19104" lon="4.05657">
        <ele>618.26</ele>
        <time>2023-01-14T14:28:56Z</time>
      </trkpt>
      <trkpt lat="45.19081" lon="4.05668">
        <ele>616.82</ele>
        <time>2023-01-14T14:29:12Z</time>
      </trkpt>
      <trkpt lat="45.19064" lon="4.05684">
        <ele>612.5</ele>
        <time>2023-01-14T14:29:32Z</time>
      </trkpt>
      <trkpt lat="45.19053" lon="4.05703">
        <ele>609.61</ele>
        <time>2023-01-14T14:29:55Z</time>
      </trkpt>
      <trkpt lat="45.19034" lon="4.05719">
        <ele>607.69</ele>
        <time>2023-01-14T14:30:10Z</time>
      </trkpt>
      <trkpt lat="45.19024" lon="4.05735">
        <ele>605.77</ele>
        <time>2023-01-14T14:30:20Z</time>
      </trkpt>
      <trkpt lat="45.19015" lon="4.05754">
        <ele>603.36</ele>
        <time>2023-01-14T14:30:34Z</time>
      </trkpt>
      <trkpt lat="45.1901" lon="4.05761">
        <ele>602.88</ele>
        <time>2023-01-14T14:30:41Z</time>
      </trkpt>
      <trkpt lat="45.19006" lon="4.05768">
        <ele>602.88</ele>
        <time>2023-01-14T14:30:46Z</time>
      </trkpt>
      <trkpt lat="45.18997" lon="4.05796">
        <ele>602.88</ele>
        <time>2023-01-14T14:31:02Z</time>
      </trkpt>
      <trkpt lat="45.18987" lon="4.05813">
        <ele>601.92</ele>
        <time>2023-01-14T14:31:15Z</time>
      </trkpt>
      <trkpt lat="45.18986" lon="4.05817">
        <ele>600.96</ele>
        <time>2023-01-14T14:31:18Z</time>
      </trkpt>
      <trkpt lat="45.1898" lon="4.05824">
        <ele>600</ele>
        <time>2023-01-14T14:31:24Z</time>
      </trkpt>
      <trkpt lat="45.18968" lon="4.05844">
        <ele>599.04</ele>
        <time>2023-01-14T14:31:40Z</time>
      </trkpt>
      <trkpt lat="45.18961" lon="4.05858">
        <ele>597.6</ele>
        <time>2023-01-14T14:31:57Z</time>
      </trkpt>
      <trkpt lat="45.1896" lon="4.05869">
        <ele>598.56</ele>
        <time>2023-01-14T14:32:12Z</time>
      </trkpt>
      <trkpt lat="45.18955" lon="4.05892">
        <ele>602.4</ele>
        <time>2023-01-14T14:32:27Z</time>
      </trkpt>
      <trkpt lat="45.18954" lon="4.05893">
        <ele>602.4</ele>
        <time>2023-01-14T14:32:28Z</time>
      </trkpt>
      <trkpt lat="45.18949" lon="4.05918">
        <ele>607.21</ele>
        <time>2023-01-14T14:32:47Z</time>
      </trkpt>
      <trkpt lat="45.18946" lon="4.05926">
        <ele>607.69</ele>
        <time>2023-01-14T14:32:52Z</time>
      </trkpt>
      <trkpt lat="45.18939" lon="4.05949">
        <ele>606.25</ele>
        <time>2023-01-14T14:33:07Z</time>
      </trkpt>
      <trkpt lat="45.18933" lon="4.05968">
        <ele>604.81</ele>
        <time>2023-01-14T14:33:21Z</time>
      </trkpt>
      <trkpt lat="45.1892" lon="4.05991">
        <ele>605.77</ele>
        <time>2023-01-14T14:33:39Z</time>
      </trkpt>
      <trkpt lat="45.18917" lon="4.05995">
        <ele>605.77</ele>
        <time>2023-01-14T14:33:42Z</time>
      </trkpt>
      <trkpt lat="45.18901" lon="4.0602">
        <ele>606.73</ele>
        <time>2023-01-14T14:33:58Z</time>
      </trkpt>
      <trkpt lat="45.18888" lon="4.06041">
        <ele>606.73</ele>
        <time>2023-01-14T14:34:12Z</time>
      </trkpt>
      <trkpt lat="45.18879" lon="4.06056">
        <ele>606.25</ele>
        <time>2023-01-14T14:34:24Z</time>
      </trkpt>
      <trkpt lat="45.18872" lon="4.06065">
        <ele>604.81</ele>
        <time>2023-01-14T14:34:33Z</time>
      </trkpt>
      <trkpt lat="45.1887" lon="4.06068">
        <ele>603.85</ele>
        <time>2023-01-14T14:34:36Z</time>
      </trkpt>
      <trkpt lat="45.18859" lon="4.0608">
        <ele>602.88</ele>
        <time>2023-01-14T14:34:49Z</time>
      </trkpt>
      <trkpt lat="45.18856" lon="4.06081">
        <ele>602.4</ele>
        <time>2023-01-14T14:35:07Z</time>
      </trkpt>
      <trkpt lat="45.18857" lon="4.06082">
        <ele>602.4</ele>
        <time>2023-01-14T14:35:31Z</time>
      </trkpt>
      <trkpt lat="45.18856" lon="4.06085">
        <ele>602.4</ele>
        <time>2023-01-14T14:35:55Z</time>
      </trkpt>
      <trkpt lat="45.18856" lon="4.06087">
        <ele>602.88</ele>
        <time>2023-01-14T14:36:12Z</time>
      </trkpt>
      <trkpt lat="45.18853" lon="4.06085">
        <ele>602.4</ele>
        <time>2023-01-14T14:36:31Z</time>
      </trkpt>
      <trkpt lat="45.1885" lon="4.06092">
        <ele>602.4</ele>
        <time>2023-01-14T14:36:47Z</time>
      </trkpt>
      <trkpt lat="45.18836" lon="4.06115">
        <ele>604.33</ele>
        <time>2023-01-14T14:37:07Z</time>
      </trkpt>
      <trkpt lat="45.18826" lon="4.06136">
        <ele>609.61</ele>
        <time>2023-01-14T14:37:28Z</time>
      </trkpt>
      <trkpt lat="45.18821" lon="4.0616">
        <ele>614.9</ele>
        <time>2023-01-14T14:37:49Z</time>
      </trkpt>
      <trkpt lat="45.18828" lon="4.06203">
        <ele>617.3</ele>
        <time>2023-01-14T14:38:17Z</time>
      </trkpt>
      <trkpt lat="45.18827" lon="4.06214">
        <ele>623.07</ele>
        <time>2023-01-14T14:38:37Z</time>
      </trkpt>
      <trkpt lat="45.18822" lon="4.06238">
        <ele>628.84</ele>
        <time>2023-01-14T14:38:58Z</time>
      </trkpt>
      <trkpt lat="45.18817" lon="4.06237">
        <ele>627.4</ele>
        <time>2023-01-14T14:39:05Z</time>
      </trkpt>
      <trkpt lat="45.18802" lon="4.06237">
        <ele>626.44</ele>
        <time>2023-01-14T14:39:21Z</time>
      </trkpt>
      <trkpt lat="45.18786" lon="4.06239">
        <ele>626.92</ele>
        <time>2023-01-14T14:39:35Z</time>
      </trkpt>
      <trkpt lat="45.18771" lon="4.06239">
        <ele>631.72</ele>
        <time>2023-01-14T14:39:46Z</time>
      </trkpt>
      <trkpt lat="45.18757" lon="4.06241">
        <ele>635.09</ele>
        <time>2023-01-14T14:39:59Z</time>
      </trkpt>
      <trkpt lat="45.18746" lon="4.0624">
        <ele>637.49</ele>
        <time>2023-01-14T14:40:12Z</time>
      </trkpt>
      <trkpt lat="45.18744" lon="4.0624">
        <ele>637.97</ele>
        <time>2023-01-14T14:40:16Z</time>
      </trkpt>
      <trkpt lat="45.18733" lon="4.06241">
        <ele>644.22</ele>
        <time>2023-01-14T14:40:31Z</time>
      </trkpt>
      <trkpt lat="45.18712" lon="4.06244">
        <ele>648.55</ele>
        <time>2023-01-14T14:40:47Z</time>
      </trkpt>
      <trkpt lat="45.18706" lon="4.06249">
        <ele>649.03</ele>
        <time>2023-01-14T14:40:54Z</time>
      </trkpt>
      <trkpt lat="45.18705" lon="4.06268">
        <ele>649.51</ele>
        <time>2023-01-14T14:41:07Z</time>
      </trkpt>
      <trkpt lat="45.18711" lon="4.06282">
        <ele>653.35</ele>
        <time>2023-01-14T14:41:20Z</time>
      </trkpt>
      <trkpt lat="45.18713" lon="4.06286">
        <ele>654.31</ele>
        <time>2023-01-14T14:41:23Z</time>
      </trkpt>
      <trkpt lat="45.1872" lon="4.06296">
        <ele>655.28</ele>
        <time>2023-01-14T14:41:31Z</time>
      </trkpt>
      <trkpt lat="45.1873" lon="4.0631">
        <ele>656.72</ele>
        <time>2023-01-14T14:41:41Z</time>
      </trkpt>
      <trkpt lat="45.18738" lon="4.06322">
        <ele>657.68</ele>
        <time>2023-01-14T14:41:51Z</time>
      </trkpt>
      <trkpt lat="45.18743" lon="4.06331">
        <ele>659.12</ele>
        <time>2023-01-14T14:41:57Z</time>
      </trkpt>
      <trkpt lat="45.1875" lon="4.06346">
        <ele>660.08</ele>
        <time>2023-01-14T14:42:08Z</time>
      </trkpt>
      <trkpt lat="45.18751" lon="4.06348">
        <ele>660.08</ele>
        <time>2023-01-14T14:42:09Z</time>
      </trkpt>
      <trkpt lat="45.18756" lon="4.06357">
        <ele>661.52</ele>
        <time>2023-01-14T14:42:18Z</time>
      </trkpt>
      <trkpt lat="45.1876" lon="4.06368">
        <ele>662.97</ele>
        <time>2023-01-14T14:42:27Z</time>
      </trkpt>
      <trkpt lat="45.1877" lon="4.06391">
        <ele>665.37</ele>
        <time>2023-01-14T14:42:42Z</time>
      </trkpt>
      <trkpt lat="45.18773" lon="4.06395">
        <ele>666.81</ele>
        <time>2023-01-14T14:42:47Z</time>
      </trkpt>
      <trkpt lat="45.18775" lon="4.0641">
        <ele>666.81</ele>
        <time>2023-01-14T14:42:59Z</time>
      </trkpt>
      <trkpt lat="45.18778" lon="4.06426">
        <ele>666.33</ele>
        <time>2023-01-14T14:43:08Z</time>
      </trkpt>
      <trkpt lat="45.18779" lon="4.06441">
        <ele>663.93</ele>
        <time>2023-01-14T14:43:17Z</time>
      </trkpt>
      <trkpt lat="45.18779" lon="4.06445">
        <ele>663.93</ele>
        <time>2023-01-14T14:43:20Z</time>
      </trkpt>
      <trkpt lat="45.18779" lon="4.06464">
        <ele>665.85</ele>
        <time>2023-01-14T14:43:32Z</time>
      </trkpt>
      <trkpt lat="45.18781" lon="4.06481">
        <ele>668.25</ele>
        <time>2023-01-14T14:43:43Z</time>
      </trkpt>
      <trkpt lat="45.18783" lon="4.06502">
        <ele>671.62</ele>
        <time>2023-01-14T14:43:53Z</time>
      </trkpt>
      <trkpt lat="45.18783" lon="4.06504">
        <ele>672.1</ele>
        <time>2023-01-14T14:43:56Z</time>
      </trkpt>
      <trkpt lat="45.18784" lon="4.0651">
        <ele>673.06</ele>
        <time>2023-01-14T14:43:59Z</time>
      </trkpt>
      <trkpt lat="45.18787" lon="4.06518">
        <ele>674.5</ele>
        <time>2023-01-14T14:44:04Z</time>
      </trkpt>
      <trkpt lat="45.18788" lon="4.06522">
        <ele>675.46</ele>
        <time>2023-01-14T14:44:07Z</time>
      </trkpt>
      <trkpt lat="45.18798" lon="4.06537">
        <ele>676.91</ele>
        <time>2023-01-14T14:44:20Z</time>
      </trkpt>
      <trkpt lat="45.18799" lon="4.06538">
        <ele>677.39</ele>
        <time>2023-01-14T14:44:22Z</time>
      </trkpt>
      <trkpt lat="45.1881" lon="4.06541">
        <ele>679.31</ele>
        <time>2023-01-14T14:44:32Z</time>
      </trkpt>
      <trkpt lat="45.18814" lon="4.06541">
        <ele>680.27</ele>
        <time>2023-01-14T14:44:43Z</time>
      </trkpt>
      <trkpt lat="45.18815" lon="4.06541">
        <ele>680.27</ele>
        <time>2023-01-14T14:44:47Z</time>
      </trkpt>
      <trkpt lat="45.18818" lon="4.0654">
        <ele>680.27</ele>
        <time>2023-01-14T14:44:57Z</time>
      </trkpt>
      <trkpt lat="45.1882" lon="4.06542">
        <ele>680.27</ele>
        <time>2023-01-14T14:45:01Z</time>
      </trkpt>
      <trkpt lat="45.18827" lon="4.06553">
        <ele>682.19</ele>
        <time>2023-01-14T14:45:11Z</time>
      </trkpt>
      <trkpt lat="45.18828" lon="4.06565">
        <ele>682.67</ele>
        <time>2023-01-14T14:45:20Z</time>
      </trkpt>
      <trkpt lat="45.18828" lon="4.0657">
        <ele>682.67</ele>
        <time>2023-01-14T14:45:24Z</time>
      </trkpt>
      <trkpt lat="45.18825" lon="4.06589">
        <ele>683.63</ele>
        <time>2023-01-14T14:45:34Z</time>
      </trkpt>
      <trkpt lat="45.18821" lon="4.06607">
        <ele>685.08</ele>
        <time>2023-01-14T14:45:45Z</time>
      </trkpt>
      <trkpt lat="45.18818" lon="4.06621">
        <ele>685.08</ele>
        <time>2023-01-14T14:45:54Z</time>
      </trkpt>
      <trkpt lat="45.18816" lon="4.06626">
        <ele>685.56</ele>
        <time>2023-01-14T14:45:58Z</time>
      </trkpt>
      <trkpt lat="45.18806" lon="4.06639">
        <ele>686.04</ele>
        <time>2023-01-14T14:46:09Z</time>
      </trkpt>
      <trkpt lat="45.18794" lon="4.06649">
        <ele>687.48</ele>
        <time>2023-01-14T14:46:19Z</time>
      </trkpt>
      <trkpt lat="45.18779" lon="4.0666">
        <ele>690.36</ele>
        <time>2023-01-14T14:46:30Z</time>
      </trkpt>
      <trkpt lat="45.18767" lon="4.06669">
        <ele>693.25</ele>
        <time>2023-01-14T14:46:41Z</time>
      </trkpt>
      <trkpt lat="45.18762" lon="4.06678">
        <ele>694.69</ele>
        <time>2023-01-14T14:46:49Z</time>
      </trkpt>
      <trkpt lat="45.18758" lon="4.06697">
        <ele>697.09</ele>
        <time>2023-01-14T14:46:58Z</time>
      </trkpt>
      <trkpt lat="45.18752" lon="4.06711">
        <ele>699.02</ele>
        <time>2023-01-14T14:47:08Z</time>
      </trkpt>
      <trkpt lat="45.18744" lon="4.06725">
        <ele>700.94</ele>
        <time>2023-01-14T14:47:18Z</time>
      </trkpt>
      <trkpt lat="45.18741" lon="4.06736">
        <ele>702.38</ele>
        <time>2023-01-14T14:47:27Z</time>
      </trkpt>
      <trkpt lat="45.18736" lon="4.06758">
        <ele>704.78</ele>
        <time>2023-01-14T14:47:38Z</time>
      </trkpt>
      <trkpt lat="45.18737" lon="4.06778">
        <ele>707.67</ele>
        <time>2023-01-14T14:47:49Z</time>
      </trkpt>
      <trkpt lat="45.18741" lon="4.06789">
        <ele>708.15</ele>
        <time>2023-01-14T14:47:59Z</time>
      </trkpt>
      <trkpt lat="45.18752" lon="4.06788">
        <ele>708.63</ele>
        <time>2023-01-14T14:48:11Z</time>
      </trkpt>
      <trkpt lat="45.18756" lon="4.06787">
        <ele>708.63</ele>
        <time>2023-01-14T14:48:14Z</time>
      </trkpt>
      <trkpt lat="45.18769" lon="4.06792">
        <ele>709.59</ele>
        <time>2023-01-14T14:48:24Z</time>
      </trkpt>
      <trkpt lat="45.18783" lon="4.06794">
        <ele>710.07</ele>
        <time>2023-01-14T14:48:34Z</time>
      </trkpt>
      <trkpt lat="45.18795" lon="4.068">
        <ele>710.55</ele>
        <time>2023-01-14T14:48:44Z</time>
      </trkpt>
      <trkpt lat="45.18801" lon="4.06813">
        <ele>711.99</ele>
        <time>2023-01-14T14:48:53Z</time>
      </trkpt>
      <trkpt lat="45.18806" lon="4.06826">
        <ele>712.47</ele>
        <time>2023-01-14T14:49:02Z</time>
      </trkpt>
      <trkpt lat="45.18816" lon="4.06839">
        <ele>714.4</ele>
        <time>2023-01-14T14:49:14Z</time>
      </trkpt>
      <trkpt lat="45.18818" lon="4.06842">
        <ele>714.88</ele>
        <time>2023-01-14T14:49:17Z</time>
      </trkpt>
      <trkpt lat="45.18827" lon="4.06854">
        <ele>716.8</ele>
        <time>2023-01-14T14:49:27Z</time>
      </trkpt>
      <trkpt lat="45.18831" lon="4.06867">
        <ele>718.24</ele>
        <time>2023-01-14T14:49:36Z</time>
      </trkpt>
      <trkpt lat="45.18834" lon="4.06883">
        <ele>720.16</ele>
        <time>2023-01-14T14:49:46Z</time>
      </trkpt>
      <trkpt lat="45.18833" lon="4.06899">
        <ele>719.68</ele>
        <time>2023-01-14T14:49:55Z</time>
      </trkpt>
      <trkpt lat="45.18833" lon="4.069">
        <ele>719.68</ele>
        <time>2023-01-14T14:49:56Z</time>
      </trkpt>
      <trkpt lat="45.18835" lon="4.06917">
        <ele>720.65</ele>
        <time>2023-01-14T14:50:08Z</time>
      </trkpt>
      <trkpt lat="45.18834" lon="4.06936">
        <ele>720.65</ele>
        <time>2023-01-14T14:50:19Z</time>
      </trkpt>
      <trkpt lat="45.1883" lon="4.06951">
        <ele>720.16</ele>
        <time>2023-01-14T14:50:28Z</time>
      </trkpt>
      <trkpt lat="45.18824" lon="4.06959">
        <ele>720.16</ele>
        <time>2023-01-14T14:50:37Z</time>
      </trkpt>
      <trkpt lat="45.18817" lon="4.06967">
        <ele>720.65</ele>
        <time>2023-01-14T14:50:45Z</time>
      </trkpt>
      <trkpt lat="45.18808" lon="4.06976">
        <ele>721.13</ele>
        <time>2023-01-14T14:50:56Z</time>
      </trkpt>
      <trkpt lat="45.18807" lon="4.06977">
        <ele>720.65</ele>
        <time>2023-01-14T14:50:58Z</time>
      </trkpt>
      <trkpt lat="45.18801" lon="4.06983">
        <ele>720.65</ele>
        <time>2023-01-14T14:51:11Z</time>
      </trkpt>
      <trkpt lat="45.18801" lon="4.06991">
        <ele>718.72</ele>
        <time>2023-01-14T14:51:31Z</time>
      </trkpt>
      <trkpt lat="45.18798" lon="4.0701">
        <ele>718.24</ele>
        <time>2023-01-14T14:51:51Z</time>
      </trkpt>
      <trkpt lat="45.18778" lon="4.07027">
        <ele>722.57</ele>
        <time>2023-01-14T14:52:12Z</time>
      </trkpt>
      <trkpt lat="45.18773" lon="4.0703">
        <ele>723.53</ele>
        <time>2023-01-14T14:52:17Z</time>
      </trkpt>
      <trkpt lat="45.18765" lon="4.07038">
        <ele>723.53</ele>
        <time>2023-01-14T14:52:26Z</time>
      </trkpt>
      <trkpt lat="45.18753" lon="4.0705">
        <ele>724.97</ele>
        <time>2023-01-14T14:52:43Z</time>
      </trkpt>
      <trkpt lat="45.18734" lon="4.07066">
        <ele>726.89</ele>
        <time>2023-01-14T14:53:02Z</time>
      </trkpt>
      <trkpt lat="45.18719" lon="4.0708">
        <ele>728.34</ele>
        <time>2023-01-14T14:53:17Z</time>
      </trkpt>
      <trkpt lat="45.18709" lon="4.07077">
        <ele>730.26</ele>
        <time>2023-01-14T14:53:33Z</time>
      </trkpt>
      <trkpt lat="45.18702" lon="4.07069">
        <ele>729.3</ele>
        <time>2023-01-14T14:53:48Z</time>
      </trkpt>
      <trkpt lat="45.18702" lon="4.07067">
        <ele>729.78</ele>
        <time>2023-01-14T14:54:01Z</time>
      </trkpt>
      <trkpt lat="45.18701" lon="4.07067">
        <ele>730.26</ele>
        <time>2023-01-14T14:54:38Z</time>
      </trkpt>
      <trkpt lat="45.187" lon="4.07072">
        <ele>731.22</ele>
        <time>2023-01-14T14:54:54Z</time>
      </trkpt>
      <trkpt lat="45.18701" lon="4.07071">
        <ele>731.7</ele>
        <time>2023-01-14T14:55:14Z</time>
      </trkpt>
      <trkpt lat="45.18701" lon="4.07069">
        <ele>732.18</ele>
        <time>2023-01-14T14:55:37Z</time>
      </trkpt>
      <trkpt lat="45.18702" lon="4.0707">
        <ele>733.62</ele>
        <time>2023-01-14T14:55:54Z</time>
      </trkpt>
      <trkpt lat="45.18701" lon="4.07072">
        <ele>733.14</ele>
        <time>2023-01-14T14:56:12Z</time>
      </trkpt>
      <trkpt lat="45.18702" lon="4.07073">
        <ele>733.14</ele>
        <time>2023-01-14T14:56:25Z</time>
      </trkpt>
      <trkpt lat="45.18703" lon="4.07071">
        <ele>731.7</ele>
        <time>2023-01-14T14:56:47Z</time>
      </trkpt>
      <trkpt lat="45.18703" lon="4.07073">
        <ele>730.74</ele>
        <time>2023-01-14T14:57:10Z</time>
      </trkpt>
      <trkpt lat="45.18708" lon="4.07085">
        <ele>729.78</ele>
        <time>2023-01-14T14:57:23Z</time>
      </trkpt>
      <trkpt lat="45.18701" lon="4.07093">
        <ele>729.78</ele>
        <time>2023-01-14T14:57:31Z</time>
      </trkpt>
      <trkpt lat="45.18693" lon="4.07102">
        <ele>729.78</ele>
        <time>2023-01-14T14:57:47Z</time>
      </trkpt>
      <trkpt lat="45.18692" lon="4.07102">
        <ele>729.78</ele>
        <time>2023-01-14T14:58:08Z</time>
      </trkpt>
      <trkpt lat="45.18691" lon="4.07103">
        <ele>729.78</ele>
        <time>2023-01-14T14:58:26Z</time>
      </trkpt>
      <trkpt lat="45.18689" lon="4.07111">
        <ele>731.7</ele>
        <time>2023-01-14T14:58:50Z</time>
      </trkpt>
      <trkpt lat="45.18677" lon="4.07125">
        <ele>734.58</ele>
        <time>2023-01-14T14:59:06Z</time>
      </trkpt>
      <trkpt lat="45.18674" lon="4.07128">
        <ele>734.58</ele>
        <time>2023-01-14T14:59:09Z</time>
      </trkpt>
      <trkpt lat="45.18667" lon="4.07141">
        <ele>735.55</ele>
        <time>2023-01-14T14:59:25Z</time>
      </trkpt>
      <trkpt lat="45.18648" lon="4.0716">
        <ele>738.43</ele>
        <time>2023-01-14T14:59:42Z</time>
      </trkpt>
      <trkpt lat="45.18635" lon="4.07174">
        <ele>738.43</ele>
        <time>2023-01-14T14:59:54Z</time>
      </trkpt>
      <trkpt lat="45.18625" lon="4.07186">
        <ele>738.43</ele>
        <time>2023-01-14T15:00:04Z</time>
      </trkpt>
      <trkpt lat="45.1862" lon="4.0719">
        <ele>737.95</ele>
        <time>2023-01-14T15:00:09Z</time>
      </trkpt>
      <trkpt lat="45.18607" lon="4.07201">
        <ele>737.47</ele>
        <time>2023-01-14T15:00:21Z</time>
      </trkpt>
      <trkpt lat="45.18606" lon="4.07202">
        <ele>737.47</ele>
        <time>2023-01-14T15:00:23Z</time>
      </trkpt>
      <trkpt lat="45.1859" lon="4.07217">
        <ele>736.51</ele>
        <time>2023-01-14T15:00:37Z</time>
      </trkpt>
      <trkpt lat="45.18571" lon="4.07235">
        <ele>735.55</ele>
        <time>2023-01-14T15:00:55Z</time>
      </trkpt>
      <trkpt lat="45.18546" lon="4.07251">
        <ele>734.1</ele>
        <time>2023-01-14T15:01:16Z</time>
      </trkpt>
      <trkpt lat="45.1853" lon="4.07264">
        <ele>733.62</ele>
        <time>2023-01-14T15:01:33Z</time>
      </trkpt>
      <trkpt lat="45.18517" lon="4.07278">
        <ele>733.14</ele>
        <time>2023-01-14T15:01:44Z</time>
      </trkpt>
      <trkpt lat="45.18505" lon="4.07289">
        <ele>734.58</ele>
        <time>2023-01-14T15:01:55Z</time>
      </trkpt>
      <trkpt lat="45.18494" lon="4.073">
        <ele>735.07</ele>
        <time>2023-01-14T15:02:05Z</time>
      </trkpt>
      <trkpt lat="45.18482" lon="4.07312">
        <ele>734.1</ele>
        <time>2023-01-14T15:02:15Z</time>
      </trkpt>
      <trkpt lat="45.1847" lon="4.07325">
        <ele>733.62</ele>
        <time>2023-01-14T15:02:26Z</time>
      </trkpt>
      <trkpt lat="45.18459" lon="4.07338">
        <ele>734.58</ele>
        <time>2023-01-14T15:02:37Z</time>
      </trkpt>
      <trkpt lat="45.18447" lon="4.07355">
        <ele>737.47</ele>
        <time>2023-01-14T15:02:48Z</time>
      </trkpt>
      <trkpt lat="45.18435" lon="4.0737">
        <ele>738.91</ele>
        <time>2023-01-14T15:02:59Z</time>
      </trkpt>
      <trkpt lat="45.18422" lon="4.07383">
        <ele>740.83</ele>
        <time>2023-01-14T15:03:11Z</time>
      </trkpt>
      <trkpt lat="45.18413" lon="4.07391">
        <ele>741.79</ele>
        <time>2023-01-14T15:03:20Z</time>
      </trkpt>
      <trkpt lat="45.18407" lon="4.07398">
        <ele>743.72</ele>
        <time>2023-01-14T15:03:27Z</time>
      </trkpt>
      <trkpt lat="45.18393" lon="4.07413">
        <ele>746.12</ele>
        <time>2023-01-14T15:03:40Z</time>
      </trkpt>
      <trkpt lat="45.18381" lon="4.07428">
        <ele>747.56</ele>
        <time>2023-01-14T15:03:51Z</time>
      </trkpt>
      <trkpt lat="45.18374" lon="4.07437">
        <ele>749.97</ele>
        <time>2023-01-14T15:04:01Z</time>
      </trkpt>
      <trkpt lat="45.18362" lon="4.07451">
        <ele>751.89</ele>
        <time>2023-01-14T15:04:11Z</time>
      </trkpt>
      <trkpt lat="45.18351" lon="4.0746">
        <ele>753.33</ele>
        <time>2023-01-14T15:04:21Z</time>
      </trkpt>
      <trkpt lat="45.1834" lon="4.07471">
        <ele>754.29</ele>
        <time>2023-01-14T15:04:32Z</time>
      </trkpt>
      <trkpt lat="45.18329" lon="4.07481">
        <ele>754.29</ele>
        <time>2023-01-14T15:04:42Z</time>
      </trkpt>
      <trkpt lat="45.18322" lon="4.07487">
        <ele>754.29</ele>
        <time>2023-01-14T15:04:50Z</time>
      </trkpt>
      <trkpt lat="45.1831" lon="4.07496">
        <ele>755.25</ele>
        <time>2023-01-14T15:05:02Z</time>
      </trkpt>
      <trkpt lat="45.183" lon="4.07506">
        <ele>755.73</ele>
        <time>2023-01-14T15:05:13Z</time>
      </trkpt>
      <trkpt lat="45.1829" lon="4.07516">
        <ele>756.69</ele>
        <time>2023-01-14T15:05:24Z</time>
      </trkpt>
      <trkpt lat="45.18277" lon="4.07532">
        <ele>758.14</ele>
        <time>2023-01-14T15:05:39Z</time>
      </trkpt>
      <trkpt lat="45.18255" lon="4.07558">
        <ele>759.58</ele>
        <time>2023-01-14T15:06:01Z</time>
      </trkpt>
      <trkpt lat="45.18241" lon="4.07582">
        <ele>761.98</ele>
        <time>2023-01-14T15:06:19Z</time>
      </trkpt>
      <trkpt lat="45.18228" lon="4.07608">
        <ele>761.98</ele>
        <time>2023-01-14T15:06:36Z</time>
      </trkpt>
      <trkpt lat="45.18206" lon="4.07632">
        <ele>762.46</ele>
        <time>2023-01-14T15:06:58Z</time>
      </trkpt>
      <trkpt lat="45.18191" lon="4.07652">
        <ele>763.42</ele>
        <time>2023-01-14T15:07:15Z</time>
      </trkpt>
      <trkpt lat="45.18175" lon="4.07676">
        <ele>765.83</ele>
        <time>2023-01-14T15:07:33Z</time>
      </trkpt>
      <trkpt lat="45.18172" lon="4.07689">
        <ele>768.23</ele>
        <time>2023-01-14T15:07:43Z</time>
      </trkpt>
      <trkpt lat="45.18165" lon="4.07716">
        <ele>771.6</ele>
        <time>2023-01-14T15:07:59Z</time>
      </trkpt>
      <trkpt lat="45.18155" lon="4.07742">
        <ele>776.4</ele>
        <time>2023-01-14T15:08:14Z</time>
      </trkpt>
      <trkpt lat="45.18145" lon="4.07755">
        <ele>776.4</ele>
        <time>2023-01-14T15:08:24Z</time>
      </trkpt>
      <trkpt lat="45.18135" lon="4.07767">
        <ele>777.36</ele>
        <time>2023-01-14T15:08:34Z</time>
      </trkpt>
      <trkpt lat="45.18125" lon="4.07776">
        <ele>776.88</ele>
        <time>2023-01-14T15:08:43Z</time>
      </trkpt>
      <trkpt lat="45.18115" lon="4.07786">
        <ele>775.44</ele>
        <time>2023-01-14T15:08:53Z</time>
      </trkpt>
      <trkpt lat="45.18103" lon="4.07802">
        <ele>775.92</ele>
        <time>2023-01-14T15:09:04Z</time>
      </trkpt>
      <trkpt lat="45.18094" lon="4.07812">
        <ele>775.92</ele>
        <time>2023-01-14T15:09:14Z</time>
      </trkpt>
      <trkpt lat="45.18083" lon="4.07827">
        <ele>775.44</ele>
        <time>2023-01-14T15:09:26Z</time>
      </trkpt>
      <trkpt lat="45.18073" lon="4.0784">
        <ele>774.96</ele>
        <time>2023-01-14T15:09:36Z</time>
      </trkpt>
      <trkpt lat="45.18063" lon="4.07855">
        <ele>774.48</ele>
        <time>2023-01-14T15:09:46Z</time>
      </trkpt>
      <trkpt lat="45.18059" lon="4.0786">
        <ele>774</ele>
        <time>2023-01-14T15:09:52Z</time>
      </trkpt>
      <trkpt lat="45.18048" lon="4.07877">
        <ele>774.48</ele>
        <time>2023-01-14T15:10:04Z</time>
      </trkpt>
      <trkpt lat="45.18039" lon="4.07888">
        <ele>775.92</ele>
        <time>2023-01-14T15:10:14Z</time>
      </trkpt>
      <trkpt lat="45.18027" lon="4.079">
        <ele>776.88</ele>
        <time>2023-01-14T15:10:26Z</time>
      </trkpt>
      <trkpt lat="45.18014" lon="4.07911">
        <ele>777.36</ele>
        <time>2023-01-14T15:10:38Z</time>
      </trkpt>
      <trkpt lat="45.18002" lon="4.07918">
        <ele>774.96</ele>
        <time>2023-01-14T15:10:49Z</time>
      </trkpt>
      <trkpt lat="45.18001" lon="4.07918">
        <ele>774.96</ele>
        <time>2023-01-14T15:10:51Z</time>
      </trkpt>
      <trkpt lat="45.17997" lon="4.0792">
        <ele>774.48</ele>
        <time>2023-01-14T15:10:56Z</time>
      </trkpt>
      <trkpt lat="45.17984" lon="4.07922">
        <ele>774.96</ele>
        <time>2023-01-14T15:11:07Z</time>
      </trkpt>
      <trkpt lat="45.17977" lon="4.07923">
        <ele>774.48</ele>
        <time>2023-01-14T15:11:21Z</time>
      </trkpt>
      <trkpt lat="45.1797" lon="4.07924">
        <ele>773.52</ele>
        <time>2023-01-14T15:11:36Z</time>
      </trkpt>
      <trkpt lat="45.17955" lon="4.07933">
        <ele>773.52</ele>
        <time>2023-01-14T15:11:51Z</time>
      </trkpt>
      <trkpt lat="45.17937" lon="4.0795">
        <ele>772.08</ele>
        <time>2023-01-14T15:12:11Z</time>
      </trkpt>
      <trkpt lat="45.17924" lon="4.07966">
        <ele>773.52</ele>
        <time>2023-01-14T15:12:27Z</time>
      </trkpt>
      <trkpt lat="45.17922" lon="4.07967">
        <ele>773.52</ele>
        <time>2023-01-14T15:12:29Z</time>
      </trkpt>
      <trkpt lat="45.17909" lon="4.0798">
        <ele>770.15</ele>
        <time>2023-01-14T15:12:42Z</time>
      </trkpt>
      <trkpt lat="45.17899" lon="4.07988">
        <ele>767.27</ele>
        <time>2023-01-14T15:12:52Z</time>
      </trkpt>
      <trkpt lat="45.17889" lon="4.07999">
        <ele>767.75</ele>
        <time>2023-01-14T15:13:02Z</time>
      </trkpt>
      <trkpt lat="45.17885" lon="4.08005">
        <ele>768.23</ele>
        <time>2023-01-14T15:13:07Z</time>
      </trkpt>
      <trkpt lat="45.17883" lon="4.0801">
        <ele>768.71</ele>
        <time>2023-01-14T15:13:11Z</time>
      </trkpt>
      <trkpt lat="45.17884" lon="4.08029">
        <ele>770.15</ele>
        <time>2023-01-14T15:13:23Z</time>
      </trkpt>
      <trkpt lat="45.17884" lon="4.08038">
        <ele>770.63</ele>
        <time>2023-01-14T15:13:29Z</time>
      </trkpt>
      <trkpt lat="45.17882" lon="4.08041">
        <ele>770.63</ele>
        <time>2023-01-14T15:13:32Z</time>
      </trkpt>
      <trkpt lat="45.17884" lon="4.08058">
        <ele>772.56</ele>
        <time>2023-01-14T15:13:43Z</time>
      </trkpt>
      <trkpt lat="45.17888" lon="4.08076">
        <ele>774.48</ele>
        <time>2023-01-14T15:13:54Z</time>
      </trkpt>
      <trkpt lat="45.1789" lon="4.08093">
        <ele>776.4</ele>
        <time>2023-01-14T15:14:03Z</time>
      </trkpt>
      <trkpt lat="45.17894" lon="4.08114">
        <ele>779.29</ele>
        <time>2023-01-14T15:14:16Z</time>
      </trkpt>
      <trkpt lat="45.17896" lon="4.08134">
        <ele>781.69</ele>
        <time>2023-01-14T15:14:27Z</time>
      </trkpt>
      <trkpt lat="45.17897" lon="4.08145">
        <ele>782.17</ele>
        <time>2023-01-14T15:14:35Z</time>
      </trkpt>
      <trkpt lat="45.17897" lon="4.08154">
        <ele>783.61</ele>
        <time>2023-01-14T15:14:41Z</time>
      </trkpt>
      <trkpt lat="45.17897" lon="4.0817">
        <ele>786.5</ele>
        <time>2023-01-14T15:14:50Z</time>
      </trkpt>
      <trkpt lat="45.17896" lon="4.08187">
        <ele>789.38</ele>
        <time>2023-01-14T15:15:01Z</time>
      </trkpt>
      <trkpt lat="45.17894" lon="4.08206">
        <ele>790.34</ele>
        <time>2023-01-14T15:15:11Z</time>
      </trkpt>
      <trkpt lat="45.17895" lon="4.08226">
        <ele>793.22</ele>
        <time>2023-01-14T15:15:21Z</time>
      </trkpt>
      <trkpt lat="45.17896" lon="4.0823">
        <ele>793.22</ele>
        <time>2023-01-14T15:15:24Z</time>
      </trkpt>
      <trkpt lat="45.17896" lon="4.08244">
        <ele>793.22</ele>
        <time>2023-01-14T15:15:33Z</time>
      </trkpt>
      <trkpt lat="45.17898" lon="4.08264">
        <ele>793.22</ele>
        <time>2023-01-14T15:15:44Z</time>
      </trkpt>
      <trkpt lat="45.17906" lon="4.08296">
        <ele>792.26</ele>
        <time>2023-01-14T15:16:03Z</time>
      </trkpt>
      <trkpt lat="45.1791" lon="4.08311">
        <ele>790.82</ele>
        <time>2023-01-14T15:16:10Z</time>
      </trkpt>
      <trkpt lat="45.17916" lon="4.08352">
        <ele>787.46</ele>
        <time>2023-01-14T15:16:29Z</time>
      </trkpt>
      <trkpt lat="45.17916" lon="4.08373">
        <ele>787.94</ele>
        <time>2023-01-14T15:16:40Z</time>
      </trkpt>
      <trkpt lat="45.17914" lon="4.08399">
        <ele>788.42</ele>
        <time>2023-01-14T15:16:52Z</time>
      </trkpt>
      <trkpt lat="45.17915" lon="4.08419">
        <ele>789.86</ele>
        <time>2023-01-14T15:17:03Z</time>
      </trkpt>
      <trkpt lat="45.17922" lon="4.08441">
        <ele>790.82</ele>
        <time>2023-01-14T15:17:16Z</time>
      </trkpt>
      <trkpt lat="45.17929" lon="4.08461">
        <ele>791.78</ele>
        <time>2023-01-14T15:17:27Z</time>
      </trkpt>
      <trkpt lat="45.17937" lon="4.08486">
        <ele>791.3</ele>
        <time>2023-01-14T15:17:42Z</time>
      </trkpt>
      <trkpt lat="45.17951" lon="4.08507">
        <ele>789.86</ele>
        <time>2023-01-14T15:17:57Z</time>
      </trkpt>
      <trkpt lat="45.17967" lon="4.08526">
        <ele>787.46</ele>
        <time>2023-01-14T15:18:14Z</time>
      </trkpt>
      <trkpt lat="45.17981" lon="4.08536">
        <ele>785.53</ele>
        <time>2023-01-14T15:18:25Z</time>
      </trkpt>
      <trkpt lat="45.18003" lon="4.08538">
        <ele>787.46</ele>
        <time>2023-01-14T15:18:41Z</time>
      </trkpt>
      <trkpt lat="45.18014" lon="4.08539">
        <ele>787.46</ele>
        <time>2023-01-14T15:18:50Z</time>
      </trkpt>
      <trkpt lat="45.18028" lon="4.08542">
        <ele>786.5</ele>
        <time>2023-01-14T15:19:01Z</time>
      </trkpt>
      <trkpt lat="45.18039" lon="4.08547">
        <ele>786.5</ele>
        <time>2023-01-14T15:19:10Z</time>
      </trkpt>
      <trkpt lat="45.18046" lon="4.08551">
        <ele>786.5</ele>
        <time>2023-01-14T15:19:15Z</time>
      </trkpt>
      <trkpt lat="45.18064" lon="4.08567">
        <ele>785.53</ele>
        <time>2023-01-14T15:19:29Z</time>
      </trkpt>
      <trkpt lat="45.18076" lon="4.08576">
        <ele>784.09</ele>
        <time>2023-01-14T15:19:41Z</time>
      </trkpt>
      <trkpt lat="45.18087" lon="4.08588">
        <ele>783.13</ele>
        <time>2023-01-14T15:19:51Z</time>
      </trkpt>
      <trkpt lat="45.18099" lon="4.08602">
        <ele>781.69</ele>
        <time>2023-01-14T15:20:02Z</time>
      </trkpt>
      <trkpt lat="45.18108" lon="4.08614">
        <ele>783.13</ele>
        <time>2023-01-14T15:20:11Z</time>
      </trkpt>
      <trkpt lat="45.18117" lon="4.08632">
        <ele>783.61</ele>
        <time>2023-01-14T15:20:22Z</time>
      </trkpt>
      <trkpt lat="45.18119" lon="4.08635">
        <ele>784.09</ele>
        <time>2023-01-14T15:20:24Z</time>
      </trkpt>
      <trkpt lat="45.18129" lon="4.08657">
        <ele>786.5</ele>
        <time>2023-01-14T15:20:38Z</time>
      </trkpt>
      <trkpt lat="45.18142" lon="4.08663">
        <ele>786.98</ele>
        <time>2023-01-14T15:20:48Z</time>
      </trkpt>
      <trkpt lat="45.18155" lon="4.08662">
        <ele>787.46</ele>
        <time>2023-01-14T15:20:59Z</time>
      </trkpt>
      <trkpt lat="45.18161" lon="4.08664">
        <ele>787.46</ele>
        <time>2023-01-14T15:21:09Z</time>
      </trkpt>
      <trkpt lat="45.18158" lon="4.08675">
        <ele>786.02</ele>
        <time>2023-01-14T15:21:26Z</time>
      </trkpt>
      <trkpt lat="45.18158" lon="4.08676">
        <ele>785.05</ele>
        <time>2023-01-14T15:22:01Z</time>
      </trkpt>
      <trkpt lat="45.18158" lon="4.0867">
        <ele>783.61</ele>
        <time>2023-01-14T15:22:32Z</time>
      </trkpt>
      <trkpt lat="45.18163" lon="4.08664">
        <ele>782.65</ele>
        <time>2023-01-14T15:22:39Z</time>
      </trkpt>
      <trkpt lat="45.18197" lon="4.08643">
        <ele>781.69</ele>
        <time>2023-01-14T15:22:56Z</time>
      </trkpt>
      <trkpt lat="45.18213" lon="4.08613">
        <ele>781.21</ele>
        <time>2023-01-14T15:23:09Z</time>
      </trkpt>
      <trkpt lat="45.18215" lon="4.08594">
        <ele>779.29</ele>
        <time>2023-01-14T15:23:18Z</time>
      </trkpt>
      <trkpt lat="45.18222" lon="4.08563">
        <ele>782.65</ele>
        <time>2023-01-14T15:23:28Z</time>
      </trkpt>
      <trkpt lat="45.18235" lon="4.08553">
        <ele>785.05</ele>
        <time>2023-01-14T15:23:41Z</time>
      </trkpt>
      <trkpt lat="45.18247" lon="4.08553">
        <ele>785.53</ele>
        <time>2023-01-14T15:23:48Z</time>
      </trkpt>
      <trkpt lat="45.18271" lon="4.08561">
        <ele>784.57</ele>
        <time>2023-01-14T15:24:02Z</time>
      </trkpt>
      <trkpt lat="45.18277" lon="4.08565">
        <ele>784.57</ele>
        <time>2023-01-14T15:24:06Z</time>
      </trkpt>
      <trkpt lat="45.18303" lon="4.08583">
        <ele>781.69</ele>
        <time>2023-01-14T15:24:22Z</time>
      </trkpt>
      <trkpt lat="45.18322" lon="4.08595">
        <ele>779.77</ele>
        <time>2023-01-14T15:24:35Z</time>
      </trkpt>
      <trkpt lat="45.1834" lon="4.08607">
        <ele>780.25</ele>
        <time>2023-01-14T15:24:49Z</time>
      </trkpt>
      <trkpt lat="45.18364" lon="4.08625">
        <ele>780.25</ele>
        <time>2023-01-14T15:25:05Z</time>
      </trkpt>
      <trkpt lat="45.18373" lon="4.08635">
        <ele>778.32</ele>
        <time>2023-01-14T15:25:14Z</time>
      </trkpt>
      <trkpt lat="45.18384" lon="4.08663">
        <ele>776.4</ele>
        <time>2023-01-14T15:25:27Z</time>
      </trkpt>
      <trkpt lat="45.18392" lon="4.08687">
        <ele>775.44</ele>
        <time>2023-01-14T15:25:41Z</time>
      </trkpt>
      <trkpt lat="45.18399" lon="4.087">
        <ele>776.4</ele>
        <time>2023-01-14T15:25:51Z</time>
      </trkpt>
      <trkpt lat="45.18404" lon="4.08708">
        <ele>776.4</ele>
        <time>2023-01-14T15:25:55Z</time>
      </trkpt>
      <trkpt lat="45.18414" lon="4.08727">
        <ele>776.88</ele>
        <time>2023-01-14T15:26:08Z</time>
      </trkpt>
      <trkpt lat="45.18417" lon="4.08732">
        <ele>777.84</ele>
        <time>2023-01-14T15:26:12Z</time>
      </trkpt>
      <trkpt lat="45.18432" lon="4.08749">
        <ele>778.32</ele>
        <time>2023-01-14T15:26:25Z</time>
      </trkpt>
      <trkpt lat="45.18444" lon="4.08766">
        <ele>775.44</ele>
        <time>2023-01-14T15:26:38Z</time>
      </trkpt>
      <trkpt lat="45.18453" lon="4.08773">
        <ele>774.48</ele>
        <time>2023-01-14T15:26:47Z</time>
      </trkpt>
      <trkpt lat="45.18459" lon="4.08777">
        <ele>774</ele>
        <time>2023-01-14T15:26:51Z</time>
      </trkpt>
      <trkpt lat="45.18463" lon="4.08779">
        <ele>774</ele>
        <time>2023-01-14T15:26:56Z</time>
      </trkpt>
      <trkpt lat="45.18468" lon="4.08783">
        <ele>773.52</ele>
        <time>2023-01-14T15:27:01Z</time>
      </trkpt>
      <trkpt lat="45.18479" lon="4.08787">
        <ele>772.56</ele>
        <time>2023-01-14T15:27:12Z</time>
      </trkpt>
      <trkpt lat="45.18488" lon="4.08794">
        <ele>771.11</ele>
        <time>2023-01-14T15:27:27Z</time>
      </trkpt>
      <trkpt lat="45.1849" lon="4.08794">
        <ele>770.63</ele>
        <time>2023-01-14T15:27:46Z</time>
      </trkpt>
      <trkpt lat="45.18495" lon="4.08798">
        <ele>770.15</ele>
        <time>2023-01-14T15:28:06Z</time>
      </trkpt>
      <trkpt lat="45.185" lon="4.08803">
        <ele>768.23</ele>
        <time>2023-01-14T15:28:13Z</time>
      </trkpt>
      <trkpt lat="45.18509" lon="4.08811">
        <ele>766.79</ele>
        <time>2023-01-14T15:28:24Z</time>
      </trkpt>
      <trkpt lat="45.18519" lon="4.08818">
        <ele>765.83</ele>
        <time>2023-01-14T15:28:35Z</time>
      </trkpt>
      <trkpt lat="45.18524" lon="4.0882">
        <ele>764.87</ele>
        <time>2023-01-14T15:28:40Z</time>
      </trkpt>
      <trkpt lat="45.18538" lon="4.08828">
        <ele>762.94</ele>
        <time>2023-01-14T15:28:52Z</time>
      </trkpt>
      <trkpt lat="45.18552" lon="4.08835">
        <ele>760.06</ele>
        <time>2023-01-14T15:29:04Z</time>
      </trkpt>
      <trkpt lat="45.18555" lon="4.08837">
        <ele>758.14</ele>
        <time>2023-01-14T15:29:08Z</time>
      </trkpt>
      <trkpt lat="45.1857" lon="4.08846">
        <ele>752.85</ele>
        <time>2023-01-14T15:29:20Z</time>
      </trkpt>
      <trkpt lat="45.18576" lon="4.08853">
        <ele>751.89</ele>
        <time>2023-01-14T15:29:34Z</time>
      </trkpt>
      <trkpt lat="45.1858" lon="4.08855">
        <ele>752.37</ele>
        <time>2023-01-14T15:29:38Z</time>
      </trkpt>
      <trkpt lat="45.18583" lon="4.08856">
        <ele>751.41</ele>
        <time>2023-01-14T15:29:43Z</time>
      </trkpt>
      <trkpt lat="45.18593" lon="4.0887">
        <ele>749.97</ele>
        <time>2023-01-14T15:29:55Z</time>
      </trkpt>
      <trkpt lat="45.18594" lon="4.08883">
        <ele>748.04</ele>
        <time>2023-01-14T15:30:04Z</time>
      </trkpt>
      <trkpt lat="45.18595" lon="4.08891">
        <ele>747.56</ele>
        <time>2023-01-14T15:30:07Z</time>
      </trkpt>
      <trkpt lat="45.18592" lon="4.08895">
        <ele>747.08</ele>
        <time>2023-01-14T15:30:11Z</time>
      </trkpt>
      <trkpt lat="45.18591" lon="4.08917">
        <ele>746.6</ele>
        <time>2023-01-14T15:30:23Z</time>
      </trkpt>
      <trkpt lat="45.18592" lon="4.08936">
        <ele>746.12</ele>
        <time>2023-01-14T15:30:35Z</time>
      </trkpt>
      <trkpt lat="45.1859" lon="4.08974">
        <ele>744.68</ele>
        <time>2023-01-14T15:30:55Z</time>
      </trkpt>
      <trkpt lat="45.18591" lon="4.08996">
        <ele>742.28</ele>
        <time>2023-01-14T15:31:09Z</time>
      </trkpt>
      <trkpt lat="45.18593" lon="4.0902">
        <ele>739.39</ele>
        <time>2023-01-14T15:31:23Z</time>
      </trkpt>
      <trkpt lat="45.186" lon="4.09039">
        <ele>737.47</ele>
        <time>2023-01-14T15:31:36Z</time>
      </trkpt>
      <trkpt lat="45.1861" lon="4.09069">
        <ele>736.51</ele>
        <time>2023-01-14T15:31:54Z</time>
      </trkpt>
      <trkpt lat="45.18623" lon="4.09096">
        <ele>735.07</ele>
        <time>2023-01-14T15:32:11Z</time>
      </trkpt>
      <trkpt lat="45.18638" lon="4.09122">
        <ele>735.55</ele>
        <time>2023-01-14T15:32:31Z</time>
      </trkpt>
      <trkpt lat="45.18652" lon="4.09148">
        <ele>737.95</ele>
        <time>2023-01-14T15:32:50Z</time>
      </trkpt>
      <trkpt lat="45.18663" lon="4.09172">
        <ele>740.35</ele>
        <time>2023-01-14T15:33:08Z</time>
      </trkpt>
      <trkpt lat="45.1867" lon="4.09205">
        <ele>741.79</ele>
        <time>2023-01-14T15:33:26Z</time>
      </trkpt>
      <trkpt lat="45.18679" lon="4.0924">
        <ele>740.35</ele>
        <time>2023-01-14T15:33:47Z</time>
      </trkpt>
      <trkpt lat="45.18687" lon="4.09274">
        <ele>739.39</ele>
        <time>2023-01-14T15:34:07Z</time>
      </trkpt>
      <trkpt lat="45.18689" lon="4.09316">
        <ele>738.91</ele>
        <time>2023-01-14T15:34:30Z</time>
      </trkpt>
      <trkpt lat="45.1869" lon="4.09358">
        <ele>738.91</ele>
        <time>2023-01-14T15:34:52Z</time>
      </trkpt>
      <trkpt lat="45.18691" lon="4.09391">
        <ele>739.39</ele>
        <time>2023-01-14T15:35:12Z</time>
      </trkpt>
      <trkpt lat="45.18697" lon="4.09416">
        <ele>746.12</ele>
        <time>2023-01-14T15:35:27Z</time>
      </trkpt>
    </trkseg>
  </trk>
</gpx>